<?xml version="1.0" encoding="UTF-8" standalone="no" ?>
<gpx xmlns="http://www.topografix.com/GPX/1/1" xmlns:xsi="http://www.w3.org/2001/XMLSchema-instance" xsi:schemaLocation="http://www.topografix.com/GPX/1/1 http://www.topografix.com/GPX/1/1/gpx.xsd" version="1.1" creator="VisuGPX - https://www.visugpx.com">
  <metadata>
    <name>voyage toulouse sète mazamet j1 83km 200d+ 200d-</name>
    <desc><![CDATA[Etape 1 de Tournefeuille à castelnaudary.]]></desc>
  </metadata>
  <trk>
    <name><![CDATA[toulouse sète mazamet j1 83km 200d+ 200d-]]></name>
    <trkseg>
      <trkpt lat="43.58122" lon="1.33072">
        <ele>160</ele>
        <time>2019-05-13T19:33:01.990Z</time>
      </trkpt>
      <trkpt lat="43.58142" lon="1.33116">
        <ele>161</ele>
        <time>2019-05-13T19:33:11.260Z</time>
      </trkpt>
      <trkpt lat="43.58228" lon="1.33307">
        <ele>161</ele>
        <time>2019-05-13T19:33:48.934Z</time>
      </trkpt>
      <trkpt lat="43.58232" lon="1.33317">
        <ele>161</ele>
        <time>2019-05-13T19:33:50.943Z</time>
      </trkpt>
      <trkpt lat="43.58236" lon="1.33326">
        <ele>161</ele>
        <time>2019-05-13T19:33:52.477Z</time>
      </trkpt>
      <trkpt lat="43.58344" lon="1.33564">
        <ele>158</ele>
        <time>2019-05-13T19:34:35.450Z</time>
      </trkpt>
      <trkpt lat="43.58359" lon="1.33568">
        <ele>158</ele>
        <time>2019-05-13T19:34:38.740Z</time>
      </trkpt>
      <trkpt lat="43.58361" lon="1.33566">
        <ele>158</ele>
        <time>2019-05-13T19:34:39.319Z</time>
      </trkpt>
      <trkpt lat="43.58365" lon="1.3356">
        <ele>158</ele>
        <time>2019-05-13T19:34:40.540Z</time>
      </trkpt>
      <trkpt lat="43.58376" lon="1.33529">
        <ele>159</ele>
        <time>2019-05-13T19:34:46.169Z</time>
      </trkpt>
      <trkpt lat="43.58381" lon="1.33514">
        <ele>158</ele>
        <time>2019-05-13T19:34:48.684Z</time>
      </trkpt>
      <trkpt lat="43.58396" lon="1.33477">
        <ele>159</ele>
        <time>2019-05-13T19:34:55.556Z</time>
      </trkpt>
      <trkpt lat="43.58402" lon="1.33462">
        <ele>159</ele>
        <time>2019-05-13T19:34:58.332Z</time>
      </trkpt>
      <trkpt lat="43.58413" lon="1.33432">
        <ele>159</ele>
        <time>2019-05-13T19:35:04.050Z</time>
      </trkpt>
      <trkpt lat="43.58418" lon="1.33436">
        <ele>159</ele>
        <time>2019-05-13T19:35:05.349Z</time>
      </trkpt>
      <trkpt lat="43.58423" lon="1.33438">
        <ele>159</ele>
        <time>2019-05-13T19:35:06.487Z</time>
      </trkpt>
      <trkpt lat="43.5846" lon="1.33408">
        <ele>159</ele>
        <time>2019-05-13T19:35:17.020Z</time>
      </trkpt>
      <trkpt lat="43.58465" lon="1.33408">
        <ele>159</ele>
        <time>2019-05-13T19:35:18.332Z</time>
      </trkpt>
      <trkpt lat="43.58489" lon="1.3341">
        <ele>158</ele>
        <time>2019-05-13T19:35:24.542Z</time>
      </trkpt>
      <trkpt lat="43.58518" lon="1.33426">
        <ele>158</ele>
        <time>2019-05-13T19:35:33.089Z</time>
      </trkpt>
      <trkpt lat="43.58527" lon="1.33438">
        <ele>158</ele>
        <time>2019-05-13T19:35:36.569Z</time>
      </trkpt>
      <trkpt lat="43.58563" lon="1.33487">
        <ele>158</ele>
        <time>2019-05-13T19:35:50.108Z</time>
      </trkpt>
      <trkpt lat="43.58595" lon="1.3352">
        <ele>159</ele>
        <time>2019-05-13T19:36:00.277Z</time>
      </trkpt>
      <trkpt lat="43.58596" lon="1.33534">
        <ele>159</ele>
        <time>2019-05-13T19:36:02.680Z</time>
      </trkpt>
      <trkpt lat="43.586" lon="1.3354">
        <ele>159</ele>
        <time>2019-05-13T19:36:04.320Z</time>
      </trkpt>
      <trkpt lat="43.58604" lon="1.33546">
        <ele>159</ele>
        <time>2019-05-13T19:36:05.865Z</time>
      </trkpt>
      <trkpt lat="43.58614" lon="1.33547">
        <ele>159</ele>
        <time>2019-05-13T19:36:08.364Z</time>
      </trkpt>
      <trkpt lat="43.58632" lon="1.33581">
        <ele>159</ele>
        <time>2019-05-13T19:36:15.988Z</time>
      </trkpt>
      <trkpt lat="43.58661" lon="1.3362">
        <ele>160</ele>
        <time>2019-05-13T19:36:25.858Z</time>
      </trkpt>
      <trkpt lat="43.58668" lon="1.3363">
        <ele>160</ele>
        <time>2019-05-13T19:36:28.106Z</time>
      </trkpt>
      <trkpt lat="43.58678" lon="1.33643">
        <ele>160</ele>
        <time>2019-05-13T19:36:31.145Z</time>
      </trkpt>
      <trkpt lat="43.58693" lon="1.33662">
        <ele>160</ele>
        <time>2019-05-13T19:36:35.705Z</time>
      </trkpt>
      <trkpt lat="43.58732" lon="1.33711">
        <ele>160</ele>
        <time>2019-05-13T19:36:46.788Z</time>
      </trkpt>
      <trkpt lat="43.58762" lon="1.33768">
        <ele>160</ele>
        <time>2019-05-13T19:36:57.445Z</time>
      </trkpt>
      <trkpt lat="43.58768" lon="1.33777">
        <ele>160</ele>
        <time>2019-05-13T19:36:59.246Z</time>
      </trkpt>
      <trkpt lat="43.58775" lon="1.33786">
        <ele>160</ele>
        <time>2019-05-13T19:37:01.018Z</time>
      </trkpt>
      <trkpt lat="43.58782" lon="1.33794">
        <ele>160</ele>
        <time>2019-05-13T19:37:02.902Z</time>
      </trkpt>
      <trkpt lat="43.58785" lon="1.33798">
        <ele>160</ele>
        <time>2019-05-13T19:37:03.753Z</time>
      </trkpt>
      <trkpt lat="43.58786" lon="1.33814">
        <ele>160</ele>
        <time>2019-05-13T19:37:06.145Z</time>
      </trkpt>
      <trkpt lat="43.58782" lon="1.33821">
        <ele>160</ele>
        <time>2019-05-13T19:37:07.520Z</time>
      </trkpt>
      <trkpt lat="43.58788" lon="1.33827">
        <ele>160</ele>
        <time>2019-05-13T19:37:09.078Z</time>
      </trkpt>
      <trkpt lat="43.58794" lon="1.33837">
        <ele>159</ele>
        <time>2019-05-13T19:37:11.132Z</time>
      </trkpt>
      <trkpt lat="43.5881" lon="1.33831">
        <ele>160</ele>
        <time>2019-05-13T19:37:14.599Z</time>
      </trkpt>
      <trkpt lat="43.58814" lon="1.33833">
        <ele>160</ele>
        <time>2019-05-13T19:37:15.500Z</time>
      </trkpt>
      <trkpt lat="43.5882" lon="1.33838">
        <ele>159</ele>
        <time>2019-05-13T19:37:17.034Z</time>
      </trkpt>
      <trkpt lat="43.58867" lon="1.33891">
        <ele>159</ele>
        <time>2019-05-13T19:37:30.551Z</time>
      </trkpt>
      <trkpt lat="43.58868" lon="1.33917">
        <ele>159</ele>
        <time>2019-05-13T19:37:34.920Z</time>
      </trkpt>
      <trkpt lat="43.58871" lon="1.33921">
        <ele>158</ele>
        <time>2019-05-13T19:37:35.921Z</time>
      </trkpt>
      <trkpt lat="43.58875" lon="1.33925">
        <ele>158</ele>
        <time>2019-05-13T19:37:37.132Z</time>
      </trkpt>
      <trkpt lat="43.58894" lon="1.33923">
        <ele>159</ele>
        <time>2019-05-13T19:37:42.217Z</time>
      </trkpt>
      <trkpt lat="43.58901" lon="1.33931">
        <ele>159</ele>
        <time>2019-05-13T19:37:44.411Z</time>
      </trkpt>
      <trkpt lat="43.58947" lon="1.33984">
        <ele>159</ele>
        <time>2019-05-13T19:37:59.925Z</time>
      </trkpt>
      <trkpt lat="43.59001" lon="1.34046">
        <ele>160</ele>
        <time>2019-05-13T19:38:17.416Z</time>
      </trkpt>
      <trkpt lat="43.59002" lon="1.34047">
        <ele>160</ele>
        <time>2019-05-13T19:38:18.076Z</time>
      </trkpt>
      <trkpt lat="43.59014" lon="1.34062">
        <ele>161</ele>
        <time>2019-05-13T19:38:22.209Z</time>
      </trkpt>
      <trkpt lat="43.59028" lon="1.34078">
        <ele>161</ele>
        <time>2019-05-13T19:38:26.640Z</time>
      </trkpt>
      <trkpt lat="43.5903" lon="1.3408">
        <ele>160</ele>
        <time>2019-05-13T19:38:27.644Z</time>
      </trkpt>
      <trkpt lat="43.59032" lon="1.34078">
        <ele>160</ele>
        <time>2019-05-13T19:38:28.169Z</time>
      </trkpt>
      <trkpt lat="43.59036" lon="1.34086">
        <ele>160</ele>
        <time>2019-05-13T19:38:29.901Z</time>
      </trkpt>
      <trkpt lat="43.59039" lon="1.34086">
        <ele>160</ele>
        <time>2019-05-13T19:38:30.588Z</time>
      </trkpt>
      <trkpt lat="43.5904" lon="1.34088">
        <ele>160</ele>
        <time>2019-05-13T19:38:31.029Z</time>
      </trkpt>
      <trkpt lat="43.59041" lon="1.3409">
        <ele>160</ele>
        <time>2019-05-13T19:38:31.470Z</time>
      </trkpt>
      <trkpt lat="43.59039" lon="1.341">
        <ele>160</ele>
        <time>2019-05-13T19:38:33.296Z</time>
      </trkpt>
      <trkpt lat="43.59036" lon="1.34108">
        <ele>160</ele>
        <time>2019-05-13T19:38:34.852Z</time>
      </trkpt>
      <trkpt lat="43.59031" lon="1.34115">
        <ele>160</ele>
        <time>2019-05-13T19:38:36.730Z</time>
      </trkpt>
      <trkpt lat="43.58983" lon="1.34191">
        <ele>160</ele>
        <time>2019-05-13T19:38:54.357Z</time>
      </trkpt>
      <trkpt lat="43.58974" lon="1.34206">
        <ele>160</ele>
        <time>2019-05-13T19:38:57.510Z</time>
      </trkpt>
      <trkpt lat="43.58919" lon="1.34328">
        <ele>160</ele>
        <time>2019-05-13T19:39:20.309Z</time>
      </trkpt>
      <trkpt lat="43.5888" lon="1.34383">
        <ele>160</ele>
        <time>2019-05-13T19:39:32.381Z</time>
      </trkpt>
      <trkpt lat="43.58868" lon="1.34399">
        <ele>160</ele>
        <time>2019-05-13T19:39:36.016Z</time>
      </trkpt>
      <trkpt lat="43.5887" lon="1.34402">
        <ele>160</ele>
        <time>2019-05-13T19:39:36.528Z</time>
      </trkpt>
      <trkpt lat="43.58874" lon="1.34407">
        <ele>160</ele>
        <time>2019-05-13T19:39:37.713Z</time>
      </trkpt>
      <trkpt lat="43.58921" lon="1.34474">
        <ele>160</ele>
        <time>2019-05-13T19:39:52.591Z</time>
      </trkpt>
      <trkpt lat="43.58942" lon="1.34503">
        <ele>159</ele>
        <time>2019-05-13T19:39:59.277Z</time>
      </trkpt>
      <trkpt lat="43.58949" lon="1.34513">
        <ele>159</ele>
        <time>2019-05-13T19:40:01.289Z</time>
      </trkpt>
      <trkpt lat="43.58983" lon="1.34562">
        <ele>159</ele>
        <time>2019-05-13T19:40:11.775Z</time>
      </trkpt>
      <trkpt lat="43.59008" lon="1.34598">
        <ele>158</ele>
        <time>2019-05-13T19:40:19.895Z</time>
      </trkpt>
      <trkpt lat="43.5902" lon="1.34609">
        <ele>159</ele>
        <time>2019-05-13T19:40:23.096Z</time>
      </trkpt>
      <trkpt lat="43.59018" lon="1.34634">
        <ele>159</ele>
        <time>2019-05-13T19:40:27.277Z</time>
      </trkpt>
      <trkpt lat="43.59015" lon="1.34651">
        <ele>159</ele>
        <time>2019-05-13T19:40:30.292Z</time>
      </trkpt>
      <trkpt lat="43.59013" lon="1.3469">
        <ele>159</ele>
        <time>2019-05-13T19:40:36.809Z</time>
      </trkpt>
      <trkpt lat="43.5903" lon="1.34697">
        <ele>159</ele>
        <time>2019-05-13T19:40:40.558Z</time>
      </trkpt>
      <trkpt lat="43.59148" lon="1.34709">
        <ele>157</ele>
        <time>2019-05-13T19:41:04.222Z</time>
      </trkpt>
      <trkpt lat="43.59155" lon="1.34706">
        <ele>157</ele>
        <time>2019-05-13T19:41:05.788Z</time>
      </trkpt>
      <trkpt lat="43.59162" lon="1.34705">
        <ele>157</ele>
        <time>2019-05-13T19:41:07.044Z</time>
      </trkpt>
      <trkpt lat="43.59183" lon="1.34707">
        <ele>156</ele>
        <time>2019-05-13T19:41:11.094Z</time>
      </trkpt>
      <trkpt lat="43.59229" lon="1.34709">
        <ele>156</ele>
        <time>2019-05-13T19:41:20.086Z</time>
      </trkpt>
      <trkpt lat="43.59268" lon="1.34715">
        <ele>156</ele>
        <time>2019-05-13T19:41:27.621Z</time>
      </trkpt>
      <trkpt lat="43.59305" lon="1.34709">
        <ele>156</ele>
        <time>2019-05-13T19:41:34.760Z</time>
      </trkpt>
      <trkpt lat="43.59323" lon="1.34705">
        <ele>156</ele>
        <time>2019-05-13T19:41:38.361Z</time>
      </trkpt>
      <trkpt lat="43.59351" lon="1.34702">
        <ele>156</ele>
        <time>2019-05-13T19:41:44.164Z</time>
      </trkpt>
      <trkpt lat="43.59362" lon="1.34706">
        <ele>156</ele>
        <time>2019-05-13T19:41:46.475Z</time>
      </trkpt>
      <trkpt lat="43.59376" lon="1.3472">
        <ele>156</ele>
        <time>2019-05-13T19:41:50.474Z</time>
      </trkpt>
      <trkpt lat="43.59385" lon="1.34733">
        <ele>156</ele>
        <time>2019-05-13T19:41:53.239Z</time>
      </trkpt>
      <trkpt lat="43.59403" lon="1.34741">
        <ele>157</ele>
        <time>2019-05-13T19:41:57.728Z</time>
      </trkpt>
      <trkpt lat="43.59448" lon="1.34764">
        <ele>157</ele>
        <time>2019-05-13T19:42:08.908Z</time>
      </trkpt>
      <trkpt lat="43.59513" lon="1.34801">
        <ele>158</ele>
        <time>2019-05-13T19:42:25.966Z</time>
      </trkpt>
      <trkpt lat="43.59566" lon="1.34837">
        <ele>159</ele>
        <time>2019-05-13T19:42:40.177Z</time>
      </trkpt>
      <trkpt lat="43.59654" lon="1.3492">
        <ele>158</ele>
        <time>2019-05-13T19:43:03.030Z</time>
      </trkpt>
      <trkpt lat="43.59678" lon="1.34946">
        <ele>156</ele>
        <time>2019-05-13T19:43:09.181Z</time>
      </trkpt>
      <trkpt lat="43.59685" lon="1.34954">
        <ele>156</ele>
        <time>2019-05-13T19:43:10.919Z</time>
      </trkpt>
      <trkpt lat="43.59714" lon="1.34963">
        <ele>155</ele>
        <time>2019-05-13T19:43:16.931Z</time>
      </trkpt>
      <trkpt lat="43.59719" lon="1.34966">
        <ele>155</ele>
        <time>2019-05-13T19:43:17.944Z</time>
      </trkpt>
      <trkpt lat="43.59732" lon="1.34975">
        <ele>155</ele>
        <time>2019-05-13T19:43:20.798Z</time>
      </trkpt>
      <trkpt lat="43.59741" lon="1.34997">
        <ele>154</ele>
        <time>2019-05-13T19:43:24.630Z</time>
      </trkpt>
      <trkpt lat="43.59749" lon="1.35028">
        <ele>155</ele>
        <time>2019-05-13T19:43:29.286Z</time>
      </trkpt>
      <trkpt lat="43.59758" lon="1.35058">
        <ele>156</ele>
        <time>2019-05-13T19:43:34.006Z</time>
      </trkpt>
      <trkpt lat="43.59786" lon="1.35121">
        <ele>155</ele>
        <time>2019-05-13T19:43:45.228Z</time>
      </trkpt>
      <trkpt lat="43.59804" lon="1.3515">
        <ele>155</ele>
        <time>2019-05-13T19:43:51.140Z</time>
      </trkpt>
      <trkpt lat="43.599" lon="1.35286">
        <ele>156</ele>
        <time>2019-05-13T19:44:22.137Z</time>
      </trkpt>
      <trkpt lat="43.59905" lon="1.35294">
        <ele>156</ele>
        <time>2019-05-13T19:44:23.997Z</time>
      </trkpt>
      <trkpt lat="43.59908" lon="1.35297">
        <ele>156</ele>
        <time>2019-05-13T19:44:24.816Z</time>
      </trkpt>
      <trkpt lat="43.59934" lon="1.35329">
        <ele>157</ele>
        <time>2019-05-13T19:44:32.730Z</time>
      </trkpt>
      <trkpt lat="43.59957" lon="1.35354">
        <ele>156</ele>
        <time>2019-05-13T19:44:39.461Z</time>
      </trkpt>
      <trkpt lat="43.59959" lon="1.35357">
        <ele>156</ele>
        <time>2019-05-13T19:44:40.179Z</time>
      </trkpt>
      <trkpt lat="43.6001" lon="1.35406">
        <ele>156</ele>
        <time>2019-05-13T19:44:55.122Z</time>
      </trkpt>
      <trkpt lat="43.60062" lon="1.35452">
        <ele>156</ele>
        <time>2019-05-13T19:45:09.464Z</time>
      </trkpt>
      <trkpt lat="43.60071" lon="1.35455">
        <ele>156</ele>
        <time>2019-05-13T19:45:11.552Z</time>
      </trkpt>
      <trkpt lat="43.6008" lon="1.35456">
        <ele>156</ele>
        <time>2019-05-13T19:45:13.588Z</time>
      </trkpt>
      <trkpt lat="43.60094" lon="1.35462">
        <ele>156</ele>
        <time>2019-05-13T19:45:16.993Z</time>
      </trkpt>
      <trkpt lat="43.6011" lon="1.35504">
        <ele>156</ele>
        <time>2019-05-13T19:45:24.664Z</time>
      </trkpt>
      <trkpt lat="43.6011" lon="1.35513">
        <ele>156</ele>
        <time>2019-05-13T19:45:26.299Z</time>
      </trkpt>
      <trkpt lat="43.60113" lon="1.35514">
        <ele>156</ele>
        <time>2019-05-13T19:45:27.079Z</time>
      </trkpt>
      <trkpt lat="43.60125" lon="1.35504">
        <ele>156</ele>
        <time>2019-05-13T19:45:30.604Z</time>
      </trkpt>
      <trkpt lat="43.60139" lon="1.35527">
        <ele>156</ele>
        <time>2019-05-13T19:45:35.974Z</time>
      </trkpt>
      <trkpt lat="43.60158" lon="1.35537">
        <ele>156</ele>
        <time>2019-05-13T19:45:41.139Z</time>
      </trkpt>
      <trkpt lat="43.60185" lon="1.35545">
        <ele>156</ele>
        <time>2019-05-13T19:45:48.017Z</time>
      </trkpt>
      <trkpt lat="43.60204" lon="1.35545">
        <ele>156</ele>
        <time>2019-05-13T19:45:53.012Z</time>
      </trkpt>
      <trkpt lat="43.60242" lon="1.35546">
        <ele>157</ele>
        <time>2019-05-13T19:46:02.365Z</time>
      </trkpt>
      <trkpt lat="43.60266" lon="1.35547">
        <ele>157</ele>
        <time>2019-05-13T19:46:08.356Z</time>
      </trkpt>
      <trkpt lat="43.60333" lon="1.35548">
        <ele>158</ele>
        <time>2019-05-13T19:46:24.261Z</time>
      </trkpt>
      <trkpt lat="43.60435" lon="1.35498">
        <ele>157</ele>
        <time>2019-05-13T19:46:49.920Z</time>
      </trkpt>
      <trkpt lat="43.60619" lon="1.35516">
        <ele>154</ele>
        <time>2019-05-13T19:47:30.104Z</time>
      </trkpt>
      <trkpt lat="43.60627" lon="1.3551">
        <ele>154</ele>
        <time>2019-05-13T19:47:32.314Z</time>
      </trkpt>
      <trkpt lat="43.60632" lon="1.35511">
        <ele>154</ele>
        <time>2019-05-13T19:47:33.294Z</time>
      </trkpt>
      <trkpt lat="43.60631" lon="1.35525">
        <ele>155</ele>
        <time>2019-05-13T19:47:35.894Z</time>
      </trkpt>
      <trkpt lat="43.6063" lon="1.35533">
        <ele>155</ele>
        <time>2019-05-13T19:47:37.499Z</time>
      </trkpt>
      <trkpt lat="43.60634" lon="1.35556">
        <ele>155</ele>
        <time>2019-05-13T19:47:41.286Z</time>
      </trkpt>
      <trkpt lat="43.6063" lon="1.35634">
        <ele>157</ele>
        <time>2019-05-13T19:47:54.207Z</time>
      </trkpt>
      <trkpt lat="43.60628" lon="1.35684">
        <ele>157</ele>
        <time>2019-05-13T19:48:02.514Z</time>
      </trkpt>
      <trkpt lat="43.60626" lon="1.35706">
        <ele>157</ele>
        <time>2019-05-13T19:48:05.905Z</time>
      </trkpt>
      <trkpt lat="43.60625" lon="1.35736">
        <ele>158</ele>
        <time>2019-05-13T19:48:10.834Z</time>
      </trkpt>
      <trkpt lat="43.60624" lon="1.35748">
        <ele>158</ele>
        <time>2019-05-13T19:48:12.910Z</time>
      </trkpt>
      <trkpt lat="43.60623" lon="1.35757">
        <ele>158</ele>
        <time>2019-05-13T19:48:14.074Z</time>
      </trkpt>
      <trkpt lat="43.60621" lon="1.35796">
        <ele>157</ele>
        <time>2019-05-13T19:48:20.039Z</time>
      </trkpt>
      <trkpt lat="43.6062" lon="1.35824">
        <ele>157</ele>
        <time>2019-05-13T19:48:23.923Z</time>
      </trkpt>
      <trkpt lat="43.6061" lon="1.359">
        <ele>157</ele>
        <time>2019-05-13T19:48:34.842Z</time>
      </trkpt>
      <trkpt lat="43.6061" lon="1.35906">
        <ele>157</ele>
        <time>2019-05-13T19:48:35.562Z</time>
      </trkpt>
      <trkpt lat="43.60607" lon="1.35905">
        <ele>157</ele>
        <time>2019-05-13T19:48:36.145Z</time>
      </trkpt>
      <trkpt lat="43.60599" lon="1.35914">
        <ele>157</ele>
        <time>2019-05-13T19:48:38.249Z</time>
      </trkpt>
      <trkpt lat="43.60599" lon="1.35918">
        <ele>156</ele>
        <time>2019-05-13T19:48:38.771Z</time>
      </trkpt>
      <trkpt lat="43.606" lon="1.35921">
        <ele>156</ele>
        <time>2019-05-13T19:48:39.293Z</time>
      </trkpt>
      <trkpt lat="43.60608" lon="1.35926">
        <ele>156</ele>
        <time>2019-05-13T19:48:40.942Z</time>
      </trkpt>
      <trkpt lat="43.6061" lon="1.35924">
        <ele>156</ele>
        <time>2019-05-13T19:48:41.464Z</time>
      </trkpt>
      <trkpt lat="43.60612" lon="1.35928">
        <ele>156</ele>
        <time>2019-05-13T19:48:42.040Z</time>
      </trkpt>
      <trkpt lat="43.60621" lon="1.35942">
        <ele>156</ele>
        <time>2019-05-13T19:48:44.671Z</time>
      </trkpt>
      <trkpt lat="43.60612" lon="1.35954">
        <ele>156</ele>
        <time>2019-05-13T19:48:47.156Z</time>
      </trkpt>
      <trkpt lat="43.60603" lon="1.3602">
        <ele>154</ele>
        <time>2019-05-13T19:48:56.586Z</time>
      </trkpt>
      <trkpt lat="43.60605" lon="1.36126">
        <ele>155</ele>
        <time>2019-05-13T19:49:11.919Z</time>
      </trkpt>
      <trkpt lat="43.60604" lon="1.36166">
        <ele>155</ele>
        <time>2019-05-13T19:49:18.173Z</time>
      </trkpt>
      <trkpt lat="43.60602" lon="1.36202">
        <ele>155</ele>
        <time>2019-05-13T19:49:24.033Z</time>
      </trkpt>
      <trkpt lat="43.60598" lon="1.36237">
        <ele>154</ele>
        <time>2019-05-13T19:49:29.719Z</time>
      </trkpt>
      <trkpt lat="43.60595" lon="1.36274">
        <ele>153</ele>
        <time>2019-05-13T19:49:35.663Z</time>
      </trkpt>
      <trkpt lat="43.60591" lon="1.36361">
        <ele>154</ele>
        <time>2019-05-13T19:49:49.741Z</time>
      </trkpt>
      <trkpt lat="43.60598" lon="1.36361">
        <ele>154</ele>
        <time>2019-05-13T19:49:51.276Z</time>
      </trkpt>
      <trkpt lat="43.60605" lon="1.36364">
        <ele>154</ele>
        <time>2019-05-13T19:49:52.820Z</time>
      </trkpt>
      <trkpt lat="43.60623" lon="1.36375">
        <ele>154</ele>
        <time>2019-05-13T19:49:57.493Z</time>
      </trkpt>
      <trkpt lat="43.60609" lon="1.36439">
        <ele>155</ele>
        <time>2019-05-13T19:50:09.314Z</time>
      </trkpt>
      <trkpt lat="43.60607" lon="1.36448">
        <ele>155</ele>
        <time>2019-05-13T19:50:10.959Z</time>
      </trkpt>
      <trkpt lat="43.60591" lon="1.36514">
        <ele>154</ele>
        <time>2019-05-13T19:50:23.261Z</time>
      </trkpt>
      <trkpt lat="43.60589" lon="1.36542">
        <ele>154</ele>
        <time>2019-05-13T19:50:28.082Z</time>
      </trkpt>
      <trkpt lat="43.60588" lon="1.3656">
        <ele>154</ele>
        <time>2019-05-13T19:50:31.140Z</time>
      </trkpt>
      <trkpt lat="43.60586" lon="1.36602">
        <ele>154</ele>
        <time>2019-05-13T19:50:37.845Z</time>
      </trkpt>
      <trkpt lat="43.60582" lon="1.3666">
        <ele>155</ele>
        <time>2019-05-13T19:50:47.449Z</time>
      </trkpt>
      <trkpt lat="43.60579" lon="1.36692">
        <ele>155</ele>
        <time>2019-05-13T19:50:52.544Z</time>
      </trkpt>
      <trkpt lat="43.60566" lon="1.3674">
        <ele>156</ele>
        <time>2019-05-13T19:51:00.599Z</time>
      </trkpt>
      <trkpt lat="43.60504" lon="1.36836">
        <ele>154</ele>
        <time>2019-05-13T19:51:20.093Z</time>
      </trkpt>
      <trkpt lat="43.60511" lon="1.36842">
        <ele>154</ele>
        <time>2019-05-13T19:51:21.898Z</time>
      </trkpt>
      <trkpt lat="43.60637" lon="1.36902">
        <ele>155</ele>
        <time>2019-05-13T19:51:52.214Z</time>
      </trkpt>
      <trkpt lat="43.60641" lon="1.36899">
        <ele>155</ele>
        <time>2019-05-13T19:51:53.201Z</time>
      </trkpt>
      <trkpt lat="43.60654" lon="1.36912">
        <ele>154</ele>
        <time>2019-05-13T19:51:57.282Z</time>
      </trkpt>
      <trkpt lat="43.60668" lon="1.36927">
        <ele>154</ele>
        <time>2019-05-13T19:52:01.012Z</time>
      </trkpt>
      <trkpt lat="43.6068" lon="1.36938">
        <ele>154</ele>
        <time>2019-05-13T19:52:04.731Z</time>
      </trkpt>
      <trkpt lat="43.60686" lon="1.36944">
        <ele>154</ele>
        <time>2019-05-13T19:52:06.625Z</time>
      </trkpt>
      <trkpt lat="43.60712" lon="1.36971">
        <ele>155</ele>
        <time>2019-05-13T19:52:13.947Z</time>
      </trkpt>
      <trkpt lat="43.60715" lon="1.36977">
        <ele>155</ele>
        <time>2019-05-13T19:52:15.173Z</time>
      </trkpt>
      <trkpt lat="43.60716" lon="1.36986">
        <ele>155</ele>
        <time>2019-05-13T19:52:16.516Z</time>
      </trkpt>
      <trkpt lat="43.60706" lon="1.37073">
        <ele>154</ele>
        <time>2019-05-13T19:52:33.101Z</time>
      </trkpt>
      <trkpt lat="43.60703" lon="1.371">
        <ele>154</ele>
        <time>2019-05-13T19:52:37.421Z</time>
      </trkpt>
      <trkpt lat="43.60707" lon="1.37131">
        <ele>154</ele>
        <time>2019-05-13T19:52:43.228Z</time>
      </trkpt>
      <trkpt lat="43.60711" lon="1.37145">
        <ele>154</ele>
        <time>2019-05-13T19:52:45.705Z</time>
      </trkpt>
      <trkpt lat="43.6071" lon="1.37157">
        <ele>154</ele>
        <time>2019-05-13T19:52:47.886Z</time>
      </trkpt>
      <trkpt lat="43.60714" lon="1.37167">
        <ele>154</ele>
        <time>2019-05-13T19:52:50.026Z</time>
      </trkpt>
      <trkpt lat="43.60721" lon="1.37172">
        <ele>155</ele>
        <time>2019-05-13T19:52:51.651Z</time>
      </trkpt>
      <trkpt lat="43.60727" lon="1.37172">
        <ele>155</ele>
        <time>2019-05-13T19:52:52.870Z</time>
      </trkpt>
      <trkpt lat="43.60728" lon="1.37173">
        <ele>155</ele>
        <time>2019-05-13T19:52:53.230Z</time>
      </trkpt>
      <trkpt lat="43.60736" lon="1.3718">
        <ele>155</ele>
        <time>2019-05-13T19:52:55.509Z</time>
      </trkpt>
      <trkpt lat="43.6077" lon="1.37198">
        <ele>156</ele>
        <time>2019-05-13T19:53:04.262Z</time>
      </trkpt>
      <trkpt lat="43.60775" lon="1.372">
        <ele>156</ele>
        <time>2019-05-13T19:53:05.674Z</time>
      </trkpt>
      <trkpt lat="43.60777" lon="1.37203">
        <ele>156</ele>
        <time>2019-05-13T19:53:06.413Z</time>
      </trkpt>
      <trkpt lat="43.60807" lon="1.37214">
        <ele>156</ele>
        <time>2019-05-13T19:53:15.575Z</time>
      </trkpt>
      <trkpt lat="43.60817" lon="1.37218">
        <ele>156</ele>
        <time>2019-05-13T19:53:18.621Z</time>
      </trkpt>
      <trkpt lat="43.60854" lon="1.37243">
        <ele>154</ele>
        <time>2019-05-13T19:53:30.933Z</time>
      </trkpt>
      <trkpt lat="43.60862" lon="1.3726">
        <ele>154</ele>
        <time>2019-05-13T19:53:35.408Z</time>
      </trkpt>
      <trkpt lat="43.60869" lon="1.37269">
        <ele>154</ele>
        <time>2019-05-13T19:53:38.493Z</time>
      </trkpt>
      <trkpt lat="43.6087" lon="1.3728">
        <ele>154</ele>
        <time>2019-05-13T19:53:40.162Z</time>
      </trkpt>
      <trkpt lat="43.6087" lon="1.37287">
        <ele>154</ele>
        <time>2019-05-13T19:53:41.274Z</time>
      </trkpt>
      <trkpt lat="43.60868" lon="1.37352">
        <ele>154</ele>
        <time>2019-05-13T19:53:51.029Z</time>
      </trkpt>
      <trkpt lat="43.60861" lon="1.37542">
        <ele>154</ele>
        <time>2019-05-13T19:54:18.620Z</time>
      </trkpt>
      <trkpt lat="43.60861" lon="1.37558">
        <ele>154</ele>
        <time>2019-05-13T19:54:20.983Z</time>
      </trkpt>
      <trkpt lat="43.60867" lon="1.3756">
        <ele>154</ele>
        <time>2019-05-13T19:54:22.233Z</time>
      </trkpt>
      <trkpt lat="43.60888" lon="1.37571">
        <ele>154</ele>
        <time>2019-05-13T19:54:26.961Z</time>
      </trkpt>
      <trkpt lat="43.6095" lon="1.3761">
        <ele>154</ele>
        <time>2019-05-13T19:54:41.358Z</time>
      </trkpt>
      <trkpt lat="43.6102" lon="1.37652">
        <ele>154</ele>
        <time>2019-05-13T19:54:57.305Z</time>
      </trkpt>
      <trkpt lat="43.61023" lon="1.37656">
        <ele>154</ele>
        <time>2019-05-13T19:54:58.134Z</time>
      </trkpt>
      <trkpt lat="43.61026" lon="1.37652">
        <ele>153</ele>
        <time>2019-05-13T19:54:59.284Z</time>
      </trkpt>
      <trkpt lat="43.61037" lon="1.37624">
        <ele>153</ele>
        <time>2019-05-13T19:55:04.270Z</time>
      </trkpt>
      <trkpt lat="43.61043" lon="1.37619">
        <ele>153</ele>
        <time>2019-05-13T19:55:05.893Z</time>
      </trkpt>
      <trkpt lat="43.61082" lon="1.37581">
        <ele>153</ele>
        <time>2019-05-13T19:55:16.323Z</time>
      </trkpt>
      <trkpt lat="43.61089" lon="1.37576">
        <ele>153</ele>
        <time>2019-05-13T19:55:18.068Z</time>
      </trkpt>
      <trkpt lat="43.611" lon="1.376">
        <ele>153</ele>
        <time>2019-05-13T19:55:22.621Z</time>
      </trkpt>
      <trkpt lat="43.61135" lon="1.37691">
        <ele>152</ele>
        <time>2019-05-13T19:55:38.174Z</time>
      </trkpt>
      <trkpt lat="43.61168" lon="1.37831">
        <ele>153</ele>
        <time>2019-05-13T19:56:00.958Z</time>
      </trkpt>
      <trkpt lat="43.61212" lon="1.37877">
        <ele>152</ele>
        <time>2019-05-13T19:56:13.735Z</time>
      </trkpt>
      <trkpt lat="43.61214" lon="1.3788">
        <ele>152</ele>
        <time>2019-05-13T19:56:14.295Z</time>
      </trkpt>
      <trkpt lat="43.61217" lon="1.37875">
        <ele>152</ele>
        <time>2019-05-13T19:56:15.180Z</time>
      </trkpt>
      <trkpt lat="43.61221" lon="1.37872">
        <ele>152</ele>
        <time>2019-05-13T19:56:16.349Z</time>
      </trkpt>
      <trkpt lat="43.61226" lon="1.37879">
        <ele>152</ele>
        <time>2019-05-13T19:56:17.860Z</time>
      </trkpt>
      <trkpt lat="43.61236" lon="1.37895">
        <ele>152</ele>
        <time>2019-05-13T19:56:21.676Z</time>
      </trkpt>
      <trkpt lat="43.61289" lon="1.38142">
        <ele>152</ele>
        <time>2019-05-13T19:57:02.204Z</time>
      </trkpt>
      <trkpt lat="43.61291" lon="1.38182">
        <ele>152</ele>
        <time>2019-05-13T19:57:08.092Z</time>
      </trkpt>
      <trkpt lat="43.61281" lon="1.38219">
        <ele>151</ele>
        <time>2019-05-13T19:57:13.406Z</time>
      </trkpt>
      <trkpt lat="43.6126" lon="1.38272">
        <ele>150</ele>
        <time>2019-05-13T19:57:21.381Z</time>
      </trkpt>
      <trkpt lat="43.61258" lon="1.38277">
        <ele>150</ele>
        <time>2019-05-13T19:57:22.127Z</time>
      </trkpt>
      <trkpt lat="43.61235" lon="1.38362">
        <ele>149</ele>
        <time>2019-05-13T19:57:33.967Z</time>
      </trkpt>
      <trkpt lat="43.61236" lon="1.3837">
        <ele>149</ele>
        <time>2019-05-13T19:57:35.121Z</time>
      </trkpt>
      <trkpt lat="43.61238" lon="1.38372">
        <ele>149</ele>
        <time>2019-05-13T19:57:35.342Z</time>
      </trkpt>
      <trkpt lat="43.61251" lon="1.38421">
        <ele>147</ele>
        <time>2019-05-13T19:57:42.235Z</time>
      </trkpt>
      <trkpt lat="43.61294" lon="1.38499">
        <ele>147</ele>
        <time>2019-05-13T19:57:55.312Z</time>
      </trkpt>
      <trkpt lat="43.61378" lon="1.3862">
        <ele>145</ele>
        <time>2019-05-13T19:58:19.325Z</time>
      </trkpt>
      <trkpt lat="43.61402" lon="1.38654">
        <ele>145</ele>
        <time>2019-05-13T19:58:26.949Z</time>
      </trkpt>
      <trkpt lat="43.61492" lon="1.38725">
        <ele>145</ele>
        <time>2019-05-13T19:58:51.387Z</time>
      </trkpt>
      <trkpt lat="43.61574" lon="1.38749">
        <ele>149</ele>
        <time>2019-05-13T19:59:11.725Z</time>
      </trkpt>
      <trkpt lat="43.61589" lon="1.38756">
        <ele>148</ele>
        <time>2019-05-13T19:59:15.741Z</time>
      </trkpt>
      <trkpt lat="43.61628" lon="1.38774">
        <ele>147</ele>
        <time>2019-05-13T19:59:25.464Z</time>
      </trkpt>
      <trkpt lat="43.61723" lon="1.38822">
        <ele>148</ele>
        <time>2019-05-13T19:59:49.510Z</time>
      </trkpt>
      <trkpt lat="43.61749" lon="1.38835">
        <ele>147</ele>
        <time>2019-05-13T19:59:55.674Z</time>
      </trkpt>
      <trkpt lat="43.61764" lon="1.38842">
        <ele>147</ele>
        <time>2019-05-13T19:59:59.502Z</time>
      </trkpt>
      <trkpt lat="43.61858" lon="1.38895">
        <ele>149</ele>
        <time>2019-05-13T20:00:25.325Z</time>
      </trkpt>
      <trkpt lat="43.62039" lon="1.3895">
        <ele>152</ele>
        <time>2019-05-13T20:01:15.640Z</time>
      </trkpt>
      <trkpt lat="43.62044" lon="1.38955">
        <ele>152</ele>
        <time>2019-05-13T20:01:17.641Z</time>
      </trkpt>
      <trkpt lat="43.62047" lon="1.38958">
        <ele>152</ele>
        <time>2019-05-13T20:01:18.625Z</time>
      </trkpt>
      <trkpt lat="43.62094" lon="1.39018">
        <ele>153</ele>
        <time>2019-05-13T20:01:33.318Z</time>
      </trkpt>
      <trkpt lat="43.62099" lon="1.39023">
        <ele>153</ele>
        <time>2019-05-13T20:01:35.034Z</time>
      </trkpt>
      <trkpt lat="43.62106" lon="1.39041">
        <ele>153</ele>
        <time>2019-05-13T20:01:38.397Z</time>
      </trkpt>
      <trkpt lat="43.62108" lon="1.3905">
        <ele>153</ele>
        <time>2019-05-13T20:01:39.588Z</time>
      </trkpt>
      <trkpt lat="43.62136" lon="1.39107">
        <ele>149</ele>
        <time>2019-05-13T20:01:51.496Z</time>
      </trkpt>
      <trkpt lat="43.6218" lon="1.39139">
        <ele>149</ele>
        <time>2019-05-13T20:02:02.047Z</time>
      </trkpt>
      <trkpt lat="43.62201" lon="1.39144">
        <ele>149</ele>
        <time>2019-05-13T20:02:06.368Z</time>
      </trkpt>
      <trkpt lat="43.62208" lon="1.39149">
        <ele>149</ele>
        <time>2019-05-13T20:02:08.039Z</time>
      </trkpt>
      <trkpt lat="43.62216" lon="1.39153">
        <ele>149</ele>
        <time>2019-05-13T20:02:09.754Z</time>
      </trkpt>
      <trkpt lat="43.62217" lon="1.3916">
        <ele>149</ele>
        <time>2019-05-13T20:02:10.639Z</time>
      </trkpt>
      <trkpt lat="43.62222" lon="1.39163">
        <ele>149</ele>
        <time>2019-05-13T20:02:11.796Z</time>
      </trkpt>
      <trkpt lat="43.62246" lon="1.39184">
        <ele>147</ele>
        <time>2019-05-13T20:02:17.928Z</time>
      </trkpt>
      <trkpt lat="43.62251" lon="1.39189">
        <ele>149</ele>
        <time>2019-05-13T20:02:19.211Z</time>
      </trkpt>
      <trkpt lat="43.62253" lon="1.39192">
        <ele>149</ele>
        <time>2019-05-13T20:02:19.909Z</time>
      </trkpt>
      <trkpt lat="43.62259" lon="1.39199">
        <ele>149</ele>
        <time>2019-05-13T20:02:21.585Z</time>
      </trkpt>
      <trkpt lat="43.62261" lon="1.39207">
        <ele>149</ele>
        <time>2019-05-13T20:02:22.826Z</time>
      </trkpt>
      <trkpt lat="43.6227" lon="1.39219">
        <ele>149</ele>
        <time>2019-05-13T20:02:25.661Z</time>
      </trkpt>
      <trkpt lat="43.62281" lon="1.39228">
        <ele>149</ele>
        <time>2019-05-13T20:02:28.933Z</time>
      </trkpt>
      <trkpt lat="43.62305" lon="1.39264">
        <ele>148</ele>
        <time>2019-05-13T20:02:37.929Z</time>
      </trkpt>
      <trkpt lat="43.6235" lon="1.39333">
        <ele>148</ele>
        <time>2019-05-13T20:02:55.876Z</time>
      </trkpt>
      <trkpt lat="43.6238" lon="1.39322">
        <ele>149</ele>
        <time>2019-05-13T20:03:02.714Z</time>
      </trkpt>
      <trkpt lat="43.62384" lon="1.39313">
        <ele>149</ele>
        <time>2019-05-13T20:03:04.846Z</time>
      </trkpt>
      <trkpt lat="43.62388" lon="1.39309">
        <ele>149</ele>
        <time>2019-05-13T20:03:06.206Z</time>
      </trkpt>
      <trkpt lat="43.62394" lon="1.39305">
        <ele>149</ele>
        <time>2019-05-13T20:03:07.317Z</time>
      </trkpt>
      <trkpt lat="43.62397" lon="1.39304">
        <ele>149</ele>
        <time>2019-05-13T20:03:08.088Z</time>
      </trkpt>
      <trkpt lat="43.62406" lon="1.39301">
        <ele>149</ele>
        <time>2019-05-13T20:03:10.383Z</time>
      </trkpt>
      <trkpt lat="43.62449" lon="1.3927">
        <ele>149</ele>
        <time>2019-05-13T20:03:21.563Z</time>
      </trkpt>
      <trkpt lat="43.62455" lon="1.39266">
        <ele>149</ele>
        <time>2019-05-13T20:03:22.758Z</time>
      </trkpt>
      <trkpt lat="43.62468" lon="1.39259">
        <ele>148</ele>
        <time>2019-05-13T20:03:25.953Z</time>
      </trkpt>
      <trkpt lat="43.62483" lon="1.39248">
        <ele>149</ele>
        <time>2019-05-13T20:03:29.962Z</time>
      </trkpt>
      <trkpt lat="43.62486" lon="1.39247">
        <ele>149</ele>
        <time>2019-05-13T20:03:30.829Z</time>
      </trkpt>
      <trkpt lat="43.62486" lon="1.39247">
        <ele>149</ele>
        <time>2019-05-13T20:03:30.887Z</time>
      </trkpt>
      <trkpt lat="43.62486" lon="1.39247">
        <ele>149</ele>
        <time>2019-05-13T20:03:30.894Z</time>
      </trkpt>
      <trkpt lat="43.62505" lon="1.3931">
        <ele>148</ele>
        <time>2019-05-13T20:03:43.701Z</time>
      </trkpt>
      <trkpt lat="43.62525" lon="1.39373">
        <ele>146</ele>
        <time>2019-05-13T20:03:56.535Z</time>
      </trkpt>
      <trkpt lat="43.62526" lon="1.3938">
        <ele>146</ele>
        <time>2019-05-13T20:03:57.612Z</time>
      </trkpt>
      <trkpt lat="43.62537" lon="1.39418">
        <ele>145</ele>
        <time>2019-05-13T20:04:02.735Z</time>
      </trkpt>
      <trkpt lat="43.62546" lon="1.3945">
        <ele>145</ele>
        <time>2019-05-13T20:04:06.895Z</time>
      </trkpt>
      <trkpt lat="43.62556" lon="1.39485">
        <ele>145</ele>
        <time>2019-05-13T20:04:11.684Z</time>
      </trkpt>
      <trkpt lat="43.6258" lon="1.39566">
        <ele>145</ele>
        <time>2019-05-13T20:04:22.708Z</time>
      </trkpt>
      <trkpt lat="43.6259" lon="1.39603">
        <ele>145</ele>
        <time>2019-05-13T20:04:27.647Z</time>
      </trkpt>
      <trkpt lat="43.62592" lon="1.39617">
        <ele>144</ele>
        <time>2019-05-13T20:04:29.337Z</time>
      </trkpt>
      <trkpt lat="43.6259" lon="1.39631">
        <ele>144</ele>
        <time>2019-05-13T20:04:31.135Z</time>
      </trkpt>
      <trkpt lat="43.62586" lon="1.39642">
        <ele>143</ele>
        <time>2019-05-13T20:04:32.663Z</time>
      </trkpt>
      <trkpt lat="43.62567" lon="1.39691">
        <ele>141</ele>
        <time>2019-05-13T20:04:39.528Z</time>
      </trkpt>
      <trkpt lat="43.62524" lon="1.39811">
        <ele>139</ele>
        <time>2019-05-13T20:04:54.616Z</time>
      </trkpt>
      <trkpt lat="43.62503" lon="1.39874">
        <ele>138</ele>
        <time>2019-05-13T20:05:02.399Z</time>
      </trkpt>
      <trkpt lat="43.62501" lon="1.3988">
        <ele>138</ele>
        <time>2019-05-13T20:05:03.255Z</time>
      </trkpt>
      <trkpt lat="43.62497" lon="1.3989">
        <ele>136</ele>
        <time>2019-05-13T20:05:04.656Z</time>
      </trkpt>
      <trkpt lat="43.62492" lon="1.39897">
        <ele>136</ele>
        <time>2019-05-13T20:05:05.736Z</time>
      </trkpt>
      <trkpt lat="43.62489" lon="1.39895">
        <ele>136</ele>
        <time>2019-05-13T20:05:06.186Z</time>
      </trkpt>
      <trkpt lat="43.62481" lon="1.39897">
        <ele>136</ele>
        <time>2019-05-13T20:05:07.570Z</time>
      </trkpt>
      <trkpt lat="43.62479" lon="1.39899">
        <ele>136</ele>
        <time>2019-05-13T20:05:08.061Z</time>
      </trkpt>
      <trkpt lat="43.62478" lon="1.39903">
        <ele>136</ele>
        <time>2019-05-13T20:05:08.531Z</time>
      </trkpt>
      <trkpt lat="43.62478" lon="1.39907">
        <ele>136</ele>
        <time>2019-05-13T20:05:08.994Z</time>
      </trkpt>
      <trkpt lat="43.62479" lon="1.3991">
        <ele>136</ele>
        <time>2019-05-13T20:05:09.411Z</time>
      </trkpt>
      <trkpt lat="43.6248" lon="1.39913">
        <ele>136</ele>
        <time>2019-05-13T20:05:09.861Z</time>
      </trkpt>
      <trkpt lat="43.62482" lon="1.39916">
        <ele>136</ele>
        <time>2019-05-13T20:05:10.280Z</time>
      </trkpt>
      <trkpt lat="43.62476" lon="1.39919">
        <ele>134</ele>
        <time>2019-05-13T20:05:11.216Z</time>
      </trkpt>
      <trkpt lat="43.62472" lon="1.39961">
        <ele>132</ele>
        <time>2019-05-13T20:05:16.577Z</time>
      </trkpt>
      <trkpt lat="43.62471" lon="1.39982">
        <ele>131</ele>
        <time>2019-05-13T20:05:18.989Z</time>
      </trkpt>
      <trkpt lat="43.62467" lon="1.40059">
        <ele>124</ele>
        <time>2019-05-13T20:05:30.042Z</time>
      </trkpt>
      <trkpt lat="43.62461" lon="1.40186">
        <ele>125</ele>
        <time>2019-05-13T20:05:49.244Z</time>
      </trkpt>
      <trkpt lat="43.62464" lon="1.40207">
        <ele>126</ele>
        <time>2019-05-13T20:05:54.563Z</time>
      </trkpt>
      <trkpt lat="43.62461" lon="1.40277">
        <ele>132</ele>
        <time>2019-05-13T20:06:07.950Z</time>
      </trkpt>
      <trkpt lat="43.62469" lon="1.40272">
        <ele>132</ele>
        <time>2019-05-13T20:06:10.525Z</time>
      </trkpt>
      <trkpt lat="43.62476" lon="1.4027">
        <ele>132</ele>
        <time>2019-05-13T20:06:12.688Z</time>
      </trkpt>
      <trkpt lat="43.62481" lon="1.4028">
        <ele>132</ele>
        <time>2019-05-13T20:06:15.291Z</time>
      </trkpt>
      <trkpt lat="43.62485" lon="1.40283">
        <ele>132</ele>
        <time>2019-05-13T20:06:16.345Z</time>
      </trkpt>
      <trkpt lat="43.62493" lon="1.4029">
        <ele>132</ele>
        <time>2019-05-13T20:06:18.474Z</time>
      </trkpt>
      <trkpt lat="43.62527" lon="1.40357">
        <ele>133</ele>
        <time>2019-05-13T20:06:35.126Z</time>
      </trkpt>
      <trkpt lat="43.6255" lon="1.40404">
        <ele>133</ele>
        <time>2019-05-13T20:06:44.412Z</time>
      </trkpt>
      <trkpt lat="43.62601" lon="1.40451">
        <ele>132</ele>
        <time>2019-05-13T20:06:57.511Z</time>
      </trkpt>
      <trkpt lat="43.62672" lon="1.4048">
        <ele>131</ele>
        <time>2019-05-13T20:07:12.838Z</time>
      </trkpt>
      <trkpt lat="43.62722" lon="1.405">
        <ele>131</ele>
        <time>2019-05-13T20:07:23.564Z</time>
      </trkpt>
      <trkpt lat="43.62789" lon="1.40525">
        <ele>129</ele>
        <time>2019-05-13T20:07:37.691Z</time>
      </trkpt>
      <trkpt lat="43.63208" lon="1.40644">
        <ele>127</ele>
        <time>2019-05-13T20:09:06.039Z</time>
      </trkpt>
      <trkpt lat="43.63213" lon="1.40646">
        <ele>127</ele>
        <time>2019-05-13T20:09:06.949Z</time>
      </trkpt>
      <trkpt lat="43.63222" lon="1.4065">
        <ele>127</ele>
        <time>2019-05-13T20:09:09.071Z</time>
      </trkpt>
      <trkpt lat="43.6324" lon="1.40658">
        <ele>126</ele>
        <time>2019-05-13T20:09:13.543Z</time>
      </trkpt>
      <trkpt lat="43.63323" lon="1.40713">
        <ele>127</ele>
        <time>2019-05-13T20:09:34.325Z</time>
      </trkpt>
      <trkpt lat="43.63387" lon="1.40778">
        <ele>130</ele>
        <time>2019-05-13T20:09:53.674Z</time>
      </trkpt>
      <trkpt lat="43.63566" lon="1.4106">
        <ele>129</ele>
        <time>2019-05-13T20:11:00.121Z</time>
      </trkpt>
      <trkpt lat="43.63641" lon="1.41145">
        <ele>130</ele>
        <time>2019-05-13T20:11:23.355Z</time>
      </trkpt>
      <trkpt lat="43.6367" lon="1.41193">
        <ele>131</ele>
        <time>2019-05-13T20:11:33.134Z</time>
      </trkpt>
      <trkpt lat="43.63685" lon="1.41218">
        <ele>131</ele>
        <time>2019-05-13T20:11:38.431Z</time>
      </trkpt>
      <trkpt lat="43.63704" lon="1.41245">
        <ele>131</ele>
        <time>2019-05-13T20:11:44.283Z</time>
      </trkpt>
      <trkpt lat="43.6375" lon="1.4129">
        <ele>129</ele>
        <time>2019-05-13T20:11:57.096Z</time>
      </trkpt>
      <trkpt lat="43.63797" lon="1.41327">
        <ele>130</ele>
        <time>2019-05-13T20:12:09.348Z</time>
      </trkpt>
      <trkpt lat="43.63828" lon="1.41356">
        <ele>130</ele>
        <time>2019-05-13T20:12:17.883Z</time>
      </trkpt>
      <trkpt lat="43.63878" lon="1.41422">
        <ele>131</ele>
        <time>2019-05-13T20:12:35.157Z</time>
      </trkpt>
      <trkpt lat="43.63969" lon="1.41579">
        <ele>132</ele>
        <time>2019-05-13T20:13:12.162Z</time>
      </trkpt>
      <trkpt lat="43.64011" lon="1.4154">
        <ele>132</ele>
        <time>2019-05-13T20:13:24.483Z</time>
      </trkpt>
      <trkpt lat="43.64015" lon="1.41548">
        <ele>132</ele>
        <time>2019-05-13T20:13:26.254Z</time>
      </trkpt>
      <trkpt lat="43.64017" lon="1.41552">
        <ele>132</ele>
        <time>2019-05-13T20:13:26.868Z</time>
      </trkpt>
      <trkpt lat="43.64018" lon="1.41554">
        <ele>132</ele>
        <time>2019-05-13T20:13:27.401Z</time>
      </trkpt>
      <trkpt lat="43.64106" lon="1.41471">
        <ele>132</ele>
        <time>2019-05-13T20:13:52.554Z</time>
      </trkpt>
      <trkpt lat="43.64143" lon="1.41437">
        <ele>132</ele>
        <time>2019-05-13T20:14:02.780Z</time>
      </trkpt>
      <trkpt lat="43.64165" lon="1.41416">
        <ele>132</ele>
        <time>2019-05-13T20:14:09.304Z</time>
      </trkpt>
      <trkpt lat="43.64173" lon="1.41413">
        <ele>132</ele>
        <time>2019-05-13T20:14:11.498Z</time>
      </trkpt>
      <trkpt lat="43.64182" lon="1.41413">
        <ele>132</ele>
        <time>2019-05-13T20:14:13.764Z</time>
      </trkpt>
      <trkpt lat="43.64188" lon="1.41417">
        <ele>132</ele>
        <time>2019-05-13T20:14:15.612Z</time>
      </trkpt>
      <trkpt lat="43.64198" lon="1.4143">
        <ele>132</ele>
        <time>2019-05-13T20:14:19.341Z</time>
      </trkpt>
      <trkpt lat="43.64214" lon="1.41464">
        <ele>132</ele>
        <time>2019-05-13T20:14:27.275Z</time>
      </trkpt>
      <trkpt lat="43.64246" lon="1.41535">
        <ele>132</ele>
        <time>2019-05-13T20:14:43.221Z</time>
      </trkpt>
      <trkpt lat="43.64272" lon="1.41593">
        <ele>133</ele>
        <time>2019-05-13T20:14:56.657Z</time>
      </trkpt>
      <trkpt lat="43.64281" lon="1.41587">
        <ele>133</ele>
        <time>2019-05-13T20:14:59.134Z</time>
      </trkpt>
      <trkpt lat="43.64288" lon="1.41598">
        <ele>133</ele>
        <time>2019-05-13T20:15:01.824Z</time>
      </trkpt>
      <trkpt lat="43.64329" lon="1.41639">
        <ele>133</ele>
        <time>2019-05-13T20:15:14.978Z</time>
      </trkpt>
      <trkpt lat="43.64334" lon="1.41648">
        <ele>132</ele>
        <time>2019-05-13T20:15:17.141Z</time>
      </trkpt>
      <trkpt lat="43.64342" lon="1.41663">
        <ele>131</ele>
        <time>2019-05-13T20:15:20.630Z</time>
      </trkpt>
      <trkpt lat="43.64352" lon="1.41685">
        <ele>132</ele>
        <time>2019-05-13T20:15:25.622Z</time>
      </trkpt>
      <trkpt lat="43.64365" lon="1.41712">
        <ele>133</ele>
        <time>2019-05-13T20:15:31.719Z</time>
      </trkpt>
      <trkpt lat="43.64452" lon="1.41878">
        <ele>134</ele>
        <time>2019-05-13T20:16:03.479Z</time>
      </trkpt>
      <trkpt lat="43.64462" lon="1.41893">
        <ele>134</ele>
        <time>2019-05-13T20:16:06.515Z</time>
      </trkpt>
      <trkpt lat="43.64471" lon="1.41906">
        <ele>134</ele>
        <time>2019-05-13T20:16:08.837Z</time>
      </trkpt>
      <trkpt lat="43.64511" lon="1.41952">
        <ele>133</ele>
        <time>2019-05-13T20:16:19.486Z</time>
      </trkpt>
      <trkpt lat="43.6452" lon="1.41952">
        <ele>133</ele>
        <time>2019-05-13T20:16:21.185Z</time>
      </trkpt>
      <trkpt lat="43.64521" lon="1.41958">
        <ele>133</ele>
        <time>2019-05-13T20:16:22.116Z</time>
      </trkpt>
      <trkpt lat="43.64522" lon="1.41972">
        <ele>133</ele>
        <time>2019-05-13T20:16:24.380Z</time>
      </trkpt>
      <trkpt lat="43.64524" lon="1.41979">
        <ele>133</ele>
        <time>2019-05-13T20:16:25.630Z</time>
      </trkpt>
      <trkpt lat="43.6453" lon="1.41988">
        <ele>133</ele>
        <time>2019-05-13T20:16:27.478Z</time>
      </trkpt>
      <trkpt lat="43.64578" lon="1.42053">
        <ele>131</ele>
        <time>2019-05-13T20:16:42.437Z</time>
      </trkpt>
      <trkpt lat="43.64602" lon="1.42084">
        <ele>132</ele>
        <time>2019-05-13T20:16:49.792Z</time>
      </trkpt>
      <trkpt lat="43.64569" lon="1.42105">
        <ele>132</ele>
        <time>2019-05-13T20:16:57.809Z</time>
      </trkpt>
      <trkpt lat="43.64561" lon="1.42116">
        <ele>132</ele>
        <time>2019-05-13T20:17:00.395Z</time>
      </trkpt>
      <trkpt lat="43.64557" lon="1.42135">
        <ele>133</ele>
        <time>2019-05-13T20:17:04.115Z</time>
      </trkpt>
      <trkpt lat="43.64557" lon="1.42187">
        <ele>134</ele>
        <time>2019-05-13T20:17:12.800Z</time>
      </trkpt>
      <trkpt lat="43.64603" lon="1.42188">
        <ele>133</ele>
        <time>2019-05-13T20:17:23.770Z</time>
      </trkpt>
      <trkpt lat="43.64673" lon="1.42191">
        <ele>133</ele>
        <time>2019-05-13T20:17:39.834Z</time>
      </trkpt>
      <trkpt lat="43.64681" lon="1.42192">
        <ele>133</ele>
        <time>2019-05-13T20:17:41.389Z</time>
      </trkpt>
      <trkpt lat="43.6468" lon="1.42203">
        <ele>133</ele>
        <time>2019-05-13T20:17:42.962Z</time>
      </trkpt>
      <trkpt lat="43.6468" lon="1.42232">
        <ele>132</ele>
        <time>2019-05-13T20:17:47.548Z</time>
      </trkpt>
      <trkpt lat="43.64677" lon="1.4227">
        <ele>132</ele>
        <time>2019-05-13T20:17:53.402Z</time>
      </trkpt>
      <trkpt lat="43.64676" lon="1.42286">
        <ele>133</ele>
        <time>2019-05-13T20:17:56.013Z</time>
      </trkpt>
      <trkpt lat="43.64673" lon="1.42325">
        <ele>133</ele>
        <time>2019-05-13T20:18:02.373Z</time>
      </trkpt>
      <trkpt lat="43.64671" lon="1.4235">
        <ele>134</ele>
        <time>2019-05-13T20:18:06.190Z</time>
      </trkpt>
      <trkpt lat="43.64657" lon="1.42344">
        <ele>133</ele>
        <time>2019-05-13T20:18:09.520Z</time>
      </trkpt>
      <trkpt lat="43.64616" lon="1.42337">
        <ele>133</ele>
        <time>2019-05-13T20:18:19.250Z</time>
      </trkpt>
      <trkpt lat="43.64601" lon="1.42328">
        <ele>133</ele>
        <time>2019-05-13T20:18:23.564Z</time>
      </trkpt>
      <trkpt lat="43.64533" lon="1.42321">
        <ele>133</ele>
        <time>2019-05-13T20:18:40.351Z</time>
      </trkpt>
      <trkpt lat="43.64518" lon="1.42319">
        <ele>133</ele>
        <time>2019-05-13T20:18:46.118Z</time>
      </trkpt>
      <trkpt lat="43.64507" lon="1.42312">
        <ele>133</ele>
        <time>2019-05-13T20:18:50.554Z</time>
      </trkpt>
      <trkpt lat="43.64502" lon="1.42304">
        <ele>133</ele>
        <time>2019-05-13T20:18:53.758Z</time>
      </trkpt>
      <trkpt lat="43.64471" lon="1.42299">
        <ele>133</ele>
        <time>2019-05-13T20:19:06.070Z</time>
      </trkpt>
      <trkpt lat="43.6447" lon="1.42299">
        <ele>133</ele>
        <time>2019-05-13T20:19:06.385Z</time>
      </trkpt>
      <trkpt lat="43.63946" lon="1.42225">
        <ele>135</ele>
        <time>2019-05-13T20:22:29.283Z</time>
      </trkpt>
      <trkpt lat="43.63925" lon="1.42222">
        <ele>135</ele>
        <time>2019-05-13T20:22:37.065Z</time>
      </trkpt>
      <trkpt lat="43.63883" lon="1.42217">
        <ele>135</ele>
        <time>2019-05-13T20:22:52.641Z</time>
      </trkpt>
      <trkpt lat="43.63547" lon="1.42172">
        <ele>134</ele>
        <time>2019-05-13T20:24:54.594Z</time>
      </trkpt>
      <trkpt lat="43.63542" lon="1.42173">
        <ele>135</ele>
        <time>2019-05-13T20:24:56.385Z</time>
      </trkpt>
      <trkpt lat="43.63538" lon="1.42171">
        <ele>135</ele>
        <time>2019-05-13T20:24:57.845Z</time>
      </trkpt>
      <trkpt lat="43.62692" lon="1.42059">
        <ele>134</ele>
        <time>2019-05-13T20:28:03.194Z</time>
      </trkpt>
      <trkpt lat="43.62687" lon="1.42059">
        <ele>134</ele>
        <time>2019-05-13T20:28:04.215Z</time>
      </trkpt>
      <trkpt lat="43.62638" lon="1.4205">
        <ele>135</ele>
        <time>2019-05-13T20:28:16.114Z</time>
      </trkpt>
      <trkpt lat="43.62415" lon="1.42017">
        <ele>136</ele>
        <time>2019-05-13T20:29:06.853Z</time>
      </trkpt>
      <trkpt lat="43.62346" lon="1.42009">
        <ele>134</ele>
        <time>2019-05-13T20:29:21.641Z</time>
      </trkpt>
      <trkpt lat="43.62208" lon="1.41992">
        <ele>135</ele>
        <time>2019-05-13T20:29:51.049Z</time>
      </trkpt>
      <trkpt lat="43.61579" lon="1.41907">
        <ele>135</ele>
        <time>2019-05-13T20:32:14.976Z</time>
      </trkpt>
      <trkpt lat="43.61322" lon="1.41872">
        <ele>134</ele>
        <time>2019-05-13T20:33:18.664Z</time>
      </trkpt>
      <trkpt lat="43.61267" lon="1.41868">
        <ele>135</ele>
        <time>2019-05-13T20:33:35.240Z</time>
      </trkpt>
      <trkpt lat="43.61216" lon="1.41863">
        <ele>136</ele>
        <time>2019-05-13T20:33:51.234Z</time>
      </trkpt>
      <trkpt lat="43.61161" lon="1.41854">
        <ele>139</ele>
        <time>2019-05-13T20:34:07.773Z</time>
      </trkpt>
      <trkpt lat="43.61149" lon="1.41853">
        <ele>139</ele>
        <time>2019-05-13T20:34:11.514Z</time>
      </trkpt>
      <trkpt lat="43.6115" lon="1.41869">
        <ele>139</ele>
        <time>2019-05-13T20:34:14.318Z</time>
      </trkpt>
      <trkpt lat="43.61149" lon="1.41876">
        <ele>139</ele>
        <time>2019-05-13T20:34:15.938Z</time>
      </trkpt>
      <trkpt lat="43.61145" lon="1.41885">
        <ele>139</ele>
        <time>2019-05-13T20:34:18.166Z</time>
      </trkpt>
      <trkpt lat="43.61135" lon="1.41883">
        <ele>139</ele>
        <time>2019-05-13T20:34:21.373Z</time>
      </trkpt>
      <trkpt lat="43.61131" lon="1.41883">
        <ele>139</ele>
        <time>2019-05-13T20:34:22.579Z</time>
      </trkpt>
      <trkpt lat="43.61128" lon="1.4189">
        <ele>139</ele>
        <time>2019-05-13T20:34:24.098Z</time>
      </trkpt>
      <trkpt lat="43.61129" lon="1.41894">
        <ele>139</ele>
        <time>2019-05-13T20:34:24.662Z</time>
      </trkpt>
      <trkpt lat="43.61139" lon="1.41982">
        <ele>139</ele>
        <time>2019-05-13T20:34:42.251Z</time>
      </trkpt>
      <trkpt lat="43.61139" lon="1.41983">
        <ele>139</ele>
        <time>2019-05-13T20:34:42.366Z</time>
      </trkpt>
      <trkpt lat="43.6114" lon="1.41988">
        <ele>139</ele>
        <time>2019-05-13T20:34:43.318Z</time>
      </trkpt>
      <trkpt lat="43.6114" lon="1.41994">
        <ele>139</ele>
        <time>2019-05-13T20:34:44.192Z</time>
      </trkpt>
      <trkpt lat="43.61141" lon="1.42">
        <ele>139</ele>
        <time>2019-05-13T20:34:45.281Z</time>
      </trkpt>
      <trkpt lat="43.61143" lon="1.42014">
        <ele>139</ele>
        <time>2019-05-13T20:34:47.966Z</time>
      </trkpt>
      <trkpt lat="43.61153" lon="1.42083">
        <ele>138</ele>
        <time>2019-05-13T20:34:59.526Z</time>
      </trkpt>
      <trkpt lat="43.61156" lon="1.42117">
        <ele>138</ele>
        <time>2019-05-13T20:35:04.680Z</time>
      </trkpt>
      <trkpt lat="43.61211" lon="1.42468">
        <ele>140</ele>
        <time>2019-05-13T20:36:02.781Z</time>
      </trkpt>
      <trkpt lat="43.61222" lon="1.42501">
        <ele>140</ele>
        <time>2019-05-13T20:36:09.363Z</time>
      </trkpt>
      <trkpt lat="43.61222" lon="1.42505">
        <ele>140</ele>
        <time>2019-05-13T20:36:09.942Z</time>
      </trkpt>
      <trkpt lat="43.61222" lon="1.42507">
        <ele>140</ele>
        <time>2019-05-13T20:36:10.248Z</time>
      </trkpt>
      <trkpt lat="43.61218" lon="1.42517">
        <ele>140</ele>
        <time>2019-05-13T20:36:12.165Z</time>
      </trkpt>
      <trkpt lat="43.61219" lon="1.42524">
        <ele>140</ele>
        <time>2019-05-13T20:36:13.462Z</time>
      </trkpt>
      <trkpt lat="43.6122" lon="1.42531">
        <ele>140</ele>
        <time>2019-05-13T20:36:14.657Z</time>
      </trkpt>
      <trkpt lat="43.61226" lon="1.42542">
        <ele>140</ele>
        <time>2019-05-13T20:36:17.216Z</time>
      </trkpt>
      <trkpt lat="43.61228" lon="1.42556">
        <ele>140</ele>
        <time>2019-05-13T20:36:19.412Z</time>
      </trkpt>
      <trkpt lat="43.61231" lon="1.42576">
        <ele>139</ele>
        <time>2019-05-13T20:36:23.030Z</time>
      </trkpt>
      <trkpt lat="43.61237" lon="1.42613">
        <ele>139</ele>
        <time>2019-05-13T20:36:29.654Z</time>
      </trkpt>
      <trkpt lat="43.61243" lon="1.4265">
        <ele>139</ele>
        <time>2019-05-13T20:36:36.139Z</time>
      </trkpt>
      <trkpt lat="43.6125" lon="1.4268">
        <ele>139</ele>
        <time>2019-05-13T20:36:41.934Z</time>
      </trkpt>
      <trkpt lat="43.6129" lon="1.42866">
        <ele>141</ele>
        <time>2019-05-13T20:37:19.785Z</time>
      </trkpt>
      <trkpt lat="43.61298" lon="1.429">
        <ele>141</ele>
        <time>2019-05-13T20:37:26.519Z</time>
      </trkpt>
      <trkpt lat="43.61345" lon="1.43052">
        <ele>142</ele>
        <time>2019-05-13T20:37:55.150Z</time>
      </trkpt>
      <trkpt lat="43.61351" lon="1.43067">
        <ele>142</ele>
        <time>2019-05-13T20:37:58.150Z</time>
      </trkpt>
      <trkpt lat="43.61359" lon="1.43089">
        <ele>142</ele>
        <time>2019-05-13T20:38:01.935Z</time>
      </trkpt>
      <trkpt lat="43.61408" lon="1.43197">
        <ele>141</ele>
        <time>2019-05-13T20:38:21.867Z</time>
      </trkpt>
      <trkpt lat="43.61479" lon="1.43303">
        <ele>142</ele>
        <time>2019-05-13T20:38:45.135Z</time>
      </trkpt>
      <trkpt lat="43.61481" lon="1.43303">
        <ele>142</ele>
        <time>2019-05-13T20:38:45.468Z</time>
      </trkpt>
      <trkpt lat="43.61482" lon="1.43306">
        <ele>142</ele>
        <time>2019-05-13T20:38:46.213Z</time>
      </trkpt>
      <trkpt lat="43.6153" lon="1.43393">
        <ele>142</ele>
        <time>2019-05-13T20:39:05.717Z</time>
      </trkpt>
      <trkpt lat="43.61535" lon="1.43403">
        <ele>142</ele>
        <time>2019-05-13T20:39:07.942Z</time>
      </trkpt>
      <trkpt lat="43.6154" lon="1.43412">
        <ele>142</ele>
        <time>2019-05-13T20:39:10.091Z</time>
      </trkpt>
      <trkpt lat="43.61577" lon="1.43521">
        <ele>140</ele>
        <time>2019-05-13T20:39:32.756Z</time>
      </trkpt>
      <trkpt lat="43.6163" lon="1.43833">
        <ele>144</ele>
        <time>2019-05-13T20:40:32.057Z</time>
      </trkpt>
      <trkpt lat="43.6163" lon="1.43909">
        <ele>143</ele>
        <time>2019-05-13T20:40:46.551Z</time>
      </trkpt>
      <trkpt lat="43.61593" lon="1.44043">
        <ele>144</ele>
        <time>2019-05-13T20:41:13.117Z</time>
      </trkpt>
      <trkpt lat="43.61591" lon="1.44048">
        <ele>144</ele>
        <time>2019-05-13T20:41:14.562Z</time>
      </trkpt>
      <trkpt lat="43.6158" lon="1.44077">
        <ele>145</ele>
        <time>2019-05-13T20:41:20.166Z</time>
      </trkpt>
      <trkpt lat="43.61562" lon="1.44131">
        <ele>146</ele>
        <time>2019-05-13T20:41:30.700Z</time>
      </trkpt>
      <trkpt lat="43.61556" lon="1.44156">
        <ele>146</ele>
        <time>2019-05-13T20:41:35.530Z</time>
      </trkpt>
      <trkpt lat="43.61544" lon="1.44197">
        <ele>147</ele>
        <time>2019-05-13T20:41:43.519Z</time>
      </trkpt>
      <trkpt lat="43.61536" lon="1.44237">
        <ele>146</ele>
        <time>2019-05-13T20:41:50.876Z</time>
      </trkpt>
      <trkpt lat="43.61533" lon="1.44249">
        <ele>146</ele>
        <time>2019-05-13T20:41:53.008Z</time>
      </trkpt>
      <trkpt lat="43.61528" lon="1.44275">
        <ele>146</ele>
        <time>2019-05-13T20:41:57.702Z</time>
      </trkpt>
      <trkpt lat="43.61525" lon="1.44293">
        <ele>146</ele>
        <time>2019-05-13T20:42:00.678Z</time>
      </trkpt>
      <trkpt lat="43.61527" lon="1.44401">
        <ele>144</ele>
        <time>2019-05-13T20:42:18.974Z</time>
      </trkpt>
      <trkpt lat="43.61548" lon="1.44557">
        <ele>147</ele>
        <time>2019-05-13T20:42:46.865Z</time>
      </trkpt>
      <trkpt lat="43.61551" lon="1.44563">
        <ele>148</ele>
        <time>2019-05-13T20:42:48.315Z</time>
      </trkpt>
      <trkpt lat="43.61554" lon="1.44584">
        <ele>147</ele>
        <time>2019-05-13T20:42:51.978Z</time>
      </trkpt>
      <trkpt lat="43.61559" lon="1.44717">
        <ele>145</ele>
        <time>2019-05-13T20:43:16.812Z</time>
      </trkpt>
      <trkpt lat="43.61531" lon="1.44809">
        <ele>145</ele>
        <time>2019-05-13T20:43:35.778Z</time>
      </trkpt>
      <trkpt lat="43.61525" lon="1.44821">
        <ele>145</ele>
        <time>2019-05-13T20:43:38.759Z</time>
      </trkpt>
      <trkpt lat="43.61523" lon="1.44824">
        <ele>145</ele>
        <time>2019-05-13T20:43:39.609Z</time>
      </trkpt>
      <trkpt lat="43.61444" lon="1.45001">
        <ele>148</ele>
        <time>2019-05-13T20:44:22.995Z</time>
      </trkpt>
      <trkpt lat="43.61426" lon="1.45042">
        <ele>148</ele>
        <time>2019-05-13T20:44:32.581Z</time>
      </trkpt>
      <trkpt lat="43.61423" lon="1.4505">
        <ele>148</ele>
        <time>2019-05-13T20:44:34.757Z</time>
      </trkpt>
      <trkpt lat="43.61418" lon="1.4506">
        <ele>148</ele>
        <time>2019-05-13T20:44:37.022Z</time>
      </trkpt>
      <trkpt lat="43.61412" lon="1.45071">
        <ele>149</ele>
        <time>2019-05-13T20:44:39.533Z</time>
      </trkpt>
      <trkpt lat="43.6141" lon="1.45072">
        <ele>149</ele>
        <time>2019-05-13T20:44:40.163Z</time>
      </trkpt>
      <trkpt lat="43.61389" lon="1.45049">
        <ele>150</ele>
        <time>2019-05-13T20:44:47.423Z</time>
      </trkpt>
      <trkpt lat="43.61387" lon="1.45047">
        <ele>150</ele>
        <time>2019-05-13T20:44:48.008Z</time>
      </trkpt>
      <trkpt lat="43.61383" lon="1.4505">
        <ele>150</ele>
        <time>2019-05-13T20:44:49.213Z</time>
      </trkpt>
      <trkpt lat="43.61379" lon="1.45056">
        <ele>150</ele>
        <time>2019-05-13T20:44:50.500Z</time>
      </trkpt>
      <trkpt lat="43.61375" lon="1.45063">
        <ele>150</ele>
        <time>2019-05-13T20:44:52.292Z</time>
      </trkpt>
      <trkpt lat="43.61373" lon="1.45068">
        <ele>150</ele>
        <time>2019-05-13T20:44:53.749Z</time>
      </trkpt>
      <trkpt lat="43.61355" lon="1.45098">
        <ele>150</ele>
        <time>2019-05-13T20:45:00.671Z</time>
      </trkpt>
      <trkpt lat="43.61306" lon="1.45146">
        <ele>152</ele>
        <time>2019-05-13T20:45:15.580Z</time>
      </trkpt>
      <trkpt lat="43.61256" lon="1.45176">
        <ele>151</ele>
        <time>2019-05-13T20:45:27.935Z</time>
      </trkpt>
      <trkpt lat="43.61173" lon="1.45223">
        <ele>150</ele>
        <time>2019-05-13T20:45:49.865Z</time>
      </trkpt>
      <trkpt lat="43.61167" lon="1.45229">
        <ele>150</ele>
        <time>2019-05-13T20:45:51.584Z</time>
      </trkpt>
      <trkpt lat="43.61161" lon="1.45234">
        <ele>150</ele>
        <time>2019-05-13T20:45:53.834Z</time>
      </trkpt>
      <trkpt lat="43.6115" lon="1.4524">
        <ele>150</ele>
        <time>2019-05-13T20:45:57.162Z</time>
      </trkpt>
      <trkpt lat="43.61146" lon="1.45243">
        <ele>150</ele>
        <time>2019-05-13T20:45:58.301Z</time>
      </trkpt>
      <trkpt lat="43.61143" lon="1.45246">
        <ele>150</ele>
        <time>2019-05-13T20:45:59.428Z</time>
      </trkpt>
      <trkpt lat="43.6114" lon="1.45249">
        <ele>151</ele>
        <time>2019-05-13T20:46:00.397Z</time>
      </trkpt>
      <trkpt lat="43.61133" lon="1.45259">
        <ele>149</ele>
        <time>2019-05-13T20:46:02.999Z</time>
      </trkpt>
      <trkpt lat="43.61118" lon="1.45265">
        <ele>149</ele>
        <time>2019-05-13T20:46:07.730Z</time>
      </trkpt>
      <trkpt lat="43.61098" lon="1.45273">
        <ele>150</ele>
        <time>2019-05-13T20:46:12.996Z</time>
      </trkpt>
      <trkpt lat="43.61096" lon="1.45274">
        <ele>150</ele>
        <time>2019-05-13T20:46:14.015Z</time>
      </trkpt>
      <trkpt lat="43.61083" lon="1.45279">
        <ele>151</ele>
        <time>2019-05-13T20:46:17.751Z</time>
      </trkpt>
      <trkpt lat="43.61044" lon="1.45298">
        <ele>152</ele>
        <time>2019-05-13T20:46:29.834Z</time>
      </trkpt>
      <trkpt lat="43.61039" lon="1.45301">
        <ele>152</ele>
        <time>2019-05-13T20:46:31.233Z</time>
      </trkpt>
      <trkpt lat="43.61031" lon="1.45305">
        <ele>152</ele>
        <time>2019-05-13T20:46:33.615Z</time>
      </trkpt>
      <trkpt lat="43.61007" lon="1.45318">
        <ele>152</ele>
        <time>2019-05-13T20:46:41.726Z</time>
      </trkpt>
      <trkpt lat="43.60986" lon="1.45335">
        <ele>154</ele>
        <time>2019-05-13T20:46:48.657Z</time>
      </trkpt>
      <trkpt lat="43.6096" lon="1.45362">
        <ele>154</ele>
        <time>2019-05-13T20:46:58.155Z</time>
      </trkpt>
      <trkpt lat="43.60956" lon="1.45366">
        <ele>154</ele>
        <time>2019-05-13T20:46:59.481Z</time>
      </trkpt>
      <trkpt lat="43.60956" lon="1.45368">
        <ele>154</ele>
        <time>2019-05-13T20:47:00.096Z</time>
      </trkpt>
      <trkpt lat="43.60943" lon="1.45397">
        <ele>154</ele>
        <time>2019-05-13T20:47:06.476Z</time>
      </trkpt>
      <trkpt lat="43.60911" lon="1.45429">
        <ele>154</ele>
        <time>2019-05-13T20:47:16.512Z</time>
      </trkpt>
      <trkpt lat="43.60899" lon="1.45442">
        <ele>155</ele>
        <time>2019-05-13T20:47:20.619Z</time>
      </trkpt>
      <trkpt lat="43.60895" lon="1.45444">
        <ele>155</ele>
        <time>2019-05-13T20:47:21.393Z</time>
      </trkpt>
      <trkpt lat="43.60866" lon="1.45474">
        <ele>155</ele>
        <time>2019-05-13T20:47:29.654Z</time>
      </trkpt>
      <trkpt lat="43.60698" lon="1.45569">
        <ele>155</ele>
        <time>2019-05-13T20:48:11.057Z</time>
      </trkpt>
      <trkpt lat="43.60681" lon="1.45578">
        <ele>155</ele>
        <time>2019-05-13T20:48:15.221Z</time>
      </trkpt>
      <trkpt lat="43.60653" lon="1.45594">
        <ele>154</ele>
        <time>2019-05-13T20:48:22.347Z</time>
      </trkpt>
      <trkpt lat="43.60629" lon="1.45607">
        <ele>154</ele>
        <time>2019-05-13T20:48:28.056Z</time>
      </trkpt>
      <trkpt lat="43.6062" lon="1.45611">
        <ele>154</ele>
        <time>2019-05-13T20:48:30.779Z</time>
      </trkpt>
      <trkpt lat="43.60543" lon="1.45656">
        <ele>155</ele>
        <time>2019-05-13T20:48:51.511Z</time>
      </trkpt>
      <trkpt lat="43.6052" lon="1.45668">
        <ele>154</ele>
        <time>2019-05-13T20:48:58.414Z</time>
      </trkpt>
      <trkpt lat="43.60514" lon="1.45678">
        <ele>154</ele>
        <time>2019-05-13T20:49:00.545Z</time>
      </trkpt>
      <trkpt lat="43.60497" lon="1.45677">
        <ele>154</ele>
        <time>2019-05-13T20:49:04.925Z</time>
      </trkpt>
      <trkpt lat="43.60496" lon="1.45677">
        <ele>154</ele>
        <time>2019-05-13T20:49:05.348Z</time>
      </trkpt>
      <trkpt lat="43.60495" lon="1.45676">
        <ele>154</ele>
        <time>2019-05-13T20:49:05.679Z</time>
      </trkpt>
      <trkpt lat="43.60494" lon="1.45676">
        <ele>154</ele>
        <time>2019-05-13T20:49:05.949Z</time>
      </trkpt>
      <trkpt lat="43.60474" lon="1.45675">
        <ele>154</ele>
        <time>2019-05-13T20:49:10.978Z</time>
      </trkpt>
      <trkpt lat="43.60465" lon="1.45675">
        <ele>155</ele>
        <time>2019-05-13T20:49:13.281Z</time>
      </trkpt>
      <trkpt lat="43.60376" lon="1.45672">
        <ele>155</ele>
        <time>2019-05-13T20:49:37.080Z</time>
      </trkpt>
      <trkpt lat="43.60373" lon="1.45672">
        <ele>155</ele>
        <time>2019-05-13T20:49:37.863Z</time>
      </trkpt>
      <trkpt lat="43.60358" lon="1.45671">
        <ele>155</ele>
        <time>2019-05-13T20:49:41.688Z</time>
      </trkpt>
      <trkpt lat="43.60315" lon="1.45668">
        <ele>155</ele>
        <time>2019-05-13T20:49:53.009Z</time>
      </trkpt>
      <trkpt lat="43.60204" lon="1.45655">
        <ele>156</ele>
        <time>2019-05-13T20:50:19.518Z</time>
      </trkpt>
      <trkpt lat="43.6005" lon="1.45612">
        <ele>157</ele>
        <time>2019-05-13T20:50:51.858Z</time>
      </trkpt>
      <trkpt lat="43.59967" lon="1.45611">
        <ele>155</ele>
        <time>2019-05-13T20:51:08.846Z</time>
      </trkpt>
      <trkpt lat="43.5996" lon="1.45611">
        <ele>155</ele>
        <time>2019-05-13T20:51:10.316Z</time>
      </trkpt>
      <trkpt lat="43.59938" lon="1.45612">
        <ele>156</ele>
        <time>2019-05-13T20:51:14.865Z</time>
      </trkpt>
      <trkpt lat="43.59932" lon="1.45612">
        <ele>156</ele>
        <time>2019-05-13T20:51:16.199Z</time>
      </trkpt>
      <trkpt lat="43.59718" lon="1.45607">
        <ele>154</ele>
        <time>2019-05-13T20:52:02.239Z</time>
      </trkpt>
      <trkpt lat="43.59675" lon="1.45581">
        <ele>155</ele>
        <time>2019-05-13T20:52:12.039Z</time>
      </trkpt>
      <trkpt lat="43.59674" lon="1.45581">
        <ele>155</ele>
        <time>2019-05-13T20:52:12.195Z</time>
      </trkpt>
      <trkpt lat="43.59673" lon="1.4558">
        <ele>155</ele>
        <time>2019-05-13T20:52:12.425Z</time>
      </trkpt>
      <trkpt lat="43.59668" lon="1.45579">
        <ele>155</ele>
        <time>2019-05-13T20:52:13.499Z</time>
      </trkpt>
      <trkpt lat="43.59642" lon="1.45575">
        <ele>156</ele>
        <time>2019-05-13T20:52:18.929Z</time>
      </trkpt>
      <trkpt lat="43.59624" lon="1.45571">
        <ele>156</ele>
        <time>2019-05-13T20:52:22.760Z</time>
      </trkpt>
      <trkpt lat="43.59616" lon="1.4557">
        <ele>156</ele>
        <time>2019-05-13T20:52:24.323Z</time>
      </trkpt>
      <trkpt lat="43.59575" lon="1.45571">
        <ele>155</ele>
        <time>2019-05-13T20:52:32.753Z</time>
      </trkpt>
      <trkpt lat="43.59544" lon="1.45575">
        <ele>155</ele>
        <time>2019-05-13T20:52:39.807Z</time>
      </trkpt>
      <trkpt lat="43.59491" lon="1.45586">
        <ele>152</ele>
        <time>2019-05-13T20:52:53.778Z</time>
      </trkpt>
      <trkpt lat="43.59468" lon="1.45591">
        <ele>152</ele>
        <time>2019-05-13T20:52:58.918Z</time>
      </trkpt>
      <trkpt lat="43.59463" lon="1.45593">
        <ele>152</ele>
        <time>2019-05-13T20:53:00.703Z</time>
      </trkpt>
      <trkpt lat="43.59461" lon="1.45593">
        <ele>152</ele>
        <time>2019-05-13T20:53:01.331Z</time>
      </trkpt>
      <trkpt lat="43.59435" lon="1.45583">
        <ele>152</ele>
        <time>2019-05-13T20:53:07.991Z</time>
      </trkpt>
      <trkpt lat="43.59433" lon="1.45585">
        <ele>151</ele>
        <time>2019-05-13T20:53:08.745Z</time>
      </trkpt>
      <trkpt lat="43.59431" lon="1.45588">
        <ele>151</ele>
        <time>2019-05-13T20:53:09.792Z</time>
      </trkpt>
      <trkpt lat="43.59412" lon="1.45638">
        <ele>152</ele>
        <time>2019-05-13T20:53:20.702Z</time>
      </trkpt>
      <trkpt lat="43.5941" lon="1.45643">
        <ele>152</ele>
        <time>2019-05-13T20:53:22.192Z</time>
      </trkpt>
      <trkpt lat="43.59406" lon="1.45648">
        <ele>152</ele>
        <time>2019-05-13T20:53:23.744Z</time>
      </trkpt>
      <trkpt lat="43.59278" lon="1.4578">
        <ele>156</ele>
        <time>2019-05-13T20:54:02.178Z</time>
      </trkpt>
      <trkpt lat="43.59236" lon="1.45822">
        <ele>155</ele>
        <time>2019-05-13T20:54:12.605Z</time>
      </trkpt>
      <trkpt lat="43.59164" lon="1.45897">
        <ele>152</ele>
        <time>2019-05-13T20:54:31.368Z</time>
      </trkpt>
      <trkpt lat="43.59152" lon="1.45912">
        <ele>152</ele>
        <time>2019-05-13T20:54:34.759Z</time>
      </trkpt>
      <trkpt lat="43.59148" lon="1.45917">
        <ele>152</ele>
        <time>2019-05-13T20:54:35.717Z</time>
      </trkpt>
      <trkpt lat="43.59145" lon="1.45921">
        <ele>152</ele>
        <time>2019-05-13T20:54:36.730Z</time>
      </trkpt>
      <trkpt lat="43.59116" lon="1.45957">
        <ele>152</ele>
        <time>2019-05-13T20:54:45.228Z</time>
      </trkpt>
      <trkpt lat="43.59095" lon="1.45965">
        <ele>152</ele>
        <time>2019-05-13T20:54:50.043Z</time>
      </trkpt>
      <trkpt lat="43.59082" lon="1.45968">
        <ele>151</ele>
        <time>2019-05-13T20:54:52.936Z</time>
      </trkpt>
      <trkpt lat="43.59029" lon="1.45981">
        <ele>151</ele>
        <time>2019-05-13T20:55:05.331Z</time>
      </trkpt>
      <trkpt lat="43.58816" lon="1.46019">
        <ele>151</ele>
        <time>2019-05-13T20:55:55.091Z</time>
      </trkpt>
      <trkpt lat="43.58808" lon="1.4602">
        <ele>152</ele>
        <time>2019-05-13T20:55:56.831Z</time>
      </trkpt>
      <trkpt lat="43.58807" lon="1.4602">
        <ele>152</ele>
        <time>2019-05-13T20:55:57.182Z</time>
      </trkpt>
      <trkpt lat="43.5872" lon="1.4604">
        <ele>152</ele>
        <time>2019-05-13T20:56:15.825Z</time>
      </trkpt>
      <trkpt lat="43.58718" lon="1.46041">
        <ele>152</ele>
        <time>2019-05-13T20:56:16.280Z</time>
      </trkpt>
      <trkpt lat="43.58706" lon="1.46045">
        <ele>152</ele>
        <time>2019-05-13T20:56:18.684Z</time>
      </trkpt>
      <trkpt lat="43.5869" lon="1.46052">
        <ele>152</ele>
        <time>2019-05-13T20:56:22.224Z</time>
      </trkpt>
      <trkpt lat="43.58612" lon="1.46084">
        <ele>152</ele>
        <time>2019-05-13T20:56:38.890Z</time>
      </trkpt>
      <trkpt lat="43.58597" lon="1.46091">
        <ele>151</ele>
        <time>2019-05-13T20:56:42.077Z</time>
      </trkpt>
      <trkpt lat="43.58572" lon="1.46101">
        <ele>150</ele>
        <time>2019-05-13T20:56:47.980Z</time>
      </trkpt>
      <trkpt lat="43.58509" lon="1.46127">
        <ele>149</ele>
        <time>2019-05-13T20:57:03.260Z</time>
      </trkpt>
      <trkpt lat="43.58447" lon="1.46153">
        <ele>148</ele>
        <time>2019-05-13T20:57:19.563Z</time>
      </trkpt>
      <trkpt lat="43.58428" lon="1.46161">
        <ele>149</ele>
        <time>2019-05-13T20:57:25.133Z</time>
      </trkpt>
      <trkpt lat="43.58218" lon="1.46264">
        <ele>153</ele>
        <time>2019-05-13T20:58:22.061Z</time>
      </trkpt>
      <trkpt lat="43.58211" lon="1.46268">
        <ele>152</ele>
        <time>2019-05-13T20:58:23.547Z</time>
      </trkpt>
      <trkpt lat="43.58206" lon="1.46271">
        <ele>152</ele>
        <time>2019-05-13T20:58:25.098Z</time>
      </trkpt>
      <trkpt lat="43.58188" lon="1.46282">
        <ele>152</ele>
        <time>2019-05-13T20:58:29.724Z</time>
      </trkpt>
      <trkpt lat="43.58165" lon="1.46298">
        <ele>152</ele>
        <time>2019-05-13T20:58:35.756Z</time>
      </trkpt>
      <trkpt lat="43.58164" lon="1.46298">
        <ele>152</ele>
        <time>2019-05-13T20:58:35.842Z</time>
      </trkpt>
      <trkpt lat="43.58156" lon="1.46304">
        <ele>152</ele>
        <time>2019-05-13T20:58:38.166Z</time>
      </trkpt>
      <trkpt lat="43.58155" lon="1.46304">
        <ele>152</ele>
        <time>2019-05-13T20:58:38.217Z</time>
      </trkpt>
      <trkpt lat="43.58134" lon="1.46323">
        <ele>152</ele>
        <time>2019-05-13T20:58:43.939Z</time>
      </trkpt>
      <trkpt lat="43.58098" lon="1.46359">
        <ele>152</ele>
        <time>2019-05-13T20:58:54.442Z</time>
      </trkpt>
      <trkpt lat="43.58091" lon="1.46365">
        <ele>152</ele>
        <time>2019-05-13T20:58:56.249Z</time>
      </trkpt>
      <trkpt lat="43.5808" lon="1.46376">
        <ele>152</ele>
        <time>2019-05-13T20:58:59.392Z</time>
      </trkpt>
      <trkpt lat="43.57953" lon="1.46519">
        <ele>152</ele>
        <time>2019-05-13T20:59:39.293Z</time>
      </trkpt>
      <trkpt lat="43.57803" lon="1.46586">
        <ele>154</ele>
        <time>2019-05-13T21:00:14.187Z</time>
      </trkpt>
      <trkpt lat="43.578" lon="1.46586">
        <ele>154</ele>
        <time>2019-05-13T21:00:14.829Z</time>
      </trkpt>
      <trkpt lat="43.57723" lon="1.46589">
        <ele>152</ele>
        <time>2019-05-13T21:00:31.409Z</time>
      </trkpt>
      <trkpt lat="43.57624" lon="1.46619">
        <ele>150</ele>
        <time>2019-05-13T21:00:53.133Z</time>
      </trkpt>
      <trkpt lat="43.57619" lon="1.46623">
        <ele>150</ele>
        <time>2019-05-13T21:00:54.710Z</time>
      </trkpt>
      <trkpt lat="43.5759" lon="1.46649">
        <ele>151</ele>
        <time>2019-05-13T21:01:02.287Z</time>
      </trkpt>
      <trkpt lat="43.57578" lon="1.46661">
        <ele>151</ele>
        <time>2019-05-13T21:01:05.459Z</time>
      </trkpt>
      <trkpt lat="43.57568" lon="1.46673">
        <ele>152</ele>
        <time>2019-05-13T21:01:08.227Z</time>
      </trkpt>
      <trkpt lat="43.57553" lon="1.46701">
        <ele>151</ele>
        <time>2019-05-13T21:01:13.616Z</time>
      </trkpt>
      <trkpt lat="43.57539" lon="1.46728">
        <ele>151</ele>
        <time>2019-05-13T21:01:18.875Z</time>
      </trkpt>
      <trkpt lat="43.57522" lon="1.46763">
        <ele>152</ele>
        <time>2019-05-13T21:01:25.319Z</time>
      </trkpt>
      <trkpt lat="43.57514" lon="1.4678">
        <ele>152</ele>
        <time>2019-05-13T21:01:28.326Z</time>
      </trkpt>
      <trkpt lat="43.57493" lon="1.46818">
        <ele>152</ele>
        <time>2019-05-13T21:01:36.612Z</time>
      </trkpt>
      <trkpt lat="43.57478" lon="1.46848">
        <ele>152</ele>
        <time>2019-05-13T21:01:43.626Z</time>
      </trkpt>
      <trkpt lat="43.57471" lon="1.46861">
        <ele>151</ele>
        <time>2019-05-13T21:01:46.105Z</time>
      </trkpt>
      <trkpt lat="43.57453" lon="1.46888">
        <ele>151</ele>
        <time>2019-05-13T21:01:53.516Z</time>
      </trkpt>
      <trkpt lat="43.57449" lon="1.46892">
        <ele>151</ele>
        <time>2019-05-13T21:01:54.364Z</time>
      </trkpt>
      <trkpt lat="43.57437" lon="1.46902">
        <ele>150</ele>
        <time>2019-05-13T21:01:57.767Z</time>
      </trkpt>
      <trkpt lat="43.57405" lon="1.46928">
        <ele>149</ele>
        <time>2019-05-13T21:02:07.483Z</time>
      </trkpt>
      <trkpt lat="43.57401" lon="1.46931">
        <ele>149</ele>
        <time>2019-05-13T21:02:09.464Z</time>
      </trkpt>
      <trkpt lat="43.57265" lon="1.46977">
        <ele>154</ele>
        <time>2019-05-13T21:02:48.997Z</time>
      </trkpt>
      <trkpt lat="43.57095" lon="1.46986">
        <ele>156</ele>
        <time>2019-05-13T21:03:31.973Z</time>
      </trkpt>
      <trkpt lat="43.57024" lon="1.47005">
        <ele>154</ele>
        <time>2019-05-13T21:03:47.991Z</time>
      </trkpt>
      <trkpt lat="43.57012" lon="1.47012">
        <ele>154</ele>
        <time>2019-05-13T21:03:50.859Z</time>
      </trkpt>
      <trkpt lat="43.57022" lon="1.47043">
        <ele>154</ele>
        <time>2019-05-13T21:03:56.240Z</time>
      </trkpt>
      <trkpt lat="43.56993" lon="1.47058">
        <ele>154</ele>
        <time>2019-05-13T21:04:02.842Z</time>
      </trkpt>
      <trkpt lat="43.5697" lon="1.47074">
        <ele>154</ele>
        <time>2019-05-13T21:04:08.123Z</time>
      </trkpt>
      <trkpt lat="43.56928" lon="1.47103">
        <ele>154</ele>
        <time>2019-05-13T21:04:18.024Z</time>
      </trkpt>
      <trkpt lat="43.56885" lon="1.47135">
        <ele>154</ele>
        <time>2019-05-13T21:04:28.059Z</time>
      </trkpt>
      <trkpt lat="43.56864" lon="1.47152">
        <ele>154</ele>
        <time>2019-05-13T21:04:33.365Z</time>
      </trkpt>
      <trkpt lat="43.56854" lon="1.47157">
        <ele>154</ele>
        <time>2019-05-13T21:04:35.551Z</time>
      </trkpt>
      <trkpt lat="43.56838" lon="1.47161">
        <ele>154</ele>
        <time>2019-05-13T21:04:38.866Z</time>
      </trkpt>
      <trkpt lat="43.56822" lon="1.47164">
        <ele>154</ele>
        <time>2019-05-13T21:04:42.274Z</time>
      </trkpt>
      <trkpt lat="43.56788" lon="1.4717">
        <ele>153</ele>
        <time>2019-05-13T21:04:49.603Z</time>
      </trkpt>
      <trkpt lat="43.56741" lon="1.47175">
        <ele>154</ele>
        <time>2019-05-13T21:04:59.232Z</time>
      </trkpt>
      <trkpt lat="43.5663" lon="1.47175">
        <ele>153</ele>
        <time>2019-05-13T21:05:22.337Z</time>
      </trkpt>
      <trkpt lat="43.56559" lon="1.47171">
        <ele>152</ele>
        <time>2019-05-13T21:05:38.196Z</time>
      </trkpt>
      <trkpt lat="43.56559" lon="1.47168">
        <ele>152</ele>
        <time>2019-05-13T21:05:38.775Z</time>
      </trkpt>
      <trkpt lat="43.56521" lon="1.47167">
        <ele>152</ele>
        <time>2019-05-13T21:05:47.720Z</time>
      </trkpt>
      <trkpt lat="43.56521" lon="1.47167">
        <ele>151</ele>
        <time>2019-05-13T21:05:47.854Z</time>
      </trkpt>
      <trkpt lat="43.56518" lon="1.47168">
        <ele>151</ele>
        <time>2019-05-13T21:05:48.600Z</time>
      </trkpt>
      <trkpt lat="43.56517" lon="1.47168">
        <ele>151</ele>
        <time>2019-05-13T21:05:48.735Z</time>
      </trkpt>
      <trkpt lat="43.56511" lon="1.47168">
        <ele>151</ele>
        <time>2019-05-13T21:05:50.583Z</time>
      </trkpt>
      <trkpt lat="43.56418" lon="1.47163">
        <ele>154</ele>
        <time>2019-05-13T21:06:14.106Z</time>
      </trkpt>
      <trkpt lat="43.56346" lon="1.47195">
        <ele>153</ele>
        <time>2019-05-13T21:06:35.733Z</time>
      </trkpt>
      <trkpt lat="43.5615" lon="1.47439">
        <ele>155</ele>
        <time>2019-05-13T21:07:50.753Z</time>
      </trkpt>
      <trkpt lat="43.56129" lon="1.47464">
        <ele>155</ele>
        <time>2019-05-13T21:07:57.805Z</time>
      </trkpt>
      <trkpt lat="43.5612" lon="1.47474">
        <ele>156</ele>
        <time>2019-05-13T21:08:00.273Z</time>
      </trkpt>
      <trkpt lat="43.56067" lon="1.47534">
        <ele>157</ele>
        <time>2019-05-13T21:08:16.494Z</time>
      </trkpt>
      <trkpt lat="43.56009" lon="1.476">
        <ele>156</ele>
        <time>2019-05-13T21:08:33.182Z</time>
      </trkpt>
      <trkpt lat="43.55952" lon="1.47666">
        <ele>156</ele>
        <time>2019-05-13T21:08:48.583Z</time>
      </trkpt>
      <trkpt lat="43.55763" lon="1.47929">
        <ele>155</ele>
        <time>2019-05-13T21:09:46.215Z</time>
      </trkpt>
      <trkpt lat="43.55664" lon="1.48021">
        <ele>154</ele>
        <time>2019-05-13T21:10:10.236Z</time>
      </trkpt>
      <trkpt lat="43.5561" lon="1.48058">
        <ele>152</ele>
        <time>2019-05-13T21:10:22.236Z</time>
      </trkpt>
      <trkpt lat="43.55594" lon="1.48069">
        <ele>152</ele>
        <time>2019-05-13T21:10:25.738Z</time>
      </trkpt>
      <trkpt lat="43.5557" lon="1.48081">
        <ele>153</ele>
        <time>2019-05-13T21:10:31.089Z</time>
      </trkpt>
      <trkpt lat="43.55565" lon="1.48082">
        <ele>152</ele>
        <time>2019-05-13T21:10:32.021Z</time>
      </trkpt>
      <trkpt lat="43.55556" lon="1.48084">
        <ele>152</ele>
        <time>2019-05-13T21:10:33.855Z</time>
      </trkpt>
      <trkpt lat="43.55532" lon="1.48093">
        <ele>152</ele>
        <time>2019-05-13T21:10:39.149Z</time>
      </trkpt>
      <trkpt lat="43.55491" lon="1.48111">
        <ele>151</ele>
        <time>2019-05-13T21:10:47.976Z</time>
      </trkpt>
      <trkpt lat="43.55485" lon="1.48114">
        <ele>151</ele>
        <time>2019-05-13T21:10:49.382Z</time>
      </trkpt>
      <trkpt lat="43.55481" lon="1.48115">
        <ele>151</ele>
        <time>2019-05-13T21:10:50.398Z</time>
      </trkpt>
      <trkpt lat="43.55476" lon="1.48116">
        <ele>151</ele>
        <time>2019-05-13T21:10:51.544Z</time>
      </trkpt>
      <trkpt lat="43.55472" lon="1.48118">
        <ele>151</ele>
        <time>2019-05-13T21:10:52.535Z</time>
      </trkpt>
      <trkpt lat="43.55345" lon="1.4813">
        <ele>152</ele>
        <time>2019-05-13T21:11:20.422Z</time>
      </trkpt>
      <trkpt lat="43.55259" lon="1.48156">
        <ele>152</ele>
        <time>2019-05-13T21:11:40.352Z</time>
      </trkpt>
      <trkpt lat="43.55236" lon="1.48165">
        <ele>152</ele>
        <time>2019-05-13T21:11:45.914Z</time>
      </trkpt>
      <trkpt lat="43.55163" lon="1.4819">
        <ele>152</ele>
        <time>2019-05-13T21:12:03.614Z</time>
      </trkpt>
      <trkpt lat="43.55142" lon="1.48198">
        <ele>151</ele>
        <time>2019-05-13T21:12:08.491Z</time>
      </trkpt>
      <trkpt lat="43.55131" lon="1.48202">
        <ele>151</ele>
        <time>2019-05-13T21:12:11.304Z</time>
      </trkpt>
      <trkpt lat="43.55076" lon="1.4823">
        <ele>151</ele>
        <time>2019-05-13T21:12:24.202Z</time>
      </trkpt>
      <trkpt lat="43.55043" lon="1.48261">
        <ele>151</ele>
        <time>2019-05-13T21:12:33.078Z</time>
      </trkpt>
      <trkpt lat="43.55013" lon="1.4829">
        <ele>151</ele>
        <time>2019-05-13T21:12:41.542Z</time>
      </trkpt>
      <trkpt lat="43.54983" lon="1.48319">
        <ele>151</ele>
        <time>2019-05-13T21:12:49.745Z</time>
      </trkpt>
      <trkpt lat="43.5493" lon="1.48372">
        <ele>150</ele>
        <time>2019-05-13T21:13:03.856Z</time>
      </trkpt>
      <trkpt lat="43.54866" lon="1.48428">
        <ele>150</ele>
        <time>2019-05-13T21:13:20.212Z</time>
      </trkpt>
      <trkpt lat="43.54866" lon="1.48429">
        <ele>150</ele>
        <time>2019-05-13T21:13:20.456Z</time>
      </trkpt>
      <trkpt lat="43.54864" lon="1.48431">
        <ele>150</ele>
        <time>2019-05-13T21:13:20.992Z</time>
      </trkpt>
      <trkpt lat="43.54863" lon="1.48432">
        <ele>150</ele>
        <time>2019-05-13T21:13:21.228Z</time>
      </trkpt>
      <trkpt lat="43.54823" lon="1.48464">
        <ele>150</ele>
        <time>2019-05-13T21:13:31.899Z</time>
      </trkpt>
      <trkpt lat="43.54822" lon="1.48466">
        <ele>150</ele>
        <time>2019-05-13T21:13:32.328Z</time>
      </trkpt>
      <trkpt lat="43.54821" lon="1.48481">
        <ele>150</ele>
        <time>2019-05-13T21:13:34.919Z</time>
      </trkpt>
      <trkpt lat="43.54831" lon="1.48485">
        <ele>149</ele>
        <time>2019-05-13T21:13:37.502Z</time>
      </trkpt>
      <trkpt lat="43.54837" lon="1.48474">
        <ele>150</ele>
        <time>2019-05-13T21:13:39.894Z</time>
      </trkpt>
      <trkpt lat="43.54832" lon="1.48462">
        <ele>150</ele>
        <time>2019-05-13T21:13:42.249Z</time>
      </trkpt>
      <trkpt lat="43.5483" lon="1.48461">
        <ele>150</ele>
        <time>2019-05-13T21:13:42.656Z</time>
      </trkpt>
      <trkpt lat="43.54829" lon="1.4846">
        <ele>150</ele>
        <time>2019-05-13T21:13:43.102Z</time>
      </trkpt>
      <trkpt lat="43.54826" lon="1.48459">
        <ele>150</ele>
        <time>2019-05-13T21:13:43.748Z</time>
      </trkpt>
      <trkpt lat="43.54823" lon="1.48458">
        <ele>150</ele>
        <time>2019-05-13T21:13:44.510Z</time>
      </trkpt>
      <trkpt lat="43.54819" lon="1.48458">
        <ele>150</ele>
        <time>2019-05-13T21:13:45.713Z</time>
      </trkpt>
      <trkpt lat="43.54817" lon="1.48458">
        <ele>150</ele>
        <time>2019-05-13T21:13:46.253Z</time>
      </trkpt>
      <trkpt lat="43.54812" lon="1.4846">
        <ele>150</ele>
        <time>2019-05-13T21:13:47.498Z</time>
      </trkpt>
      <trkpt lat="43.54808" lon="1.48462">
        <ele>150</ele>
        <time>2019-05-13T21:13:48.383Z</time>
      </trkpt>
      <trkpt lat="43.54805" lon="1.48464">
        <ele>150</ele>
        <time>2019-05-13T21:13:49.323Z</time>
      </trkpt>
      <trkpt lat="43.54801" lon="1.48466">
        <ele>150</ele>
        <time>2019-05-13T21:13:50.346Z</time>
      </trkpt>
      <trkpt lat="43.54794" lon="1.48471">
        <ele>150</ele>
        <time>2019-05-13T21:13:52.196Z</time>
      </trkpt>
      <trkpt lat="43.54781" lon="1.4848">
        <ele>150</ele>
        <time>2019-05-13T21:13:56.029Z</time>
      </trkpt>
      <trkpt lat="43.54626" lon="1.48615">
        <ele>151</ele>
        <time>2019-05-13T21:14:41.405Z</time>
      </trkpt>
      <trkpt lat="43.54589" lon="1.48679">
        <ele>151</ele>
        <time>2019-05-13T21:14:55.818Z</time>
      </trkpt>
      <trkpt lat="43.54542" lon="1.48802">
        <ele>151</ele>
        <time>2019-05-13T21:15:21.165Z</time>
      </trkpt>
      <trkpt lat="43.54533" lon="1.48829">
        <ele>151</ele>
        <time>2019-05-13T21:15:26.798Z</time>
      </trkpt>
      <trkpt lat="43.54528" lon="1.48841">
        <ele>151</ele>
        <time>2019-05-13T21:15:29.768Z</time>
      </trkpt>
      <trkpt lat="43.54468" lon="1.4899">
        <ele>151</ele>
        <time>2019-05-13T21:16:02.976Z</time>
      </trkpt>
      <trkpt lat="43.54461" lon="1.49003">
        <ele>151</ele>
        <time>2019-05-13T21:16:06.385Z</time>
      </trkpt>
      <trkpt lat="43.54455" lon="1.49009">
        <ele>152</ele>
        <time>2019-05-13T21:16:08.681Z</time>
      </trkpt>
      <trkpt lat="43.54431" lon="1.49021">
        <ele>153</ele>
        <time>2019-05-13T21:16:15.328Z</time>
      </trkpt>
      <trkpt lat="43.54422" lon="1.49025">
        <ele>153</ele>
        <time>2019-05-13T21:16:17.829Z</time>
      </trkpt>
      <trkpt lat="43.54395" lon="1.49037">
        <ele>154</ele>
        <time>2019-05-13T21:16:25.202Z</time>
      </trkpt>
      <trkpt lat="43.54355" lon="1.49052">
        <ele>155</ele>
        <time>2019-05-13T21:16:35.788Z</time>
      </trkpt>
      <trkpt lat="43.54231" lon="1.49113">
        <ele>155</ele>
        <time>2019-05-13T21:17:04.829Z</time>
      </trkpt>
      <trkpt lat="43.54198" lon="1.49132">
        <ele>154</ele>
        <time>2019-05-13T21:17:12.258Z</time>
      </trkpt>
      <trkpt lat="43.54161" lon="1.49154">
        <ele>153</ele>
        <time>2019-05-13T21:17:20.508Z</time>
      </trkpt>
      <trkpt lat="43.54017" lon="1.49239">
        <ele>152</ele>
        <time>2019-05-13T21:17:52.091Z</time>
      </trkpt>
      <trkpt lat="43.539" lon="1.49273">
        <ele>152</ele>
        <time>2019-05-13T21:18:16.331Z</time>
      </trkpt>
      <trkpt lat="43.53864" lon="1.49315">
        <ele>151</ele>
        <time>2019-05-13T21:18:26.172Z</time>
      </trkpt>
      <trkpt lat="43.53854" lon="1.49365">
        <ele>149</ele>
        <time>2019-05-13T21:18:34.193Z</time>
      </trkpt>
      <trkpt lat="43.53857" lon="1.49412">
        <ele>148</ele>
        <time>2019-05-13T21:18:41.553Z</time>
      </trkpt>
      <trkpt lat="43.53903" lon="1.49747">
        <ele>149</ele>
        <time>2019-05-13T21:19:37.728Z</time>
      </trkpt>
      <trkpt lat="43.53887" lon="1.49869">
        <ele>149</ele>
        <time>2019-05-13T21:19:57.626Z</time>
      </trkpt>
      <trkpt lat="43.53855" lon="1.49956">
        <ele>149</ele>
        <time>2019-05-13T21:20:13.115Z</time>
      </trkpt>
      <trkpt lat="43.53769" lon="1.50107">
        <ele>146</ele>
        <time>2019-05-13T21:20:44.789Z</time>
      </trkpt>
      <trkpt lat="43.5372" lon="1.50213">
        <ele>148</ele>
        <time>2019-05-13T21:21:06.734Z</time>
      </trkpt>
      <trkpt lat="43.53593" lon="1.50378">
        <ele>149</ele>
        <time>2019-05-13T21:21:49.455Z</time>
      </trkpt>
      <trkpt lat="43.53533" lon="1.50431">
        <ele>149</ele>
        <time>2019-05-13T21:22:06.015Z</time>
      </trkpt>
      <trkpt lat="43.53479" lon="1.50475">
        <ele>150</ele>
        <time>2019-05-13T21:22:20.416Z</time>
      </trkpt>
      <trkpt lat="43.53379" lon="1.50533">
        <ele>149</ele>
        <time>2019-05-13T21:22:45.110Z</time>
      </trkpt>
      <trkpt lat="43.53235" lon="1.50555">
        <ele>150</ele>
        <time>2019-05-13T21:23:20.148Z</time>
      </trkpt>
      <trkpt lat="43.53136" lon="1.50592">
        <ele>150</ele>
        <time>2019-05-13T21:23:45.671Z</time>
      </trkpt>
      <trkpt lat="43.53109" lon="1.50603">
        <ele>149</ele>
        <time>2019-05-13T21:23:52.891Z</time>
      </trkpt>
      <trkpt lat="43.53024" lon="1.50669">
        <ele>150</ele>
        <time>2019-05-13T21:24:16.844Z</time>
      </trkpt>
      <trkpt lat="43.52878" lon="1.50826">
        <ele>152</ele>
        <time>2019-05-13T21:24:58.741Z</time>
      </trkpt>
      <trkpt lat="43.52782" lon="1.50886">
        <ele>151</ele>
        <time>2019-05-13T21:25:21.032Z</time>
      </trkpt>
      <trkpt lat="43.52748" lon="1.50921">
        <ele>150</ele>
        <time>2019-05-13T21:25:30.087Z</time>
      </trkpt>
      <trkpt lat="43.52695" lon="1.51016">
        <ele>147</ele>
        <time>2019-05-13T21:25:48.704Z</time>
      </trkpt>
      <trkpt lat="43.52664" lon="1.51124">
        <ele>149</ele>
        <time>2019-05-13T21:26:08.362Z</time>
      </trkpt>
      <trkpt lat="43.52623" lon="1.51516">
        <ele>149</ele>
        <time>2019-05-13T21:27:21.861Z</time>
      </trkpt>
      <trkpt lat="43.5258" lon="1.51688">
        <ele>150</ele>
        <time>2019-05-13T21:27:53.452Z</time>
      </trkpt>
      <trkpt lat="43.52553" lon="1.51752">
        <ele>150</ele>
        <time>2019-05-13T21:28:05.868Z</time>
      </trkpt>
      <trkpt lat="43.52522" lon="1.51797">
        <ele>150</ele>
        <time>2019-05-13T21:28:16.637Z</time>
      </trkpt>
      <trkpt lat="43.52462" lon="1.51851">
        <ele>151</ele>
        <time>2019-05-13T21:28:35.089Z</time>
      </trkpt>
      <trkpt lat="43.52413" lon="1.51874">
        <ele>150</ele>
        <time>2019-05-13T21:28:49.662Z</time>
      </trkpt>
      <trkpt lat="43.52402" lon="1.51876">
        <ele>151</ele>
        <time>2019-05-13T21:28:52.944Z</time>
      </trkpt>
      <trkpt lat="43.52367" lon="1.51887">
        <ele>151</ele>
        <time>2019-05-13T21:29:03.171Z</time>
      </trkpt>
      <trkpt lat="43.5236" lon="1.51888">
        <ele>151</ele>
        <time>2019-05-13T21:29:05.547Z</time>
      </trkpt>
      <trkpt lat="43.52343" lon="1.51891">
        <ele>151</ele>
        <time>2019-05-13T21:29:10.373Z</time>
      </trkpt>
      <trkpt lat="43.52331" lon="1.51897">
        <ele>152</ele>
        <time>2019-05-13T21:29:14.002Z</time>
      </trkpt>
      <trkpt lat="43.52326" lon="1.519">
        <ele>152</ele>
        <time>2019-05-13T21:29:15.517Z</time>
      </trkpt>
      <trkpt lat="43.52325" lon="1.51901">
        <ele>152</ele>
        <time>2019-05-13T21:29:16.023Z</time>
      </trkpt>
      <trkpt lat="43.52323" lon="1.51903">
        <ele>152</ele>
        <time>2019-05-13T21:29:16.630Z</time>
      </trkpt>
      <trkpt lat="43.5232" lon="1.51905">
        <ele>152</ele>
        <time>2019-05-13T21:29:17.988Z</time>
      </trkpt>
      <trkpt lat="43.52207" lon="1.51943">
        <ele>157</ele>
        <time>2019-05-13T21:29:49.893Z</time>
      </trkpt>
      <trkpt lat="43.52114" lon="1.51956">
        <ele>158</ele>
        <time>2019-05-13T21:30:12.121Z</time>
      </trkpt>
      <trkpt lat="43.52036" lon="1.52008">
        <ele>154</ele>
        <time>2019-05-13T21:30:31.557Z</time>
      </trkpt>
      <trkpt lat="43.5199" lon="1.52022">
        <ele>155</ele>
        <time>2019-05-13T21:30:41.975Z</time>
      </trkpt>
      <trkpt lat="43.51929" lon="1.52016">
        <ele>156</ele>
        <time>2019-05-13T21:30:55.891Z</time>
      </trkpt>
      <trkpt lat="43.51833" lon="1.51977">
        <ele>158</ele>
        <time>2019-05-13T21:31:18.024Z</time>
      </trkpt>
      <trkpt lat="43.51803" lon="1.51977">
        <ele>158</ele>
        <time>2019-05-13T21:31:24.351Z</time>
      </trkpt>
      <trkpt lat="43.51684" lon="1.5205">
        <ele>155</ele>
        <time>2019-05-13T21:31:51.073Z</time>
      </trkpt>
      <trkpt lat="43.51642" lon="1.52064">
        <ele>154</ele>
        <time>2019-05-13T21:31:59.799Z</time>
      </trkpt>
      <trkpt lat="43.516" lon="1.52059">
        <ele>154</ele>
        <time>2019-05-13T21:32:08.552Z</time>
      </trkpt>
      <trkpt lat="43.51523" lon="1.51976">
        <ele>153</ele>
        <time>2019-05-13T21:32:29.952Z</time>
      </trkpt>
      <trkpt lat="43.51514" lon="1.51964">
        <ele>153</ele>
        <time>2019-05-13T21:32:32.887Z</time>
      </trkpt>
      <trkpt lat="43.51502" lon="1.51949">
        <ele>154</ele>
        <time>2019-05-13T21:32:36.781Z</time>
      </trkpt>
      <trkpt lat="43.51482" lon="1.51916">
        <ele>154</ele>
        <time>2019-05-13T21:32:44.269Z</time>
      </trkpt>
      <trkpt lat="43.51475" lon="1.51868">
        <ele>154</ele>
        <time>2019-05-13T21:32:53.029Z</time>
      </trkpt>
      <trkpt lat="43.51484" lon="1.51726">
        <ele>156</ele>
        <time>2019-05-13T21:33:19.398Z</time>
      </trkpt>
      <trkpt lat="43.51447" lon="1.51657">
        <ele>156</ele>
        <time>2019-05-13T21:33:34.981Z</time>
      </trkpt>
      <trkpt lat="43.51408" lon="1.51656">
        <ele>154</ele>
        <time>2019-05-13T21:33:45.050Z</time>
      </trkpt>
      <trkpt lat="43.5113" lon="1.51736">
        <ele>155</ele>
        <time>2019-05-13T21:35:00.523Z</time>
      </trkpt>
      <trkpt lat="43.51122" lon="1.51739">
        <ele>155</ele>
        <time>2019-05-13T21:35:02.551Z</time>
      </trkpt>
      <trkpt lat="43.51112" lon="1.51742">
        <ele>155</ele>
        <time>2019-05-13T21:35:05.623Z</time>
      </trkpt>
      <trkpt lat="43.51092" lon="1.51739">
        <ele>156</ele>
        <time>2019-05-13T21:35:10.909Z</time>
      </trkpt>
      <trkpt lat="43.50953" lon="1.51806">
        <ele>158</ele>
        <time>2019-05-13T21:35:47.984Z</time>
      </trkpt>
      <trkpt lat="43.50712" lon="1.52051">
        <ele>155</ele>
        <time>2019-05-13T21:36:50.975Z</time>
      </trkpt>
      <trkpt lat="43.50539" lon="1.52088">
        <ele>154</ele>
        <time>2019-05-13T21:37:29.943Z</time>
      </trkpt>
      <trkpt lat="43.50496" lon="1.52112">
        <ele>154</ele>
        <time>2019-05-13T21:37:40.919Z</time>
      </trkpt>
      <trkpt lat="43.50455" lon="1.5216">
        <ele>154</ele>
        <time>2019-05-13T21:37:54.055Z</time>
      </trkpt>
      <trkpt lat="43.50434" lon="1.52203">
        <ele>154</ele>
        <time>2019-05-13T21:38:03.888Z</time>
      </trkpt>
      <trkpt lat="43.50422" lon="1.52342">
        <ele>155</ele>
        <time>2019-05-13T21:38:31.002Z</time>
      </trkpt>
      <trkpt lat="43.50422" lon="1.52345">
        <ele>155</ele>
        <time>2019-05-13T21:38:31.777Z</time>
      </trkpt>
      <trkpt lat="43.50423" lon="1.52365">
        <ele>155</ele>
        <time>2019-05-13T21:38:35.597Z</time>
      </trkpt>
      <trkpt lat="43.50424" lon="1.52391">
        <ele>155</ele>
        <time>2019-05-13T21:38:40.537Z</time>
      </trkpt>
      <trkpt lat="43.50385" lon="1.52599">
        <ele>158</ele>
        <time>2019-05-13T21:39:22.442Z</time>
      </trkpt>
      <trkpt lat="43.50346" lon="1.52713">
        <ele>157</ele>
        <time>2019-05-13T21:39:44.911Z</time>
      </trkpt>
      <trkpt lat="43.50272" lon="1.52802">
        <ele>158</ele>
        <time>2019-05-13T21:40:08.643Z</time>
      </trkpt>
      <trkpt lat="43.50097" lon="1.5296">
        <ele>158</ele>
        <time>2019-05-13T21:40:58.219Z</time>
      </trkpt>
      <trkpt lat="43.50067" lon="1.52998">
        <ele>158</ele>
        <time>2019-05-13T21:41:08.224Z</time>
      </trkpt>
      <trkpt lat="43.50041" lon="1.5303">
        <ele>158</ele>
        <time>2019-05-13T21:41:16.543Z</time>
      </trkpt>
      <trkpt lat="43.49802" lon="1.53276">
        <ele>159</ele>
        <time>2019-05-13T21:42:26.853Z</time>
      </trkpt>
      <trkpt lat="43.49679" lon="1.53486">
        <ele>157</ele>
        <time>2019-05-13T21:43:05.944Z</time>
      </trkpt>
      <trkpt lat="43.49627" lon="1.53548">
        <ele>156</ele>
        <time>2019-05-13T21:43:19.051Z</time>
      </trkpt>
      <trkpt lat="43.49603" lon="1.53572">
        <ele>156</ele>
        <time>2019-05-13T21:43:25.047Z</time>
      </trkpt>
      <trkpt lat="43.49599" lon="1.53576">
        <ele>156</ele>
        <time>2019-05-13T21:43:25.966Z</time>
      </trkpt>
      <trkpt lat="43.49471" lon="1.53628">
        <ele>155</ele>
        <time>2019-05-13T21:43:52.942Z</time>
      </trkpt>
      <trkpt lat="43.49304" lon="1.53662">
        <ele>155</ele>
        <time>2019-05-13T21:44:31.142Z</time>
      </trkpt>
      <trkpt lat="43.4917" lon="1.53658">
        <ele>155</ele>
        <time>2019-05-13T21:45:04.362Z</time>
      </trkpt>
      <trkpt lat="43.49037" lon="1.53623">
        <ele>156</ele>
        <time>2019-05-13T21:45:39.792Z</time>
      </trkpt>
      <trkpt lat="43.48998" lon="1.53639">
        <ele>156</ele>
        <time>2019-05-13T21:45:50.971Z</time>
      </trkpt>
      <trkpt lat="43.48969" lon="1.53685">
        <ele>155</ele>
        <time>2019-05-13T21:46:03.073Z</time>
      </trkpt>
      <trkpt lat="43.48961" lon="1.53717">
        <ele>155</ele>
        <time>2019-05-13T21:46:10.068Z</time>
      </trkpt>
      <trkpt lat="43.48962" lon="1.53772">
        <ele>155</ele>
        <time>2019-05-13T21:46:21.091Z</time>
      </trkpt>
      <trkpt lat="43.48979" lon="1.54003">
        <ele>157</ele>
        <time>2019-05-13T21:47:06.803Z</time>
      </trkpt>
      <trkpt lat="43.48973" lon="1.54107">
        <ele>157</ele>
        <time>2019-05-13T21:47:25.548Z</time>
      </trkpt>
      <trkpt lat="43.48958" lon="1.54197">
        <ele>158</ele>
        <time>2019-05-13T21:47:40.972Z</time>
      </trkpt>
      <trkpt lat="43.48918" lon="1.54293">
        <ele>157</ele>
        <time>2019-05-13T21:47:58.452Z</time>
      </trkpt>
      <trkpt lat="43.48747" lon="1.54539">
        <ele>157</ele>
        <time>2019-05-13T21:48:50.971Z</time>
      </trkpt>
      <trkpt lat="43.48693" lon="1.5459">
        <ele>156</ele>
        <time>2019-05-13T21:49:05.292Z</time>
      </trkpt>
      <trkpt lat="43.48618" lon="1.54627">
        <ele>156</ele>
        <time>2019-05-13T21:49:22.945Z</time>
      </trkpt>
      <trkpt lat="43.48502" lon="1.54651">
        <ele>159</ele>
        <time>2019-05-13T21:49:48.955Z</time>
      </trkpt>
      <trkpt lat="43.48413" lon="1.54684">
        <ele>156</ele>
        <time>2019-05-13T21:50:09.188Z</time>
      </trkpt>
      <trkpt lat="43.48318" lon="1.54671">
        <ele>157</ele>
        <time>2019-05-13T21:50:31.274Z</time>
      </trkpt>
      <trkpt lat="43.48289" lon="1.54679">
        <ele>156</ele>
        <time>2019-05-13T21:50:38.224Z</time>
      </trkpt>
      <trkpt lat="43.48197" lon="1.54763">
        <ele>156</ele>
        <time>2019-05-13T21:51:04.887Z</time>
      </trkpt>
      <trkpt lat="43.48094" lon="1.54827">
        <ele>158</ele>
        <time>2019-05-13T21:51:32.022Z</time>
      </trkpt>
      <trkpt lat="43.4808" lon="1.54852">
        <ele>157</ele>
        <time>2019-05-13T21:51:37.442Z</time>
      </trkpt>
      <trkpt lat="43.48057" lon="1.5498">
        <ele>156</ele>
        <time>2019-05-13T21:51:59.528Z</time>
      </trkpt>
      <trkpt lat="43.48041" lon="1.55015">
        <ele>156</ele>
        <time>2019-05-13T21:52:06.457Z</time>
      </trkpt>
      <trkpt lat="43.47998" lon="1.55059">
        <ele>156</ele>
        <time>2019-05-13T21:52:18.632Z</time>
      </trkpt>
      <trkpt lat="43.47869" lon="1.5515">
        <ele>157</ele>
        <time>2019-05-13T21:52:51.765Z</time>
      </trkpt>
      <trkpt lat="43.47801" lon="1.55237">
        <ele>156</ele>
        <time>2019-05-13T21:53:13.248Z</time>
      </trkpt>
      <trkpt lat="43.47762" lon="1.5528">
        <ele>155</ele>
        <time>2019-05-13T21:53:24.891Z</time>
      </trkpt>
      <trkpt lat="43.4772" lon="1.55327">
        <ele>156</ele>
        <time>2019-05-13T21:53:37.766Z</time>
      </trkpt>
      <trkpt lat="43.4767" lon="1.55375">
        <ele>155</ele>
        <time>2019-05-13T21:53:51.750Z</time>
      </trkpt>
      <trkpt lat="43.47599" lon="1.55437">
        <ele>157</ele>
        <time>2019-05-13T21:54:11.816Z</time>
      </trkpt>
      <trkpt lat="43.47584" lon="1.55453">
        <ele>157</ele>
        <time>2019-05-13T21:54:16.170Z</time>
      </trkpt>
      <trkpt lat="43.47533" lon="1.55503">
        <ele>156</ele>
        <time>2019-05-13T21:54:30.942Z</time>
      </trkpt>
      <trkpt lat="43.4752" lon="1.55516">
        <ele>156</ele>
        <time>2019-05-13T21:54:34.727Z</time>
      </trkpt>
      <trkpt lat="43.4744" lon="1.55599">
        <ele>156</ele>
        <time>2019-05-13T21:54:58.370Z</time>
      </trkpt>
      <trkpt lat="43.47401" lon="1.55625">
        <ele>158</ele>
        <time>2019-05-13T21:55:09.022Z</time>
      </trkpt>
      <trkpt lat="43.47211" lon="1.55713">
        <ele>157</ele>
        <time>2019-05-13T21:55:57.914Z</time>
      </trkpt>
      <trkpt lat="43.4704" lon="1.55759">
        <ele>158</ele>
        <time>2019-05-13T21:56:43.188Z</time>
      </trkpt>
      <trkpt lat="43.46979" lon="1.55813">
        <ele>160</ele>
        <time>2019-05-13T21:57:01.724Z</time>
      </trkpt>
      <trkpt lat="43.46888" lon="1.55984">
        <ele>160</ele>
        <time>2019-05-13T21:57:39.730Z</time>
      </trkpt>
      <trkpt lat="43.46691" lon="1.56406">
        <ele>159</ele>
        <time>2019-05-13T21:59:05.475Z</time>
      </trkpt>
      <trkpt lat="43.46658" lon="1.56519">
        <ele>160</ele>
        <time>2019-05-13T21:59:24.385Z</time>
      </trkpt>
      <trkpt lat="43.4655" lon="1.56779">
        <ele>156</ele>
        <time>2019-05-13T22:00:08.346Z</time>
      </trkpt>
      <trkpt lat="43.4646" lon="1.56939">
        <ele>155</ele>
        <time>2019-05-13T22:00:39.635Z</time>
      </trkpt>
      <trkpt lat="43.46445" lon="1.56957">
        <ele>155</ele>
        <time>2019-05-13T22:00:44.222Z</time>
      </trkpt>
      <trkpt lat="43.46438" lon="1.56967">
        <ele>155</ele>
        <time>2019-05-13T22:00:46.756Z</time>
      </trkpt>
      <trkpt lat="43.46422" lon="1.56985">
        <ele>155</ele>
        <time>2019-05-13T22:00:52.253Z</time>
      </trkpt>
      <trkpt lat="43.46398" lon="1.5701">
        <ele>155</ele>
        <time>2019-05-13T22:01:01.065Z</time>
      </trkpt>
      <trkpt lat="43.46374" lon="1.57035">
        <ele>156</ele>
        <time>2019-05-13T22:01:10.498Z</time>
      </trkpt>
      <trkpt lat="43.46313" lon="1.57079">
        <ele>158</ele>
        <time>2019-05-13T22:01:32.589Z</time>
      </trkpt>
      <trkpt lat="43.46301" lon="1.57085">
        <ele>158</ele>
        <time>2019-05-13T22:01:36.846Z</time>
      </trkpt>
      <trkpt lat="43.46294" lon="1.57085">
        <ele>158</ele>
        <time>2019-05-13T22:01:39.770Z</time>
      </trkpt>
      <trkpt lat="43.46228" lon="1.57142">
        <ele>161</ele>
        <time>2019-05-13T22:02:06.621Z</time>
      </trkpt>
      <trkpt lat="43.46192" lon="1.57189">
        <ele>162</ele>
        <time>2019-05-13T22:02:23.351Z</time>
      </trkpt>
      <trkpt lat="43.46045" lon="1.57422">
        <ele>164</ele>
        <time>2019-05-13T22:03:29.822Z</time>
      </trkpt>
      <trkpt lat="43.45893" lon="1.57726">
        <ele>165</ele>
        <time>2019-05-13T22:04:25.480Z</time>
      </trkpt>
      <trkpt lat="43.45822" lon="1.57934">
        <ele>160</ele>
        <time>2019-05-13T22:04:59.587Z</time>
      </trkpt>
      <trkpt lat="43.4579" lon="1.58001">
        <ele>160</ele>
        <time>2019-05-13T22:05:12.182Z</time>
      </trkpt>
      <trkpt lat="43.45614" lon="1.58267">
        <ele>162</ele>
        <time>2019-05-13T22:06:11.874Z</time>
      </trkpt>
      <trkpt lat="43.45582" lon="1.58332">
        <ele>163</ele>
        <time>2019-05-13T22:06:24.223Z</time>
      </trkpt>
      <trkpt lat="43.4557" lon="1.58388">
        <ele>163</ele>
        <time>2019-05-13T22:06:33.278Z</time>
      </trkpt>
      <trkpt lat="43.45564" lon="1.58532">
        <ele>161</ele>
        <time>2019-05-13T22:06:54.971Z</time>
      </trkpt>
      <trkpt lat="43.45585" lon="1.58801">
        <ele>159</ele>
        <time>2019-05-13T22:07:35.609Z</time>
      </trkpt>
      <trkpt lat="43.45571" lon="1.59106">
        <ele>158</ele>
        <time>2019-05-13T22:08:25.900Z</time>
      </trkpt>
      <trkpt lat="43.45569" lon="1.59113">
        <ele>158</ele>
        <time>2019-05-13T22:08:27.278Z</time>
      </trkpt>
      <trkpt lat="43.45567" lon="1.59118">
        <ele>158</ele>
        <time>2019-05-13T22:08:28.816Z</time>
      </trkpt>
      <trkpt lat="43.45535" lon="1.5922">
        <ele>160</ele>
        <time>2019-05-13T22:08:48.597Z</time>
      </trkpt>
      <trkpt lat="43.45487" lon="1.59285">
        <ele>162</ele>
        <time>2019-05-13T22:09:05.759Z</time>
      </trkpt>
      <trkpt lat="43.45256" lon="1.59376">
        <ele>158</ele>
        <time>2019-05-13T22:10:03.237Z</time>
      </trkpt>
      <trkpt lat="43.45164" lon="1.59468">
        <ele>163</ele>
        <time>2019-05-13T22:10:32.856Z</time>
      </trkpt>
      <trkpt lat="43.45117" lon="1.59537">
        <ele>162</ele>
        <time>2019-05-13T22:10:50.364Z</time>
      </trkpt>
      <trkpt lat="43.45055" lon="1.59712">
        <ele>163</ele>
        <time>2019-05-13T22:11:25.509Z</time>
      </trkpt>
      <trkpt lat="43.44977" lon="1.5984">
        <ele>162</ele>
        <time>2019-05-13T22:11:54.697Z</time>
      </trkpt>
      <trkpt lat="43.44931" lon="1.59874">
        <ele>161</ele>
        <time>2019-05-13T22:12:07.766Z</time>
      </trkpt>
      <trkpt lat="43.44792" lon="1.59919">
        <ele>165</ele>
        <time>2019-05-13T22:12:46.879Z</time>
      </trkpt>
      <trkpt lat="43.44765" lon="1.59928">
        <ele>164</ele>
        <time>2019-05-13T22:12:55.183Z</time>
      </trkpt>
      <trkpt lat="43.44741" lon="1.59935">
        <ele>164</ele>
        <time>2019-05-13T22:13:01.953Z</time>
      </trkpt>
      <trkpt lat="43.44726" lon="1.59934">
        <ele>164</ele>
        <time>2019-05-13T22:13:06.751Z</time>
      </trkpt>
      <trkpt lat="43.44717" lon="1.59934">
        <ele>164</ele>
        <time>2019-05-13T22:13:09.178Z</time>
      </trkpt>
      <trkpt lat="43.44701" lon="1.59934">
        <ele>165</ele>
        <time>2019-05-13T22:13:13.476Z</time>
      </trkpt>
      <trkpt lat="43.44699" lon="1.59934">
        <ele>165</ele>
        <time>2019-05-13T22:13:14.348Z</time>
      </trkpt>
      <trkpt lat="43.44696" lon="1.59935">
        <ele>165</ele>
        <time>2019-05-13T22:13:15.913Z</time>
      </trkpt>
      <trkpt lat="43.44655" lon="1.59946">
        <ele>167</ele>
        <time>2019-05-13T22:13:27.920Z</time>
      </trkpt>
      <trkpt lat="43.44615" lon="1.59975">
        <ele>169</ele>
        <time>2019-05-13T22:13:39.149Z</time>
      </trkpt>
      <trkpt lat="43.44544" lon="1.60065">
        <ele>170</ele>
        <time>2019-05-13T22:14:00.834Z</time>
      </trkpt>
      <trkpt lat="43.4453" lon="1.60091">
        <ele>167</ele>
        <time>2019-05-13T22:14:05.256Z</time>
      </trkpt>
      <trkpt lat="43.44521" lon="1.6011">
        <ele>167</ele>
        <time>2019-05-13T22:14:08.664Z</time>
      </trkpt>
      <trkpt lat="43.44519" lon="1.60114">
        <ele>167</ele>
        <time>2019-05-13T22:14:09.203Z</time>
      </trkpt>
      <trkpt lat="43.44525" lon="1.60193">
        <ele>164</ele>
        <time>2019-05-13T22:14:20.217Z</time>
      </trkpt>
      <trkpt lat="43.44565" lon="1.6038">
        <ele>161</ele>
        <time>2019-05-13T22:14:47.526Z</time>
      </trkpt>
      <trkpt lat="43.44569" lon="1.60445">
        <ele>162</ele>
        <time>2019-05-13T22:14:57.776Z</time>
      </trkpt>
      <trkpt lat="43.44557" lon="1.60499">
        <ele>163</ele>
        <time>2019-05-13T22:15:07.330Z</time>
      </trkpt>
      <trkpt lat="43.44406" lon="1.60704">
        <ele>164</ele>
        <time>2019-05-13T22:16:01.819Z</time>
      </trkpt>
      <trkpt lat="43.44295" lon="1.60791">
        <ele>166</ele>
        <time>2019-05-13T22:16:32.872Z</time>
      </trkpt>
      <trkpt lat="43.44218" lon="1.60874">
        <ele>166</ele>
        <time>2019-05-13T22:16:54.010Z</time>
      </trkpt>
      <trkpt lat="43.44168" lon="1.60975">
        <ele>162</ele>
        <time>2019-05-13T22:17:12.340Z</time>
      </trkpt>
      <trkpt lat="43.44097" lon="1.61165">
        <ele>162</ele>
        <time>2019-05-13T22:17:46.495Z</time>
      </trkpt>
      <trkpt lat="43.44022" lon="1.61239">
        <ele>162</ele>
        <time>2019-05-13T22:18:14.347Z</time>
      </trkpt>
      <trkpt lat="43.44005" lon="1.61249">
        <ele>162</ele>
        <time>2019-05-13T22:18:19.304Z</time>
      </trkpt>
      <trkpt lat="43.44001" lon="1.6125">
        <ele>162</ele>
        <time>2019-05-13T22:18:20.873Z</time>
      </trkpt>
      <trkpt lat="43.43966" lon="1.61257">
        <ele>164</ele>
        <time>2019-05-13T22:18:31.531Z</time>
      </trkpt>
      <trkpt lat="43.43964" lon="1.61256">
        <ele>164</ele>
        <time>2019-05-13T22:18:32.743Z</time>
      </trkpt>
      <trkpt lat="43.43957" lon="1.61259">
        <ele>164</ele>
        <time>2019-05-13T22:18:35.003Z</time>
      </trkpt>
      <trkpt lat="43.43942" lon="1.61266">
        <ele>165</ele>
        <time>2019-05-13T22:18:39.234Z</time>
      </trkpt>
      <trkpt lat="43.43926" lon="1.61277">
        <ele>165</ele>
        <time>2019-05-13T22:18:45.413Z</time>
      </trkpt>
      <trkpt lat="43.43912" lon="1.61288">
        <ele>168</ele>
        <time>2019-05-13T22:18:49.575Z</time>
      </trkpt>
      <trkpt lat="43.43908" lon="1.61302">
        <ele>168</ele>
        <time>2019-05-13T22:18:52.875Z</time>
      </trkpt>
      <trkpt lat="43.43851" lon="1.61348">
        <ele>169</ele>
        <time>2019-05-13T22:19:12.661Z</time>
      </trkpt>
      <trkpt lat="43.4369" lon="1.61548">
        <ele>168</ele>
        <time>2019-05-13T22:20:05.053Z</time>
      </trkpt>
      <trkpt lat="43.43566" lon="1.61684">
        <ele>169</ele>
        <time>2019-05-13T22:20:41.179Z</time>
      </trkpt>
      <trkpt lat="43.43432" lon="1.61883">
        <ele>167</ele>
        <time>2019-05-13T22:21:23.267Z</time>
      </trkpt>
      <trkpt lat="43.43252" lon="1.62073">
        <ele>166</ele>
        <time>2019-05-13T22:22:11.962Z</time>
      </trkpt>
      <trkpt lat="43.43199" lon="1.62094">
        <ele>166</ele>
        <time>2019-05-13T22:22:24.771Z</time>
      </trkpt>
      <trkpt lat="43.4305" lon="1.62083">
        <ele>166</ele>
        <time>2019-05-13T22:23:02.491Z</time>
      </trkpt>
      <trkpt lat="43.43001" lon="1.62099">
        <ele>167</ele>
        <time>2019-05-13T22:23:15.365Z</time>
      </trkpt>
      <trkpt lat="43.42976" lon="1.62124">
        <ele>168</ele>
        <time>2019-05-13T22:23:23.143Z</time>
      </trkpt>
      <trkpt lat="43.42786" lon="1.62407">
        <ele>167</ele>
        <time>2019-05-13T22:24:29.134Z</time>
      </trkpt>
      <trkpt lat="43.42736" lon="1.62493">
        <ele>167</ele>
        <time>2019-05-13T22:24:47.125Z</time>
      </trkpt>
      <trkpt lat="43.42706" lon="1.62565">
        <ele>167</ele>
        <time>2019-05-13T22:25:00.654Z</time>
      </trkpt>
      <trkpt lat="43.42698" lon="1.62593">
        <ele>166</ele>
        <time>2019-05-13T22:25:05.724Z</time>
      </trkpt>
      <trkpt lat="43.42695" lon="1.62603">
        <ele>166</ele>
        <time>2019-05-13T22:25:07.555Z</time>
      </trkpt>
      <trkpt lat="43.4267" lon="1.62693">
        <ele>165</ele>
        <time>2019-05-13T22:25:24.247Z</time>
      </trkpt>
      <trkpt lat="43.42639" lon="1.62786">
        <ele>166</ele>
        <time>2019-05-13T22:25:42.774Z</time>
      </trkpt>
      <trkpt lat="43.42607" lon="1.62883">
        <ele>167</ele>
        <time>2019-05-13T22:26:02.394Z</time>
      </trkpt>
      <trkpt lat="43.42604" lon="1.6294">
        <ele>167</ele>
        <time>2019-05-13T22:26:13.051Z</time>
      </trkpt>
      <trkpt lat="43.42619" lon="1.63019">
        <ele>168</ele>
        <time>2019-05-13T22:26:27.687Z</time>
      </trkpt>
      <trkpt lat="43.427" lon="1.63177">
        <ele>167</ele>
        <time>2019-05-13T22:26:57.888Z</time>
      </trkpt>
      <trkpt lat="43.42721" lon="1.63247">
        <ele>166</ele>
        <time>2019-05-13T22:27:09.060Z</time>
      </trkpt>
      <trkpt lat="43.42719" lon="1.633">
        <ele>166</ele>
        <time>2019-05-13T22:27:16.772Z</time>
      </trkpt>
      <trkpt lat="43.42689" lon="1.63371">
        <ele>165</ele>
        <time>2019-05-13T22:27:29.087Z</time>
      </trkpt>
      <trkpt lat="43.42665" lon="1.63404">
        <ele>166</ele>
        <time>2019-05-13T22:27:36.204Z</time>
      </trkpt>
      <trkpt lat="43.42643" lon="1.63416">
        <ele>166</ele>
        <time>2019-05-13T22:27:41.248Z</time>
      </trkpt>
      <trkpt lat="43.42562" lon="1.63407">
        <ele>166</ele>
        <time>2019-05-13T22:28:00.236Z</time>
      </trkpt>
      <trkpt lat="43.42536" lon="1.63418">
        <ele>166</ele>
        <time>2019-05-13T22:28:06.886Z</time>
      </trkpt>
      <trkpt lat="43.42368" lon="1.63668">
        <ele>167</ele>
        <time>2019-05-13T22:29:11.777Z</time>
      </trkpt>
      <trkpt lat="43.42069" lon="1.63973">
        <ele>168</ele>
        <time>2019-05-13T22:30:38.184Z</time>
      </trkpt>
      <trkpt lat="43.41876" lon="1.641">
        <ele>170</ele>
        <time>2019-05-13T22:31:33.945Z</time>
      </trkpt>
      <trkpt lat="43.41871" lon="1.641">
        <ele>170</ele>
        <time>2019-05-13T22:31:35.707Z</time>
      </trkpt>
      <trkpt lat="43.4187" lon="1.64103">
        <ele>170</ele>
        <time>2019-05-13T22:31:36.230Z</time>
      </trkpt>
      <trkpt lat="43.41867" lon="1.64125">
        <ele>170</ele>
        <time>2019-05-13T22:31:40.192Z</time>
      </trkpt>
      <trkpt lat="43.41868" lon="1.64133">
        <ele>170</ele>
        <time>2019-05-13T22:31:41.548Z</time>
      </trkpt>
      <trkpt lat="43.41862" lon="1.64137">
        <ele>170</ele>
        <time>2019-05-13T22:31:43.263Z</time>
      </trkpt>
      <trkpt lat="43.41827" lon="1.64141">
        <ele>171</ele>
        <time>2019-05-13T22:31:52.479Z</time>
      </trkpt>
      <trkpt lat="43.41824" lon="1.64142">
        <ele>171</ele>
        <time>2019-05-13T22:31:53.592Z</time>
      </trkpt>
      <trkpt lat="43.41814" lon="1.64147">
        <ele>171</ele>
        <time>2019-05-13T22:31:56.227Z</time>
      </trkpt>
      <trkpt lat="43.41783" lon="1.64162">
        <ele>172</ele>
        <time>2019-05-13T22:32:04.469Z</time>
      </trkpt>
      <trkpt lat="43.4178" lon="1.64169">
        <ele>171</ele>
        <time>2019-05-13T22:32:05.824Z</time>
      </trkpt>
      <trkpt lat="43.41779" lon="1.64174">
        <ele>171</ele>
        <time>2019-05-13T22:32:06.612Z</time>
      </trkpt>
      <trkpt lat="43.41764" lon="1.64183">
        <ele>171</ele>
        <time>2019-05-13T22:32:10.764Z</time>
      </trkpt>
      <trkpt lat="43.41696" lon="1.64236">
        <ele>172</ele>
        <time>2019-05-13T22:32:29.729Z</time>
      </trkpt>
      <trkpt lat="43.41633" lon="1.64306">
        <ele>172</ele>
        <time>2019-05-13T22:32:49.167Z</time>
      </trkpt>
      <trkpt lat="43.41614" lon="1.64336">
        <ele>170</ele>
        <time>2019-05-13T22:32:55.653Z</time>
      </trkpt>
      <trkpt lat="43.41607" lon="1.64345">
        <ele>170</ele>
        <time>2019-05-13T22:32:58.343Z</time>
      </trkpt>
      <trkpt lat="43.41425" lon="1.64667">
        <ele>172</ele>
        <time>2019-05-13T22:34:10.507Z</time>
      </trkpt>
      <trkpt lat="43.41381" lon="1.64704">
        <ele>172</ele>
        <time>2019-05-13T22:34:23.139Z</time>
      </trkpt>
      <trkpt lat="43.41236" lon="1.64763">
        <ele>175</ele>
        <time>2019-05-13T22:34:59.703Z</time>
      </trkpt>
      <trkpt lat="43.412" lon="1.64806">
        <ele>175</ele>
        <time>2019-05-13T22:35:10.690Z</time>
      </trkpt>
      <trkpt lat="43.4116" lon="1.64897">
        <ele>174</ele>
        <time>2019-05-13T22:35:27.720Z</time>
      </trkpt>
      <trkpt lat="43.41129" lon="1.65026">
        <ele>171</ele>
        <time>2019-05-13T22:35:49.115Z</time>
      </trkpt>
      <trkpt lat="43.41127" lon="1.65232">
        <ele>171</ele>
        <time>2019-05-13T22:36:21.951Z</time>
      </trkpt>
      <trkpt lat="43.41141" lon="1.65333">
        <ele>171</ele>
        <time>2019-05-13T22:36:38.603Z</time>
      </trkpt>
      <trkpt lat="43.4121" lon="1.65631">
        <ele>171</ele>
        <time>2019-05-13T22:37:27.686Z</time>
      </trkpt>
      <trkpt lat="43.41223" lon="1.6569">
        <ele>169</ele>
        <time>2019-05-13T22:37:37.579Z</time>
      </trkpt>
      <trkpt lat="43.41226" lon="1.6571">
        <ele>169</ele>
        <time>2019-05-13T22:37:40.864Z</time>
      </trkpt>
      <trkpt lat="43.41229" lon="1.65852">
        <ele>169</ele>
        <time>2019-05-13T22:38:04.639Z</time>
      </trkpt>
      <trkpt lat="43.4121" lon="1.65971">
        <ele>172</ele>
        <time>2019-05-13T22:38:26.784Z</time>
      </trkpt>
      <trkpt lat="43.41169" lon="1.66071">
        <ele>172</ele>
        <time>2019-05-13T22:38:46.968Z</time>
      </trkpt>
      <trkpt lat="43.41102" lon="1.66174">
        <ele>171</ele>
        <time>2019-05-13T22:39:10.283Z</time>
      </trkpt>
      <trkpt lat="43.40942" lon="1.66355">
        <ele>171</ele>
        <time>2019-05-13T22:39:57.191Z</time>
      </trkpt>
      <trkpt lat="43.40733" lon="1.6652">
        <ele>170</ele>
        <time>2019-05-13T22:40:52.961Z</time>
      </trkpt>
      <trkpt lat="43.40543" lon="1.66627">
        <ele>171</ele>
        <time>2019-05-13T22:41:47.429Z</time>
      </trkpt>
      <trkpt lat="43.40487" lon="1.66681">
        <ele>173</ele>
        <time>2019-05-13T22:42:06.890Z</time>
      </trkpt>
      <trkpt lat="43.40424" lon="1.66766">
        <ele>172</ele>
        <time>2019-05-13T22:42:30.978Z</time>
      </trkpt>
      <trkpt lat="43.40385" lon="1.66848">
        <ele>174</ele>
        <time>2019-05-13T22:42:49.218Z</time>
      </trkpt>
      <trkpt lat="43.40275" lon="1.67147">
        <ele>174</ele>
        <time>2019-05-13T22:43:42.799Z</time>
      </trkpt>
      <trkpt lat="43.40193" lon="1.67421">
        <ele>171</ele>
        <time>2019-05-13T22:44:29.570Z</time>
      </trkpt>
      <trkpt lat="43.40124" lon="1.67589">
        <ele>172</ele>
        <time>2019-05-13T22:45:02.860Z</time>
      </trkpt>
      <trkpt lat="43.39976" lon="1.67873">
        <ele>173</ele>
        <time>2019-05-13T22:46:05.799Z</time>
      </trkpt>
      <trkpt lat="43.39924" lon="1.67939">
        <ele>172</ele>
        <time>2019-05-13T22:46:24.149Z</time>
      </trkpt>
      <trkpt lat="43.39898" lon="1.67952">
        <ele>174</ele>
        <time>2019-05-13T22:46:31.089Z</time>
      </trkpt>
      <trkpt lat="43.39892" lon="1.67952">
        <ele>174</ele>
        <time>2019-05-13T22:46:32.794Z</time>
      </trkpt>
      <trkpt lat="43.39863" lon="1.67969">
        <ele>175</ele>
        <time>2019-05-13T22:46:41.107Z</time>
      </trkpt>
      <trkpt lat="43.39831" lon="1.67995">
        <ele>177</ele>
        <time>2019-05-13T22:46:50.713Z</time>
      </trkpt>
      <trkpt lat="43.39795" lon="1.68057">
        <ele>176</ele>
        <time>2019-05-13T22:47:05.862Z</time>
      </trkpt>
      <trkpt lat="43.3975" lon="1.68225">
        <ele>176</ele>
        <time>2019-05-13T22:47:38.991Z</time>
      </trkpt>
      <trkpt lat="43.39723" lon="1.68287">
        <ele>175</ele>
        <time>2019-05-13T22:47:51.998Z</time>
      </trkpt>
      <trkpt lat="43.39687" lon="1.68331">
        <ele>177</ele>
        <time>2019-05-13T22:48:03.960Z</time>
      </trkpt>
      <trkpt lat="43.3959" lon="1.68394">
        <ele>178</ele>
        <time>2019-05-13T22:48:30.001Z</time>
      </trkpt>
      <trkpt lat="43.39569" lon="1.68431">
        <ele>179</ele>
        <time>2019-05-13T22:48:37.994Z</time>
      </trkpt>
      <trkpt lat="43.39561" lon="1.68498">
        <ele>177</ele>
        <time>2019-05-13T22:48:49.333Z</time>
      </trkpt>
      <trkpt lat="43.39571" lon="1.68669">
        <ele>176</ele>
        <time>2019-05-13T22:49:18.145Z</time>
      </trkpt>
      <trkpt lat="43.39565" lon="1.68743">
        <ele>176</ele>
        <time>2019-05-13T22:49:31.103Z</time>
      </trkpt>
      <trkpt lat="43.39547" lon="1.68796">
        <ele>176</ele>
        <time>2019-05-13T22:49:41.458Z</time>
      </trkpt>
      <trkpt lat="43.39523" lon="1.68823">
        <ele>176</ele>
        <time>2019-05-13T22:49:49.187Z</time>
      </trkpt>
      <trkpt lat="43.39496" lon="1.6883">
        <ele>177</ele>
        <time>2019-05-13T22:49:56.177Z</time>
      </trkpt>
      <trkpt lat="43.39378" lon="1.68799">
        <ele>179</ele>
        <time>2019-05-13T22:50:26.797Z</time>
      </trkpt>
      <trkpt lat="43.39377" lon="1.68799">
        <ele>179</ele>
        <time>2019-05-13T22:50:27.369Z</time>
      </trkpt>
      <trkpt lat="43.39363" lon="1.68805">
        <ele>179</ele>
        <time>2019-05-13T22:50:30.752Z</time>
      </trkpt>
      <trkpt lat="43.39362" lon="1.68807">
        <ele>179</ele>
        <time>2019-05-13T22:50:31.026Z</time>
      </trkpt>
      <trkpt lat="43.39296" lon="1.68937">
        <ele>178</ele>
        <time>2019-05-13T22:50:59.826Z</time>
      </trkpt>
      <trkpt lat="43.39228" lon="1.69123">
        <ele>179</ele>
        <time>2019-05-13T22:51:36.475Z</time>
      </trkpt>
      <trkpt lat="43.39193" lon="1.69172">
        <ele>180</ele>
        <time>2019-05-13T22:51:48.412Z</time>
      </trkpt>
      <trkpt lat="43.3919" lon="1.69175">
        <ele>180</ele>
        <time>2019-05-13T22:51:49.283Z</time>
      </trkpt>
      <trkpt lat="43.39188" lon="1.69179">
        <ele>180</ele>
        <time>2019-05-13T22:51:50.039Z</time>
      </trkpt>
      <trkpt lat="43.39035" lon="1.69366">
        <ele>180</ele>
        <time>2019-05-13T22:52:37.235Z</time>
      </trkpt>
      <trkpt lat="43.38989" lon="1.69473">
        <ele>180</ele>
        <time>2019-05-13T22:52:57.201Z</time>
      </trkpt>
      <trkpt lat="43.3898" lon="1.69582">
        <ele>178</ele>
        <time>2019-05-13T22:53:14.692Z</time>
      </trkpt>
      <trkpt lat="43.39039" lon="1.69699">
        <ele>177</ele>
        <time>2019-05-13T22:53:37.314Z</time>
      </trkpt>
      <trkpt lat="43.39047" lon="1.69733">
        <ele>177</ele>
        <time>2019-05-13T22:53:43.191Z</time>
      </trkpt>
      <trkpt lat="43.39035" lon="1.69886">
        <ele>178</ele>
        <time>2019-05-13T22:54:08.941Z</time>
      </trkpt>
      <trkpt lat="43.3902" lon="1.69936">
        <ele>178</ele>
        <time>2019-05-13T22:54:18.381Z</time>
      </trkpt>
      <trkpt lat="43.39014" lon="1.69947">
        <ele>178</ele>
        <time>2019-05-13T22:54:20.720Z</time>
      </trkpt>
      <trkpt lat="43.39007" lon="1.69954">
        <ele>178</ele>
        <time>2019-05-13T22:54:22.776Z</time>
      </trkpt>
      <trkpt lat="43.38969" lon="1.69979">
        <ele>179</ele>
        <time>2019-05-13T22:54:32.885Z</time>
      </trkpt>
      <trkpt lat="43.38873" lon="1.69972">
        <ele>179</ele>
        <time>2019-05-13T22:54:56.058Z</time>
      </trkpt>
      <trkpt lat="43.38778" lon="1.70042">
        <ele>179</ele>
        <time>2019-05-13T22:55:21.565Z</time>
      </trkpt>
      <trkpt lat="43.38635" lon="1.70184">
        <ele>178</ele>
        <time>2019-05-13T22:56:02.913Z</time>
      </trkpt>
      <trkpt lat="43.38503" lon="1.70412">
        <ele>180</ele>
        <time>2019-05-13T22:56:55.577Z</time>
      </trkpt>
      <trkpt lat="43.38493" lon="1.70447">
        <ele>181</ele>
        <time>2019-05-13T22:57:02.257Z</time>
      </trkpt>
      <trkpt lat="43.38494" lon="1.70489">
        <ele>181</ele>
        <time>2019-05-13T22:57:09.394Z</time>
      </trkpt>
      <trkpt lat="43.38605" lon="1.70804">
        <ele>179</ele>
        <time>2019-05-13T22:58:04.410Z</time>
      </trkpt>
      <trkpt lat="43.38616" lon="1.70871">
        <ele>179</ele>
        <time>2019-05-13T22:58:15.777Z</time>
      </trkpt>
      <trkpt lat="43.38616" lon="1.70872">
        <ele>179</ele>
        <time>2019-05-13T22:58:15.964Z</time>
      </trkpt>
      <trkpt lat="43.38623" lon="1.70891">
        <ele>179</ele>
        <time>2019-05-13T22:58:19.242Z</time>
      </trkpt>
      <trkpt lat="43.38624" lon="1.70892">
        <ele>179</ele>
        <time>2019-05-13T22:58:19.622Z</time>
      </trkpt>
      <trkpt lat="43.38647" lon="1.70925">
        <ele>179</ele>
        <time>2019-05-13T22:58:27.215Z</time>
      </trkpt>
      <trkpt lat="43.38654" lon="1.70935">
        <ele>179</ele>
        <time>2019-05-13T22:58:29.596Z</time>
      </trkpt>
      <trkpt lat="43.38663" lon="1.70947">
        <ele>179</ele>
        <time>2019-05-13T22:58:32.481Z</time>
      </trkpt>
      <trkpt lat="43.38942" lon="1.71152">
        <ele>178</ele>
        <time>2019-05-13T22:59:49.374Z</time>
      </trkpt>
      <trkpt lat="43.38977" lon="1.71173">
        <ele>179</ele>
        <time>2019-05-13T22:59:58.396Z</time>
      </trkpt>
      <trkpt lat="43.38992" lon="1.71185">
        <ele>178</ele>
        <time>2019-05-13T23:00:02.776Z</time>
      </trkpt>
      <trkpt lat="43.39037" lon="1.71225">
        <ele>178</ele>
        <time>2019-05-13T23:00:15.355Z</time>
      </trkpt>
      <trkpt lat="43.39073" lon="1.71278">
        <ele>179</ele>
        <time>2019-05-13T23:00:27.498Z</time>
      </trkpt>
      <trkpt lat="43.39094" lon="1.71358">
        <ele>179</ele>
        <time>2019-05-13T23:00:41.311Z</time>
      </trkpt>
      <trkpt lat="43.39058" lon="1.71586">
        <ele>178</ele>
        <time>2019-05-13T23:01:18.095Z</time>
      </trkpt>
      <trkpt lat="43.39041" lon="1.71765">
        <ele>178</ele>
        <time>2019-05-13T23:01:45.864Z</time>
      </trkpt>
      <trkpt lat="43.39" lon="1.719">
        <ele>177</ele>
        <time>2019-05-13T23:02:07.994Z</time>
      </trkpt>
      <trkpt lat="43.38969" lon="1.7195">
        <ele>176</ele>
        <time>2019-05-13T23:02:18.517Z</time>
      </trkpt>
      <trkpt lat="43.3891" lon="1.71996">
        <ele>177</ele>
        <time>2019-05-13T23:02:34.057Z</time>
      </trkpt>
      <trkpt lat="43.3875" lon="1.72034">
        <ele>178</ele>
        <time>2019-05-13T23:03:15.756Z</time>
      </trkpt>
      <trkpt lat="43.38682" lon="1.72075">
        <ele>180</ele>
        <time>2019-05-13T23:03:35.723Z</time>
      </trkpt>
      <trkpt lat="43.38485" lon="1.72414">
        <ele>181</ele>
        <time>2019-05-13T23:04:56.972Z</time>
      </trkpt>
      <trkpt lat="43.38381" lon="1.72648">
        <ele>181</ele>
        <time>2019-05-13T23:05:44.230Z</time>
      </trkpt>
      <trkpt lat="43.38371" lon="1.72672">
        <ele>179</ele>
        <time>2019-05-13T23:05:48.560Z</time>
      </trkpt>
      <trkpt lat="43.38369" lon="1.72675">
        <ele>179</ele>
        <time>2019-05-13T23:05:49.960Z</time>
      </trkpt>
      <trkpt lat="43.38332" lon="1.72754">
        <ele>178</ele>
        <time>2019-05-13T23:06:06.461Z</time>
      </trkpt>
      <trkpt lat="43.3833" lon="1.72755">
        <ele>179</ele>
        <time>2019-05-13T23:06:07.286Z</time>
      </trkpt>
      <trkpt lat="43.38327" lon="1.72756">
        <ele>179</ele>
        <time>2019-05-13T23:06:08.699Z</time>
      </trkpt>
      <trkpt lat="43.38287" lon="1.72814">
        <ele>181</ele>
        <time>2019-05-13T23:06:23.515Z</time>
      </trkpt>
      <trkpt lat="43.38169" lon="1.7306">
        <ele>181</ele>
        <time>2019-05-13T23:07:18.102Z</time>
      </trkpt>
      <trkpt lat="43.38124" lon="1.73186">
        <ele>180</ele>
        <time>2019-05-13T23:07:40.529Z</time>
      </trkpt>
      <trkpt lat="43.38076" lon="1.734">
        <ele>181</ele>
        <time>2019-05-13T23:08:15.441Z</time>
      </trkpt>
      <trkpt lat="43.37923" lon="1.73803">
        <ele>180</ele>
        <time>2019-05-13T23:09:28.772Z</time>
      </trkpt>
      <trkpt lat="43.37851" lon="1.73929">
        <ele>181</ele>
        <time>2019-05-13T23:09:55.527Z</time>
      </trkpt>
      <trkpt lat="43.37672" lon="1.74136">
        <ele>180</ele>
        <time>2019-05-13T23:10:51.936Z</time>
      </trkpt>
      <trkpt lat="43.37605" lon="1.74326">
        <ele>181</ele>
        <time>2019-05-13T23:11:28.657Z</time>
      </trkpt>
      <trkpt lat="43.37531" lon="1.74586">
        <ele>180</ele>
        <time>2019-05-13T23:12:15.079Z</time>
      </trkpt>
      <trkpt lat="43.37467" lon="1.74743">
        <ele>182</ele>
        <time>2019-05-13T23:12:44.468Z</time>
      </trkpt>
      <trkpt lat="43.37426" lon="1.74814">
        <ele>181</ele>
        <time>2019-05-13T23:12:59.632Z</time>
      </trkpt>
      <trkpt lat="43.37304" lon="1.7498">
        <ele>182</ele>
        <time>2019-05-13T23:13:38.816Z</time>
      </trkpt>
      <trkpt lat="43.37239" lon="1.75121">
        <ele>182</ele>
        <time>2019-05-13T23:14:05.615Z</time>
      </trkpt>
      <trkpt lat="43.37221" lon="1.75169">
        <ele>181</ele>
        <time>2019-05-13T23:14:14.309Z</time>
      </trkpt>
      <trkpt lat="43.3719" lon="1.75264">
        <ele>180</ele>
        <time>2019-05-13T23:14:30.974Z</time>
      </trkpt>
      <trkpt lat="43.37149" lon="1.75363">
        <ele>181</ele>
        <time>2019-05-13T23:14:50.500Z</time>
      </trkpt>
      <trkpt lat="43.37122" lon="1.75405">
        <ele>181</ele>
        <time>2019-05-13T23:15:00.560Z</time>
      </trkpt>
      <trkpt lat="43.36923" lon="1.75602">
        <ele>182</ele>
        <time>2019-05-13T23:16:12.200Z</time>
      </trkpt>
      <trkpt lat="43.36912" lon="1.7561">
        <ele>185</ele>
        <time>2019-05-13T23:16:16.165Z</time>
      </trkpt>
      <trkpt lat="43.36912" lon="1.7561">
        <ele>185</ele>
        <time>2019-05-13T23:16:16.414Z</time>
      </trkpt>
      <trkpt lat="43.36909" lon="1.75608">
        <ele>185</ele>
        <time>2019-05-13T23:16:17.403Z</time>
      </trkpt>
      <trkpt lat="43.36908" lon="1.75608">
        <ele>185</ele>
        <time>2019-05-13T23:16:17.662Z</time>
      </trkpt>
      <trkpt lat="43.36907" lon="1.75609">
        <ele>185</ele>
        <time>2019-05-13T23:16:18.432Z</time>
      </trkpt>
      <trkpt lat="43.36817" lon="1.7571">
        <ele>188</ele>
        <time>2019-05-13T23:16:56.438Z</time>
      </trkpt>
      <trkpt lat="43.3674" lon="1.75822">
        <ele>191</ele>
        <time>2019-05-13T23:17:28.801Z</time>
      </trkpt>
      <trkpt lat="43.36628" lon="1.76091">
        <ele>186</ele>
        <time>2019-05-13T23:18:22.679Z</time>
      </trkpt>
      <trkpt lat="43.36594" lon="1.76226">
        <ele>184</ele>
        <time>2019-05-13T23:18:47.902Z</time>
      </trkpt>
      <trkpt lat="43.36563" lon="1.76419">
        <ele>187</ele>
        <time>2019-05-13T23:19:24.179Z</time>
      </trkpt>
      <trkpt lat="43.36498" lon="1.7656">
        <ele>192</ele>
        <time>2019-05-13T23:19:53.256Z</time>
      </trkpt>
      <trkpt lat="43.36448" lon="1.76714">
        <ele>187</ele>
        <time>2019-05-13T23:20:19.904Z</time>
      </trkpt>
      <trkpt lat="43.36417" lon="1.76809">
        <ele>186</ele>
        <time>2019-05-13T23:20:35.708Z</time>
      </trkpt>
      <trkpt lat="43.36375" lon="1.77161">
        <ele>184</ele>
        <time>2019-05-13T23:21:35.475Z</time>
      </trkpt>
      <trkpt lat="43.36339" lon="1.773">
        <ele>188</ele>
        <time>2019-05-13T23:22:02.872Z</time>
      </trkpt>
      <trkpt lat="43.36337" lon="1.77304">
        <ele>188</ele>
        <time>2019-05-13T23:22:04.297Z</time>
      </trkpt>
      <trkpt lat="43.36336" lon="1.77307">
        <ele>188</ele>
        <time>2019-05-13T23:22:04.750Z</time>
      </trkpt>
      <trkpt lat="43.3623" lon="1.77638">
        <ele>189</ele>
        <time>2019-05-13T23:23:03.274Z</time>
      </trkpt>
      <trkpt lat="43.36091" lon="1.77858">
        <ele>189</ele>
        <time>2019-05-13T23:23:55.049Z</time>
      </trkpt>
      <trkpt lat="43.36022" lon="1.78074">
        <ele>189</ele>
        <time>2019-05-13T23:24:40.210Z</time>
      </trkpt>
      <trkpt lat="43.35899" lon="1.78303">
        <ele>193</ele>
        <time>2019-05-13T23:25:33.730Z</time>
      </trkpt>
      <trkpt lat="43.35866" lon="1.78387">
        <ele>191</ele>
        <time>2019-05-13T23:25:50.712Z</time>
      </trkpt>
      <trkpt lat="43.35667" lon="1.79128">
        <ele>188</ele>
        <time>2019-05-13T23:27:59.782Z</time>
      </trkpt>
      <trkpt lat="43.35582" lon="1.7955">
        <ele>191</ele>
        <time>2019-05-13T23:29:07.447Z</time>
      </trkpt>
      <trkpt lat="43.3558" lon="1.79557">
        <ele>191</ele>
        <time>2019-05-13T23:29:08.616Z</time>
      </trkpt>
      <trkpt lat="43.35579" lon="1.79561">
        <ele>191</ele>
        <time>2019-05-13T23:29:09.123Z</time>
      </trkpt>
      <trkpt lat="43.35441" lon="1.79845">
        <ele>190</ele>
        <time>2019-05-13T23:30:04.289Z</time>
      </trkpt>
      <trkpt lat="43.35401" lon="1.79955">
        <ele>190</ele>
        <time>2019-05-13T23:30:24.893Z</time>
      </trkpt>
      <trkpt lat="43.35407" lon="1.80064">
        <ele>188</ele>
        <time>2019-05-13T23:30:43.944Z</time>
      </trkpt>
      <trkpt lat="43.35421" lon="1.80129">
        <ele>188</ele>
        <time>2019-05-13T23:30:56.376Z</time>
      </trkpt>
      <trkpt lat="43.35493" lon="1.80275">
        <ele>190</ele>
        <time>2019-05-13T23:31:28.217Z</time>
      </trkpt>
      <trkpt lat="43.35498" lon="1.80281">
        <ele>190</ele>
        <time>2019-05-13T23:31:30.303Z</time>
      </trkpt>
      <trkpt lat="43.35524" lon="1.80318">
        <ele>188</ele>
        <time>2019-05-13T23:31:39.631Z</time>
      </trkpt>
      <trkpt lat="43.35542" lon="1.80335">
        <ele>188</ele>
        <time>2019-05-13T23:31:44.450Z</time>
      </trkpt>
      <trkpt lat="43.35581" lon="1.80365">
        <ele>187</ele>
        <time>2019-05-13T23:31:55.305Z</time>
      </trkpt>
      <trkpt lat="43.35689" lon="1.80547">
        <ele>188</ele>
        <time>2019-05-13T23:32:33.290Z</time>
      </trkpt>
      <trkpt lat="43.35701" lon="1.80575">
        <ele>189</ele>
        <time>2019-05-13T23:32:38.654Z</time>
      </trkpt>
      <trkpt lat="43.35703" lon="1.80614">
        <ele>190</ele>
        <time>2019-05-13T23:32:44.547Z</time>
      </trkpt>
      <trkpt lat="43.35704" lon="1.80617">
        <ele>190</ele>
        <time>2019-05-13T23:32:45.189Z</time>
      </trkpt>
      <trkpt lat="43.35709" lon="1.80628">
        <ele>190</ele>
        <time>2019-05-13T23:32:47.251Z</time>
      </trkpt>
      <trkpt lat="43.3571" lon="1.80629">
        <ele>190</ele>
        <time>2019-05-13T23:32:47.451Z</time>
      </trkpt>
      <trkpt lat="43.35766" lon="1.80822">
        <ele>188</ele>
        <time>2019-05-13T23:33:20.489Z</time>
      </trkpt>
      <trkpt lat="43.35773" lon="1.80875">
        <ele>188</ele>
        <time>2019-05-13T23:33:29.724Z</time>
      </trkpt>
      <trkpt lat="43.35793" lon="1.81126">
        <ele>188</ele>
        <time>2019-05-13T23:34:19.206Z</time>
      </trkpt>
      <trkpt lat="43.35786" lon="1.81246">
        <ele>189</ele>
        <time>2019-05-13T23:34:43.713Z</time>
      </trkpt>
      <trkpt lat="43.35778" lon="1.81291">
        <ele>191</ele>
        <time>2019-05-13T23:34:53.008Z</time>
      </trkpt>
      <trkpt lat="43.35764" lon="1.81355">
        <ele>192</ele>
        <time>2019-05-13T23:35:12.554Z</time>
      </trkpt>
      <trkpt lat="43.35717" lon="1.81528">
        <ele>191</ele>
        <time>2019-05-13T23:36:05.367Z</time>
      </trkpt>
      <trkpt lat="43.3567" lon="1.81639">
        <ele>194</ele>
        <time>2019-05-13T23:36:39.279Z</time>
      </trkpt>
      <trkpt lat="43.35645" lon="1.81687">
        <ele>195</ele>
        <time>2019-05-13T23:36:54.464Z</time>
      </trkpt>
      <trkpt lat="43.35573" lon="1.81812">
        <ele>192</ele>
        <time>2019-05-13T23:37:38.174Z</time>
      </trkpt>
      <trkpt lat="43.35537" lon="1.81834">
        <ele>191</ele>
        <time>2019-05-13T23:37:53.433Z</time>
      </trkpt>
      <trkpt lat="43.35536" lon="1.81834">
        <ele>191</ele>
        <time>2019-05-13T23:37:53.911Z</time>
      </trkpt>
      <trkpt lat="43.35531" lon="1.81823">
        <ele>192</ele>
        <time>2019-05-13T23:37:56.502Z</time>
      </trkpt>
      <trkpt lat="43.35523" lon="1.8181">
        <ele>193</ele>
        <time>2019-05-13T23:37:59.331Z</time>
      </trkpt>
      <trkpt lat="43.35508" lon="1.81826">
        <ele>192</ele>
        <time>2019-05-13T23:38:07.670Z</time>
      </trkpt>
      <trkpt lat="43.35442" lon="1.81891">
        <ele>194</ele>
        <time>2019-05-13T23:38:40.403Z</time>
      </trkpt>
      <trkpt lat="43.35419" lon="1.819">
        <ele>195</ele>
        <time>2019-05-13T23:38:50.356Z</time>
      </trkpt>
      <trkpt lat="43.3499" lon="1.81822">
        <ele>192</ele>
        <time>2019-05-13T23:41:21.405Z</time>
      </trkpt>
      <trkpt lat="43.34979" lon="1.8182">
        <ele>192</ele>
        <time>2019-05-13T23:41:24.612Z</time>
      </trkpt>
      <trkpt lat="43.34893" lon="1.81896">
        <ele>190</ele>
        <time>2019-05-13T23:41:58.985Z</time>
      </trkpt>
      <trkpt lat="43.34866" lon="1.81936">
        <ele>190</ele>
        <time>2019-05-13T23:42:12.396Z</time>
      </trkpt>
      <trkpt lat="43.34825" lon="1.81992">
        <ele>190</ele>
        <time>2019-05-13T23:42:33.727Z</time>
      </trkpt>
      <trkpt lat="43.34575" lon="1.82438">
        <ele>192</ele>
        <time>2019-05-13T23:45:11.720Z</time>
      </trkpt>
      <trkpt lat="43.34409" lon="1.82687">
        <ele>193</ele>
        <time>2019-05-13T23:46:41.680Z</time>
      </trkpt>
      <trkpt lat="43.3424" lon="1.83124">
        <ele>192</ele>
        <time>2019-05-13T23:48:54.751Z</time>
      </trkpt>
      <trkpt lat="43.34239" lon="1.83127">
        <ele>192</ele>
        <time>2019-05-13T23:48:55.745Z</time>
      </trkpt>
      <trkpt lat="43.3414" lon="1.8341">
        <ele>192</ele>
        <time>2019-05-13T23:50:24.279Z</time>
      </trkpt>
      <trkpt lat="43.34136" lon="1.83427">
        <ele>192</ele>
        <time>2019-05-13T23:50:29.661Z</time>
      </trkpt>
      <trkpt lat="43.34125" lon="1.83458">
        <ele>192</ele>
        <time>2019-05-13T23:50:36.243Z</time>
      </trkpt>
      <trkpt lat="43.34111" lon="1.83489">
        <ele>192</ele>
        <time>2019-05-13T23:50:43.235Z</time>
      </trkpt>
      <trkpt lat="43.34099" lon="1.83516">
        <ele>192</ele>
        <time>2019-05-13T23:50:49.177Z</time>
      </trkpt>
      <trkpt lat="43.3409" lon="1.8354">
        <ele>192</ele>
        <time>2019-05-13T23:50:54.470Z</time>
      </trkpt>
      <trkpt lat="43.34072" lon="1.83594">
        <ele>193</ele>
        <time>2019-05-13T23:51:05.502Z</time>
      </trkpt>
      <trkpt lat="43.34064" lon="1.8362">
        <ele>194</ele>
        <time>2019-05-13T23:51:10.673Z</time>
      </trkpt>
      <trkpt lat="43.34061" lon="1.83633">
        <ele>194</ele>
        <time>2019-05-13T23:51:14.721Z</time>
      </trkpt>
      <trkpt lat="43.3404" lon="1.83744">
        <ele>195</ele>
        <time>2019-05-13T23:51:46.248Z</time>
      </trkpt>
      <trkpt lat="43.34025" lon="1.84156">
        <ele>192</ele>
        <time>2019-05-13T23:53:31.616Z</time>
      </trkpt>
      <trkpt lat="43.34006" lon="1.84243">
        <ele>191</ele>
        <time>2019-05-13T23:53:54.106Z</time>
      </trkpt>
      <trkpt lat="43.33972" lon="1.84312">
        <ele>191</ele>
        <time>2019-05-13T23:54:14.924Z</time>
      </trkpt>
      <trkpt lat="43.33909" lon="1.84367">
        <ele>191</ele>
        <time>2019-05-13T23:54:41.370Z</time>
      </trkpt>
      <trkpt lat="43.33884" lon="1.8436">
        <ele>191</ele>
        <time>2019-05-13T23:54:50.459Z</time>
      </trkpt>
      <trkpt lat="43.3381" lon="1.84237">
        <ele>192</ele>
        <time>2019-05-13T23:55:35.434Z</time>
      </trkpt>
      <trkpt lat="43.33756" lon="1.84205">
        <ele>192</ele>
        <time>2019-05-13T23:55:59.246Z</time>
      </trkpt>
      <trkpt lat="43.33719" lon="1.84205">
        <ele>192</ele>
        <time>2019-05-13T23:56:13.938Z</time>
      </trkpt>
      <trkpt lat="43.33682" lon="1.84226">
        <ele>193</ele>
        <time>2019-05-13T23:56:30.011Z</time>
      </trkpt>
      <trkpt lat="43.33629" lon="1.84274">
        <ele>193</ele>
        <time>2019-05-13T23:56:54.717Z</time>
      </trkpt>
      <trkpt lat="43.33601" lon="1.84325">
        <ele>193</ele>
        <time>2019-05-13T23:57:12.337Z</time>
      </trkpt>
      <trkpt lat="43.33467" lon="1.8472">
        <ele>192</ele>
        <time>2019-05-13T23:59:08.398Z</time>
      </trkpt>
      <trkpt lat="43.33413" lon="1.84816">
        <ele>193</ele>
        <time>2019-05-13T23:59:40.596Z</time>
      </trkpt>
      <trkpt lat="43.33325" lon="1.84912">
        <ele>193</ele>
        <time>2019-05-14T00:00:21.645Z</time>
      </trkpt>
      <trkpt lat="43.33312" lon="1.84942">
        <ele>192</ele>
        <time>2019-05-14T00:00:31.182Z</time>
      </trkpt>
      <trkpt lat="43.33312" lon="1.84947">
        <ele>192</ele>
        <time>2019-05-14T00:00:32.419Z</time>
      </trkpt>
      <trkpt lat="43.33297" lon="1.85138">
        <ele>191</ele>
        <time>2019-05-14T00:01:23.370Z</time>
      </trkpt>
      <trkpt lat="43.33195" lon="1.85431">
        <ele>190</ele>
        <time>2019-05-14T00:02:49.450Z</time>
      </trkpt>
      <trkpt lat="43.33189" lon="1.8562">
        <ele>191</ele>
        <time>2019-05-14T00:03:40.411Z</time>
      </trkpt>
      <trkpt lat="43.3318" lon="1.8566">
        <ele>192</ele>
        <time>2019-05-14T00:03:51.811Z</time>
      </trkpt>
      <trkpt lat="43.33096" lon="1.85853">
        <ele>191</ele>
        <time>2019-05-14T00:04:51.923Z</time>
      </trkpt>
      <trkpt lat="43.33029" lon="1.86081">
        <ele>192</ele>
        <time>2019-05-14T00:05:55.094Z</time>
      </trkpt>
      <trkpt lat="43.3301" lon="1.86156">
        <ele>191</ele>
        <time>2019-05-14T00:06:14.873Z</time>
      </trkpt>
      <trkpt lat="43.32961" lon="1.8636">
        <ele>189</ele>
        <time>2019-05-14T00:07:07.600Z</time>
      </trkpt>
      <trkpt lat="43.32913" lon="1.86602">
        <ele>187</ele>
        <time>2019-05-14T00:08:09.109Z</time>
      </trkpt>
      <trkpt lat="43.32903" lon="1.86685">
        <ele>187</ele>
        <time>2019-05-14T00:08:30.046Z</time>
      </trkpt>
      <trkpt lat="43.32905" lon="1.86747">
        <ele>188</ele>
        <time>2019-05-14T00:08:45.748Z</time>
      </trkpt>
      <trkpt lat="43.32906" lon="1.86886">
        <ele>187</ele>
        <time>2019-05-14T00:09:21.313Z</time>
      </trkpt>
      <trkpt lat="43.32845" lon="1.87095">
        <ele>186</ele>
        <time>2019-05-14T00:10:19.618Z</time>
      </trkpt>
      <trkpt lat="43.32737" lon="1.87414">
        <ele>184</ele>
        <time>2019-05-14T00:11:50.517Z</time>
      </trkpt>
      <trkpt lat="43.32713" lon="1.87659">
        <ele>183</ele>
        <time>2019-05-14T00:12:57.550Z</time>
      </trkpt>
      <trkpt lat="43.32695" lon="1.87843">
        <ele>184</ele>
        <time>2019-05-14T00:13:47.223Z</time>
      </trkpt>
      <trkpt lat="43.32526" lon="1.88213">
        <ele>182</ele>
        <time>2019-05-14T00:15:36.498Z</time>
      </trkpt>
      <trkpt lat="43.32516" lon="1.88282">
        <ele>182</ele>
        <time>2019-05-14T00:15:53.722Z</time>
      </trkpt>
      <trkpt lat="43.32518" lon="1.8843">
        <ele>180</ele>
        <time>2019-05-14T00:16:30.620Z</time>
      </trkpt>
      <trkpt lat="43.32517" lon="1.88557">
        <ele>179</ele>
        <time>2019-05-14T00:17:02.469Z</time>
      </trkpt>
      <trkpt lat="43.32516" lon="1.88747">
        <ele>180</ele>
        <time>2019-05-14T00:17:33.675Z</time>
      </trkpt>
      <trkpt lat="43.32512" lon="1.88869">
        <ele>180</ele>
        <time>2019-05-14T00:17:54.012Z</time>
      </trkpt>
      <trkpt lat="43.32469" lon="1.89068">
        <ele>177</ele>
        <time>2019-05-14T00:18:30.050Z</time>
      </trkpt>
      <trkpt lat="43.32467" lon="1.89077">
        <ele>177</ele>
        <time>2019-05-14T00:18:31.848Z</time>
      </trkpt>
      <trkpt lat="43.32455" lon="1.8913">
        <ele>178</ele>
        <time>2019-05-14T00:18:41.796Z</time>
      </trkpt>
      <trkpt lat="43.32441" lon="1.89192">
        <ele>179</ele>
        <time>2019-05-14T00:18:59.412Z</time>
      </trkpt>
      <trkpt lat="43.32399" lon="1.89491">
        <ele>178</ele>
        <time>2019-05-14T00:20:20.690Z</time>
      </trkpt>
      <trkpt lat="43.32232" lon="1.90128">
        <ele>176</ele>
        <time>2019-05-14T00:23:19.131Z</time>
      </trkpt>
      <trkpt lat="43.32217" lon="1.90266">
        <ele>177</ele>
        <time>2019-05-14T00:23:56.486Z</time>
      </trkpt>
      <trkpt lat="43.32209" lon="1.90454">
        <ele>179</ele>
        <time>2019-05-14T00:24:48.101Z</time>
      </trkpt>
      <trkpt lat="43.3213" lon="1.909">
        <ele>173</ele>
        <time>2019-05-14T00:26:59.130Z</time>
      </trkpt>
      <trkpt lat="43.32085" lon="1.91053">
        <ele>178</ele>
        <time>2019-05-14T00:27:48.524Z</time>
      </trkpt>
      <trkpt lat="43.3207" lon="1.91141">
        <ele>183</ele>
        <time>2019-05-14T00:28:13.386Z</time>
      </trkpt>
      <trkpt lat="43.32084" lon="1.91348">
        <ele>176</ele>
        <time>2019-05-14T00:29:00.328Z</time>
      </trkpt>
      <trkpt lat="43.32084" lon="1.91385">
        <ele>174</ele>
        <time>2019-05-14T00:29:08.229Z</time>
      </trkpt>
      <trkpt lat="43.32091" lon="1.91439">
        <ele>173</ele>
        <time>2019-05-14T00:29:15.933Z</time>
      </trkpt>
      <trkpt lat="43.32122" lon="1.91556">
        <ele>173</ele>
        <time>2019-05-14T00:29:33.793Z</time>
      </trkpt>
      <trkpt lat="43.32129" lon="1.91629">
        <ele>172</ele>
        <time>2019-05-14T00:29:45.488Z</time>
      </trkpt>
      <trkpt lat="43.32081" lon="1.9182">
        <ele>170</ele>
        <time>2019-05-14T00:30:20.917Z</time>
      </trkpt>
      <trkpt lat="43.32062" lon="1.91997">
        <ele>173</ele>
        <time>2019-05-14T00:30:54.299Z</time>
      </trkpt>
      <trkpt lat="43.32069" lon="1.9208">
        <ele>173</ele>
        <time>2019-05-14T00:31:10.570Z</time>
      </trkpt>
      <trkpt lat="43.32101" lon="1.92217">
        <ele>172</ele>
        <time>2019-05-14T00:31:39.155Z</time>
      </trkpt>
      <trkpt lat="43.32103" lon="1.92268">
        <ele>172</ele>
        <time>2019-05-14T00:31:49.611Z</time>
      </trkpt>
      <trkpt lat="43.32057" lon="1.92428">
        <ele>174</ele>
        <time>2019-05-14T00:32:23.788Z</time>
      </trkpt>
      <trkpt lat="43.32045" lon="1.92565">
        <ele>174</ele>
        <time>2019-05-14T00:32:49.541Z</time>
      </trkpt>
      <trkpt lat="43.32031" lon="1.92677">
        <ele>174</ele>
        <time>2019-05-14T00:33:09.463Z</time>
      </trkpt>
      <trkpt lat="43.32029" lon="1.92694">
        <ele>174</ele>
        <time>2019-05-14T00:33:12.340Z</time>
      </trkpt>
      <trkpt lat="43.31984" lon="1.93002">
        <ele>172</ele>
        <time>2019-05-14T00:34:07.873Z</time>
      </trkpt>
      <trkpt lat="43.31941" lon="1.93175">
        <ele>173</ele>
        <time>2019-05-14T00:34:43.731Z</time>
      </trkpt>
      <trkpt lat="43.31904" lon="1.93264">
        <ele>173</ele>
        <time>2019-05-14T00:35:03.690Z</time>
      </trkpt>
      <trkpt lat="43.31854" lon="1.93335">
        <ele>175</ele>
        <time>2019-05-14T00:35:21.370Z</time>
      </trkpt>
      <trkpt lat="43.31837" lon="1.93361">
        <ele>175</ele>
        <time>2019-05-14T00:35:27.541Z</time>
      </trkpt>
      <trkpt lat="43.31816" lon="1.93395">
        <ele>174</ele>
        <time>2019-05-14T00:35:34.952Z</time>
      </trkpt>
      <trkpt lat="43.31792" lon="1.93426">
        <ele>174</ele>
        <time>2019-05-14T00:35:42.460Z</time>
      </trkpt>
      <trkpt lat="43.31781" lon="1.93462">
        <ele>174</ele>
        <time>2019-05-14T00:35:48.963Z</time>
      </trkpt>
      <trkpt lat="43.31805" lon="1.93564">
        <ele>173</ele>
        <time>2019-05-14T00:36:06.692Z</time>
      </trkpt>
      <trkpt lat="43.31805" lon="1.93601">
        <ele>172</ele>
        <time>2019-05-14T00:36:13.199Z</time>
      </trkpt>
      <trkpt lat="43.31763" lon="1.93721">
        <ele>173</ele>
        <time>2019-05-14T00:36:37.225Z</time>
      </trkpt>
      <trkpt lat="43.3175" lon="1.93809">
        <ele>175</ele>
        <time>2019-05-14T00:36:53.956Z</time>
      </trkpt>
      <trkpt lat="43.31735" lon="1.9386">
        <ele>175</ele>
        <time>2019-05-14T00:37:04.254Z</time>
      </trkpt>
      <trkpt lat="43.317" lon="1.93896">
        <ele>174</ele>
        <time>2019-05-14T00:37:15.421Z</time>
      </trkpt>
      <trkpt lat="43.31649" lon="1.9395">
        <ele>173</ele>
        <time>2019-05-14T00:37:31.654Z</time>
      </trkpt>
      <trkpt lat="43.31589" lon="1.94012">
        <ele>173</ele>
        <time>2019-05-14T00:37:49.365Z</time>
      </trkpt>
      <trkpt lat="43.31505" lon="1.94081">
        <ele>173</ele>
        <time>2019-05-14T00:38:12.162Z</time>
      </trkpt>
      <trkpt lat="43.31485" lon="1.94113">
        <ele>172</ele>
        <time>2019-05-14T00:38:19.047Z</time>
      </trkpt>
      <trkpt lat="43.31462" lon="1.94154">
        <ele>173</ele>
        <time>2019-05-14T00:38:27.376Z</time>
      </trkpt>
      <trkpt lat="43.31368" lon="1.94326">
        <ele>172</ele>
        <time>2019-05-14T00:38:59.781Z</time>
      </trkpt>
      <trkpt lat="43.31347" lon="1.94426">
        <ele>172</ele>
        <time>2019-05-14T00:39:14.413Z</time>
      </trkpt>
      <trkpt lat="43.31341" lon="1.94438">
        <ele>172</ele>
        <time>2019-05-14T00:39:16.440Z</time>
      </trkpt>
      <trkpt lat="43.31331" lon="1.94457">
        <ele>170</ele>
        <time>2019-05-14T00:39:19.705Z</time>
      </trkpt>
      <trkpt lat="43.31308" lon="1.94478">
        <ele>170</ele>
        <time>2019-05-14T00:39:25.040Z</time>
      </trkpt>
      <trkpt lat="43.31282" lon="1.94525">
        <ele>170</ele>
        <time>2019-05-14T00:39:33.248Z</time>
      </trkpt>
      <trkpt lat="43.31274" lon="1.94555">
        <ele>170</ele>
        <time>2019-05-14T00:39:37.942Z</time>
      </trkpt>
      <trkpt lat="43.31268" lon="1.94578">
        <ele>170</ele>
        <time>2019-05-14T00:39:41.604Z</time>
      </trkpt>
      <trkpt lat="43.31268" lon="1.94659">
        <ele>170</ele>
        <time>2019-05-14T00:39:54.798Z</time>
      </trkpt>
      <trkpt lat="43.31273" lon="1.94668">
        <ele>170</ele>
        <time>2019-05-14T00:39:56.691Z</time>
      </trkpt>
      <trkpt lat="43.31292" lon="1.94727">
        <ele>170</ele>
        <time>2019-05-14T00:40:14.867Z</time>
      </trkpt>
      <trkpt lat="43.31303" lon="1.94754">
        <ele>170</ele>
        <time>2019-05-14T00:40:23.764Z</time>
      </trkpt>
      <trkpt lat="43.31304" lon="1.94756">
        <ele>170</ele>
        <time>2019-05-14T00:40:24.642Z</time>
      </trkpt>
      <trkpt lat="43.31326" lon="1.94799">
        <ele>170</ele>
        <time>2019-05-14T00:40:41.483Z</time>
      </trkpt>
      <trkpt lat="43.31347" lon="1.9483">
        <ele>172</ele>
        <time>2019-05-14T00:40:54.931Z</time>
      </trkpt>
      <trkpt lat="43.31373" lon="1.94845">
        <ele>172</ele>
        <time>2019-05-14T00:41:07.269Z</time>
      </trkpt>
      <trkpt lat="43.31427" lon="1.94838">
        <ele>174</ele>
        <time>2019-05-14T00:41:31.840Z</time>
      </trkpt>
      <trkpt lat="43.31449" lon="1.94839">
        <ele>174</ele>
        <time>2019-05-14T00:41:41.442Z</time>
      </trkpt>
      <trkpt lat="43.31494" lon="1.9486">
        <ele>174</ele>
        <time>2019-05-14T00:42:01.324Z</time>
      </trkpt>
      <trkpt lat="43.31527" lon="1.94883">
        <ele>173</ele>
        <time>2019-05-14T00:42:16.291Z</time>
      </trkpt>
      <trkpt lat="43.31545" lon="1.94896">
        <ele>173</ele>
        <time>2019-05-14T00:42:24.653Z</time>
      </trkpt>
      <trkpt lat="43.31569" lon="1.94928">
        <ele>173</ele>
        <time>2019-05-14T00:42:38.592Z</time>
      </trkpt>
      <trkpt lat="43.3158" lon="1.94979">
        <ele>173</ele>
        <time>2019-05-14T00:42:54.056Z</time>
      </trkpt>
      <trkpt lat="43.31579" lon="1.94998">
        <ele>173</ele>
        <time>2019-05-14T00:42:59.710Z</time>
      </trkpt>
      <trkpt lat="43.31565" lon="1.95034">
        <ele>173</ele>
        <time>2019-05-14T00:43:11.192Z</time>
      </trkpt>
      <trkpt lat="43.31553" lon="1.95059">
        <ele>173</ele>
        <time>2019-05-14T00:43:19.728Z</time>
      </trkpt>
      <trkpt lat="43.31548" lon="1.9507">
        <ele>173</ele>
        <time>2019-05-14T00:43:22.943Z</time>
      </trkpt>
      <trkpt lat="43.31558" lon="1.9508">
        <ele>174</ele>
        <time>2019-05-14T00:43:25.792Z</time>
      </trkpt>
      <trkpt lat="43.31577" lon="1.95099">
        <ele>175</ele>
        <time>2019-05-14T00:43:30.742Z</time>
      </trkpt>
      <trkpt lat="43.31581" lon="1.95103">
        <ele>175</ele>
        <time>2019-05-14T00:43:31.772Z</time>
      </trkpt>
      <trkpt lat="43.31584" lon="1.95105">
        <ele>175</ele>
        <time>2019-05-14T00:43:32.621Z</time>
      </trkpt>
      <trkpt lat="43.31583" lon="1.95108">
        <ele>175</ele>
        <time>2019-05-14T00:43:33.099Z</time>
      </trkpt>
      <trkpt lat="43.31584" lon="1.95113">
        <ele>175</ele>
        <time>2019-05-14T00:43:33.918Z</time>
      </trkpt>
      <trkpt lat="43.31585" lon="1.95115">
        <ele>175</ele>
        <time>2019-05-14T00:43:34.385Z</time>
      </trkpt>
      <trkpt lat="43.31587" lon="1.95116">
        <ele>176</ele>
        <time>2019-05-14T00:43:34.848Z</time>
      </trkpt>
      <trkpt lat="43.31589" lon="1.95116">
        <ele>176</ele>
        <time>2019-05-14T00:43:35.292Z</time>
      </trkpt>
      <trkpt lat="43.31591" lon="1.95114">
        <ele>175</ele>
        <time>2019-05-14T00:43:35.745Z</time>
      </trkpt>
      <trkpt lat="43.31592" lon="1.95112">
        <ele>175</ele>
        <time>2019-05-14T00:43:36.117Z</time>
      </trkpt>
      <trkpt lat="43.31593" lon="1.95111">
        <ele>175</ele>
        <time>2019-05-14T00:43:36.395Z</time>
      </trkpt>
      <trkpt lat="43.31592" lon="1.95106">
        <ele>175</ele>
        <time>2019-05-14T00:43:37.094Z</time>
      </trkpt>
      <trkpt lat="43.31591" lon="1.95104">
        <ele>175</ele>
        <time>2019-05-14T00:43:37.379Z</time>
      </trkpt>
      <trkpt lat="43.31594" lon="1.95099">
        <ele>175</ele>
        <time>2019-05-14T00:43:38.474Z</time>
      </trkpt>
      <trkpt lat="43.31597" lon="1.95094">
        <ele>175</ele>
        <time>2019-05-14T00:43:39.312Z</time>
      </trkpt>
      <trkpt lat="43.31603" lon="1.95078">
        <ele>174</ele>
        <time>2019-05-14T00:43:42.373Z</time>
      </trkpt>
      <trkpt lat="43.31631" lon="1.95013">
        <ele>173</ele>
        <time>2019-05-14T00:43:53.911Z</time>
      </trkpt>
      <trkpt lat="43.31642" lon="1.94988">
        <ele>172</ele>
        <time>2019-05-14T00:43:58.664Z</time>
      </trkpt>
      <trkpt lat="43.31649" lon="1.9498">
        <ele>172</ele>
        <time>2019-05-14T00:44:00.390Z</time>
      </trkpt>
      <trkpt lat="43.31708" lon="1.94902">
        <ele>172</ele>
        <time>2019-05-14T00:44:17.967Z</time>
      </trkpt>
      <trkpt lat="43.31715" lon="1.94889">
        <ele>172</ele>
        <time>2019-05-14T00:44:20.538Z</time>
      </trkpt>
      <trkpt lat="43.31721" lon="1.94875">
        <ele>172</ele>
        <time>2019-05-14T00:44:23.221Z</time>
      </trkpt>
      <trkpt lat="43.31728" lon="1.94861">
        <ele>172</ele>
        <time>2019-05-14T00:44:26.138Z</time>
      </trkpt>
      <trkpt lat="43.31742" lon="1.94827">
        <ele>173</ele>
        <time>2019-05-14T00:44:32.965Z</time>
      </trkpt>
      <trkpt lat="43.31746" lon="1.9481">
        <ele>173</ele>
        <time>2019-05-14T00:44:36.206Z</time>
      </trkpt>
      <trkpt lat="43.31747" lon="1.94799">
        <ele>173</ele>
        <time>2019-05-14T00:44:38.240Z</time>
      </trkpt>
      <trkpt lat="43.31749" lon="1.94784">
        <ele>174</ele>
        <time>2019-05-14T00:44:41.400Z</time>
      </trkpt>
      <trkpt lat="43.31754" lon="1.94752">
        <ele>175</ele>
        <time>2019-05-14T00:44:47.868Z</time>
      </trkpt>
      <trkpt lat="43.31761" lon="1.94689">
        <ele>176</ele>
        <time>2019-05-14T00:45:02.253Z</time>
      </trkpt>
      <trkpt lat="43.31761" lon="1.94653">
        <ele>177</ele>
        <time>2019-05-14T00:45:10.703Z</time>
      </trkpt>
      <trkpt lat="43.31763" lon="1.94629">
        <ele>177</ele>
        <time>2019-05-14T00:45:16.644Z</time>
      </trkpt>
      <trkpt lat="43.31766" lon="1.9462">
        <ele>177</ele>
        <time>2019-05-14T00:45:18.847Z</time>
      </trkpt>
      <trkpt lat="43.31767" lon="1.94614">
        <ele>178</ele>
        <time>2019-05-14T00:45:20.508Z</time>
      </trkpt>
      <trkpt lat="43.31774" lon="1.94592">
        <ele>178</ele>
        <time>2019-05-14T00:45:26.434Z</time>
      </trkpt>
      <trkpt lat="43.31776" lon="1.94587">
        <ele>178</ele>
        <time>2019-05-14T00:45:27.995Z</time>
      </trkpt>
      <trkpt lat="43.31781" lon="1.94577">
        <ele>179</ele>
        <time>2019-05-14T00:45:30.758Z</time>
      </trkpt>
      <trkpt lat="43.31808" lon="1.94519">
        <ele>180</ele>
        <time>2019-05-14T00:45:47.210Z</time>
      </trkpt>
      <trkpt lat="43.31837" lon="1.94459">
        <ele>182</ele>
        <time>2019-05-14T00:46:03.978Z</time>
      </trkpt>
      <trkpt lat="43.31841" lon="1.94451">
        <ele>182</ele>
        <time>2019-05-14T00:46:06.592Z</time>
      </trkpt>
      <trkpt lat="43.31856" lon="1.94421">
        <ele>182</ele>
        <time>2019-05-14T00:46:15.194Z</time>
      </trkpt>
      <trkpt lat="43.31848" lon="1.94416">
        <ele>182</ele>
        <time>2019-05-14T00:46:18.538Z</time>
      </trkpt>
      <trkpt lat="43.31852" lon="1.94394">
        <ele>182</ele>
        <time>2019-05-14T00:46:24.121Z</time>
      </trkpt>
      <trkpt lat="43.31856" lon="1.94376">
        <ele>182</ele>
        <time>2019-05-14T00:46:28.516Z</time>
      </trkpt>
      <trkpt lat="43.31859" lon="1.94363">
        <ele>182</ele>
        <time>2019-05-14T00:46:32.297Z</time>
      </trkpt>
      <trkpt lat="43.3188" lon="1.94281">
        <ele>184</ele>
        <time>2019-05-14T00:46:51.868Z</time>
      </trkpt>
      <trkpt lat="43.3188" lon="1.94279">
        <ele>184</ele>
        <time>2019-05-14T00:46:52.555Z</time>
      </trkpt>
      <trkpt lat="43.31882" lon="1.94271">
        <ele>184</ele>
        <time>2019-05-14T00:46:54.607Z</time>
      </trkpt>
      <trkpt lat="43.31896" lon="1.94213">
        <ele>185</ele>
        <time>2019-05-14T00:47:08.028Z</time>
      </trkpt>
      <trkpt lat="43.31898" lon="1.94203">
        <ele>186</ele>
        <time>2019-05-14T00:47:10.198Z</time>
      </trkpt>
      <trkpt lat="43.31917" lon="1.94148">
        <ele>186</ele>
        <time>2019-05-14T00:47:23.021Z</time>
      </trkpt>
      <trkpt lat="43.3194" lon="1.94069">
        <ele>187</ele>
        <time>2019-05-14T00:47:41.604Z</time>
      </trkpt>
      <trkpt lat="43.31953" lon="1.94027">
        <ele>188</ele>
        <time>2019-05-14T00:47:50.772Z</time>
      </trkpt>
      <trkpt lat="43.31974" lon="1.93963">
        <ele>188</ele>
        <time>2019-05-14T00:48:03.423Z</time>
      </trkpt>
      <trkpt lat="43.31976" lon="1.93957">
        <ele>188</ele>
        <time>2019-05-14T00:48:04.498Z</time>
      </trkpt>
      <trkpt lat="43.31981" lon="1.93958">
        <ele>188</ele>
        <time>2019-05-14T00:48:05.909Z</time>
      </trkpt>
      <trkpt lat="43.31987" lon="1.93955">
        <ele>189</ele>
        <time>2019-05-14T00:48:07.562Z</time>
      </trkpt>
      <trkpt lat="43.3199" lon="1.93951">
        <ele>189</ele>
        <time>2019-05-14T00:48:08.898Z</time>
      </trkpt>
      <trkpt lat="43.31992" lon="1.93945">
        <ele>189</ele>
        <time>2019-05-14T00:48:09.855Z</time>
      </trkpt>
      <trkpt lat="43.3199" lon="1.93929">
        <ele>189</ele>
        <time>2019-05-14T00:48:12.757Z</time>
      </trkpt>
      <trkpt lat="43.31987" lon="1.93926">
        <ele>189</ele>
        <time>2019-05-14T00:48:13.457Z</time>
      </trkpt>
      <trkpt lat="43.31989" lon="1.93921">
        <ele>190</ele>
        <time>2019-05-14T00:48:14.753Z</time>
      </trkpt>
      <trkpt lat="43.31991" lon="1.93915">
        <ele>189</ele>
        <time>2019-05-14T00:48:15.946Z</time>
      </trkpt>
    </trkseg>
  </trk>
</gpx>